SIA24 WSSS-KJFK
Flight info
| Callsign | SIA24 |
|---|---|
| Flight time | N/A |
| Altitude | 32000 |
| Route | TOMAN3A TOMAN L625 AKMON/K0932F350 L625 ANOKI/N0502F350 L625 AKOTA/N0498F360 L625 MEVIN/N0499F350 B462 KAZIK Y59 AMMEK/N0492F370 Y59 AZAMA Y57 PUTER A590 PUGAL/N0484F390 A590 HAMND/N0495F410 DCT TED J511 GKN J124 ORT DCT 63N140W 63N130W 62N120W 59N110W 5530N10000W DCT MISAX DCT SSM DCT SIKBO DCT AHPAH Q140 MEMMS PUCKY1 |
| Aircraft | A359/H-SDE2E3GHIJ1J3J4J5LM1ORWXY/LB1D1 |
Departure
| Time | N/A |
|---|---|
| Airport | Singapore Changi Airport (WSSS) |
Arrival
| Time | 2026-05-05 08:36 |
|---|---|
| Airport | John F. Kennedy International Airport (KJFK) |
| Time | Latitude | Longitude | Altitude | Speed | Heading |
|---|---|---|---|---|---|
| 2026-05-04 15:47 | 1.33590 | 104.65167 | 13638 ft | 399 kts | 89° |
| 2026-05-04 15:47 | 1.33657 | 104.67943 | 13955 ft | 401 kts | 89° |
| 2026-05-04 15:47 | 1.33724 | 104.70734 | 14264 ft | 402 kts | 89° |
| 2026-05-04 15:47 | 1.33791 | 104.73528 | 14591 ft | 403 kts | 89° |
| 2026-05-04 15:48 | 1.33858 | 104.76331 | 14905 ft | 404 kts | 89° |
| 2026-05-04 15:48 | 1.33926 | 104.79144 | 15215 ft | 405 kts | 89° |
| 2026-05-04 15:48 | 1.34061 | 104.84796 | 15827 ft | 408 kts | 89° |
| 2026-05-04 15:49 | 1.34128 | 104.87595 | 16120 ft | 409 kts | 89° |
| 2026-05-04 15:49 | 1.34195 | 104.90442 | 16428 ft | 410 kts | 89° |
| 2026-05-04 15:49 | 1.34262 | 104.93293 | 16737 ft | 412 kts | 89° |
| 2026-05-04 15:49 | 1.34332 | 104.96156 | 17032 ft | 413 kts | 89° |
| 2026-05-04 15:50 | 1.34402 | 104.99036 | 17312 ft | 414 kts | 89° |
| 2026-05-04 15:50 | 1.34472 | 105.01920 | 17588 ft | 416 kts | 89° |
| 2026-05-04 15:50 | 1.34541 | 105.04810 | 17873 ft | 417 kts | 89° |
| 2026-05-04 15:50 | 1.34610 | 105.07678 | 18152 ft | 419 kts | 89° |
| 2026-05-04 15:51 | 1.34680 | 105.10591 | 18397 ft | 420 kts | 89° |
| 2026-05-04 15:51 | 1.34750 | 105.13515 | 18615 ft | 422 kts | 89° |
| 2026-05-04 15:51 | 1.34820 | 105.16449 | 18835 ft | 423 kts | 89° |
| 2026-05-04 15:51 | 1.34891 | 105.19389 | 19058 ft | 425 kts | 89° |
| 2026-05-04 15:52 | 1.34962 | 105.22348 | 19275 ft | 426 kts | 89° |
| 2026-05-04 15:52 | 1.35033 | 105.25312 | 19487 ft | 427 kts | 89° |
| 2026-05-04 15:52 | 1.35104 | 105.28287 | 19716 ft | 429 kts | 89° |
| 2026-05-04 15:52 | 1.35175 | 105.31276 | 19910 ft | 431 kts | 89° |
| 2026-05-04 15:53 | 1.35246 | 105.34235 | 20098 ft | 433 kts | 89° |
| 2026-05-04 15:53 | 1.35318 | 105.37248 | 20321 ft | 434 kts | 89° |
| 2026-05-04 15:53 | 1.35390 | 105.40266 | 20545 ft | 436 kts | 89° |
| 2026-05-04 15:53 | 1.35462 | 105.43300 | 20762 ft | 437 kts | 89° |
| 2026-05-04 15:54 | 1.35534 | 105.46340 | 20994 ft | 438 kts | 89° |
| 2026-05-04 15:54 | 1.35607 | 105.49393 | 21202 ft | 440 kts | 89° |
| 2026-05-04 15:54 | 1.35680 | 105.52453 | 21434 ft | 441 kts | 89° |
| 2026-05-04 15:54 | 1.35753 | 105.55519 | 21660 ft | 443 kts | 89° |
| 2026-05-04 15:55 | 1.35825 | 105.58561 | 21870 ft | 444 kts | 89° |
| 2026-05-04 15:55 | 1.35899 | 105.61653 | 22100 ft | 446 kts | 89° |
| 2026-05-04 15:55 | 1.35973 | 105.64756 | 22322 ft | 448 kts | 89° |
| 2026-05-04 15:55 | 1.36050 | 105.67871 | 22547 ft | 449 kts | 88° |
| 2026-05-04 15:56 | 1.36328 | 105.70983 | 22761 ft | 451 kts | 81° |
| 2026-05-04 15:56 | 1.37110 | 105.74022 | 22987 ft | 453 kts | 71° |
| 2026-05-04 15:56 | 1.38440 | 105.76885 | 23196 ft | 456 kts | 60° |
| 2026-05-04 15:56 | 1.40286 | 105.79474 | 23415 ft | 460 kts | 50° |
| 2026-05-04 15:57 | 1.42596 | 105.81696 | 23606 ft | 463 kts | 39° |
| 2026-05-04 15:57 | 1.45239 | 105.83465 | 23791 ft | 466 kts | 32° |
| 2026-05-04 15:57 | 1.48078 | 105.85048 | 23989 ft | 468 kts | 29° |
| 2026-05-04 15:57 | 1.50966 | 105.86544 | 24206 ft | 468 kts | 28° |
| 2026-05-04 15:58 | 1.53883 | 105.88012 | 24417 ft | 470 kts | 28° |
| 2026-05-04 15:58 | 1.56804 | 105.89477 | 24608 ft | 471 kts | 28° |
| 2026-05-04 15:58 | 1.59736 | 105.90958 | 24816 ft | 473 kts | 28° |
| 2026-05-04 15:58 | 1.62671 | 105.92455 | 25026 ft | 474 kts | 28° |
| 2026-05-04 15:59 | 1.65604 | 105.93962 | 25243 ft | 475 kts | 28° |
| 2026-05-04 15:59 | 1.68512 | 105.95464 | 25457 ft | 477 kts | 28° |
| 2026-05-04 15:59 | 1.71460 | 105.96990 | 25693 ft | 478 kts | 28° |
| 2026-05-04 15:59 | 1.74419 | 105.98524 | 25925 ft | 480 kts | 28° |
| 2026-05-04 16:00 | 1.77384 | 106.00061 | 26151 ft | 481 kts | 28° |
| 2026-05-04 16:00 | 1.80364 | 106.01605 | 26377 ft | 483 kts | 28° |
| 2026-05-04 16:00 | 1.83350 | 106.03152 | 26624 ft | 485 kts | 28° |
| 2026-05-04 16:00 | 1.86355 | 106.04708 | 26866 ft | 487 kts | 28° |
| 2026-05-04 16:01 | 1.89364 | 106.06267 | 27105 ft | 489 kts | 28° |
| 2026-05-04 16:01 | 1.92386 | 106.07833 | 27364 ft | 490 kts | 28° |
| 2026-05-04 16:01 | 1.95379 | 106.09387 | 27611 ft | 492 kts | 28° |
| 2026-05-04 16:01 | 1.98425 | 106.10962 | 27847 ft | 494 kts | 28° |
| 2026-05-04 16:02 | 2.01484 | 106.12542 | 28090 ft | 496 kts | 28° |
| 2026-05-04 16:02 | 2.04553 | 106.14127 | 28321 ft | 497 kts | 28° |
| 2026-05-04 16:02 | 2.08785 | 106.16313 | 28642 ft | 500 kts | 28° |
| 2026-05-04 16:03 | 2.10666 | 106.17286 | 28756 ft | 501 kts | 28° |
| 2026-05-04 16:03 | 2.13777 | 106.18895 | 28966 ft | 502 kts | 28° |
| 2026-05-04 16:03 | 2.16840 | 106.20480 | 29179 ft | 504 kts | 28° |
| 2026-05-04 16:03 | 2.19960 | 106.22094 | 29383 ft | 505 kts | 28° |
| 2026-05-04 16:04 | 2.23088 | 106.23712 | 29556 ft | 507 kts | 28° |
| 2026-05-04 16:04 | 2.29356 | 106.26955 | 30109 ft | 506 kts | 28° |
| 2026-05-04 16:04 | 2.32482 | 106.28572 | 30332 ft | 506 kts | 28° |
| 2026-05-04 16:05 | 2.35603 | 106.30188 | 30540 ft | 506 kts | 28° |
| 2026-05-04 16:05 | 2.38726 | 106.31804 | 30766 ft | 505 kts | 28° |
| 2026-05-04 16:05 | 2.44930 | 106.35015 | 31201 ft | 505 kts | 28° |
| 2026-05-04 16:06 | 2.48047 | 106.36629 | 31404 ft | 505 kts | 28° |
| 2026-05-04 16:06 | 2.56349 | 106.40927 | 31893 ft | 505 kts | 28° |
| 2026-05-04 16:07 | 2.60542 | 106.43106 | 31941 ft | 510 kts | 28° |
| 2026-05-04 16:08 | 2.73124 | 106.49617 | 31936 ft | 511 kts | 28° |
| 2026-05-04 16:09 | 2.88897 | 106.57795 | 31934 ft | 511 kts | 28° |
| 2026-05-04 16:10 | 3.01519 | 106.64315 | 31936 ft | 510 kts | 28° |
| 2026-05-04 16:11 | 3.14092 | 106.70822 | 31940 ft | 510 kts | 28° |
| 2026-05-04 16:12 | 3.32968 | 106.80598 | 31935 ft | 510 kts | 28° |
| 2026-05-04 16:13 | 3.45570 | 106.87127 | 31937 ft | 510 kts | 28° |
| 2026-05-04 16:14 | 3.57959 | 106.93936 | 31936 ft | 509 kts | 34° |
| 2026-05-04 16:16 | 3.72461 | 107.04124 | 31933 ft | 511 kts | 36° |
| 2026-05-04 16:17 | 3.86947 | 107.14360 | 31933 ft | 511 kts | 36° |
| 2026-05-04 16:18 | 3.98565 | 107.22567 | 31933 ft | 511 kts | 36° |
| 2026-05-04 16:19 | 4.13046 | 107.32803 | 31936 ft | 511 kts | 36° |
| 2026-05-04 16:20 | 4.27563 | 107.43069 | 31933 ft | 511 kts | 36° |
| 2026-05-04 16:22 | 4.42055 | 107.53324 | 31935 ft | 512 kts | 36° |
| 2026-05-04 16:23 | 4.59472 | 107.65653 | 31930 ft | 512 kts | 36° |
| 2026-05-04 16:25 | 4.76927 | 107.78022 | 31928 ft | 513 kts | 36° |
| 2026-05-04 16:26 | 4.97297 | 107.92457 | 31924 ft | 513 kts | 36° |
| 2026-05-04 16:28 | 5.11875 | 108.02716 | 31925 ft | 514 kts | 36° |
| 2026-05-04 16:29 | 5.32358 | 108.17101 | 31922 ft | 514 kts | 36° |
| 2026-05-04 16:31 | 5.47016 | 108.27413 | 31918 ft | 515 kts | 35° |
| 2026-05-04 16:32 | 5.64604 | 108.39790 | 31923 ft | 516 kts | 35° |
| 2026-05-04 16:33 | 5.76357 | 108.48067 | 31917 ft | 515 kts | 35° |
| 2026-05-04 16:34 | 5.85156 | 108.54266 | 31917 ft | 514 kts | 35° |
| 2026-05-04 16:35 | 6.02684 | 108.66623 | 31917 ft | 514 kts | 35° |
| 2026-05-04 16:36 | 6.11470 | 108.72822 | 31914 ft | 514 kts | 35° |
| 2026-05-04 16:37 | 6.20210 | 108.78990 | 31914 ft | 514 kts | 35° |
| 2026-05-04 16:38 | 6.31916 | 108.87255 | 31914 ft | 514 kts | 35° |
| 2026-05-04 16:39 | 6.46490 | 108.97551 | 31911 ft | 514 kts | 35° |
| 2026-05-04 16:40 | 6.58179 | 109.05815 | 31909 ft | 513 kts | 36° |
| 2026-05-04 16:41 | 6.72745 | 109.16119 | 31908 ft | 513 kts | 36° |
| 2026-05-04 16:43 | 6.87331 | 109.26446 | 31909 ft | 513 kts | 36° |
| 2026-05-04 16:43 | 6.96044 | 109.32617 | 31908 ft | 513 kts | 36° |
| 2026-05-04 16:45 | 7.13493 | 109.44987 | 31906 ft | 512 kts | 36° |
| 2026-05-04 16:46 | 7.28046 | 109.55312 | 31906 ft | 511 kts | 36° |
| 2026-05-04 16:47 | 7.39629 | 109.63536 | 31903 ft | 511 kts | 36° |
| 2026-05-04 16:48 | 7.51249 | 109.71792 | 31900 ft | 511 kts | 36° |
| 2026-05-04 16:49 | 7.62824 | 109.80021 | 31903 ft | 511 kts | 36° |
| 2026-05-04 16:50 | 7.74467 | 109.88304 | 31900 ft | 513 kts | 36° |
| 2026-05-04 16:51 | 7.83206 | 109.94525 | 31900 ft | 513 kts | 36° |
| 2026-05-04 16:52 | 7.94797 | 110.02781 | 31897 ft | 511 kts | 36° |
| 2026-05-04 16:53 | 8.03503 | 110.08986 | 31901 ft | 511 kts | 36° |
| 2026-05-04 16:54 | 8.15072 | 110.17239 | 31900 ft | 512 kts | 36° |
| 2026-05-04 16:55 | 8.26583 | 110.25474 | 32952 ft | 497 kts | 36° |
| 2026-05-04 16:55 | 8.32195 | 110.29521 | 33393 ft | 496 kts | 36° |
| 2026-05-04 16:56 | 8.37757 | 110.33532 | 33786 ft | 494 kts | 36° |
| 2026-05-04 16:56 | 8.46118 | 110.39559 | 34381 ft | 490 kts | 36° |
| 2026-05-04 16:57 | 8.48895 | 110.41562 | 34486 ft | 491 kts | 36° |
| 2026-05-04 16:57 | 8.54437 | 110.45559 | 34813 ft | 489 kts | 36° |
| 2026-05-04 16:58 | 8.65516 | 110.53554 | 34899 ft | 492 kts | 36° |
| 2026-05-04 17:00 | 8.82200 | 110.65605 | 34900 ft | 491 kts | 36° |
| 2026-05-04 17:01 | 8.96061 | 110.75639 | 34898 ft | 492 kts | 36° |
| 2026-05-04 17:02 | 9.07201 | 110.83691 | 34900 ft | 493 kts | 36° |
| 2026-05-04 17:03 | 9.15526 | 110.89719 | 34897 ft | 492 kts | 36° |
| 2026-05-04 17:03 | 9.23884 | 110.95774 | 34897 ft | 494 kts | 36° |
| 2026-05-04 17:04 | 9.34117 | 111.03196 | 34895 ft | 494 kts | 36° |
| 2026-05-04 17:05 | 9.46194 | 111.11957 | 34895 ft | 494 kts | 36° |
| 2026-05-04 17:06 | 9.53627 | 111.17355 | 34889 ft | 495 kts | 36° |
| 2026-05-04 17:07 | 9.61086 | 111.22791 | 34896 ft | 497 kts | 35° |
| 2026-05-04 17:07 | 9.68569 | 111.28219 | 34892 ft | 497 kts | 35° |
| 2026-05-04 17:08 | 9.76042 | 111.33650 | 34895 ft | 497 kts | 36° |
| 2026-05-04 17:09 | 9.81649 | 111.37730 | 34895 ft | 497 kts | 36° |
| 2026-05-04 17:09 | 9.87267 | 111.41821 | 34896 ft | 497 kts | 36° |
| 2026-05-04 17:10 | 10.01185 | 111.51963 | 34895 ft | 494 kts | 35° |
| 2026-05-04 17:11 | 10.06759 | 111.56027 | 34896 ft | 494 kts | 35° |
| 2026-05-04 17:12 | 10.15085 | 111.62101 | 34891 ft | 493 kts | 36° |
| 2026-05-04 17:13 | 10.29027 | 111.72278 | 34896 ft | 495 kts | 36° |
| 2026-05-04 17:14 | 10.40161 | 111.80419 | 34894 ft | 494 kts | 36° |
| 2026-05-04 17:15 | 10.48516 | 111.86525 | 34896 ft | 492 kts | 36° |
| 2026-05-04 17:16 | 10.59598 | 111.94655 | 34895 ft | 495 kts | 36° |
| 2026-05-04 17:17 | 10.70775 | 112.02838 | 34891 ft | 495 kts | 36° |
| 2026-05-04 17:18 | 10.81954 | 112.11035 | 34895 ft | 495 kts | 36° |
| 2026-05-04 17:19 | 10.93075 | 112.19203 | 34893 ft | 494 kts | 36° |
| 2026-05-04 17:20 | 11.04225 | 112.27369 | 34896 ft | 493 kts | 36° |
| 2026-05-04 17:20 | 11.12561 | 112.33457 | 34896 ft | 494 kts | 36° |
| 2026-05-04 17:21 | 11.23756 | 112.41650 | 34895 ft | 500 kts | 36° |
| 2026-05-04 17:22 | 11.29405 | 112.45792 | 34896 ft | 500 kts | 36° |
| 2026-05-04 17:23 | 11.40679 | 112.54062 | 34897 ft | 501 kts | 36° |
| 2026-05-04 17:24 | 11.49164 | 112.60297 | 34887 ft | 501 kts | 36° |
| 2026-05-04 17:25 | 11.60495 | 112.68643 | 34886 ft | 505 kts | 35° |
| 2026-05-04 17:26 | 11.71887 | 112.77044 | 34904 ft | 505 kts | 36° |
| 2026-05-04 17:27 | 11.86066 | 112.87514 | 34888 ft | 505 kts | 34° |
| 2026-05-04 17:28 | 11.97471 | 112.95945 | 34907 ft | 506 kts | 34° |
| 2026-05-04 17:29 | 12.14537 | 113.08575 | 34912 ft | 507 kts | 34° |
| 2026-05-04 17:31 | 12.28798 | 113.19152 | 34891 ft | 507 kts | 34° |
| 2026-05-04 17:32 | 12.43071 | 113.29744 | 34911 ft | 507 kts | 34° |
| 2026-05-04 17:33 | 12.54535 | 113.38240 | 34901 ft | 509 kts | 34° |
| 2026-05-04 17:34 | 12.65967 | 113.46728 | 34901 ft | 508 kts | 34° |
| 2026-05-04 17:35 | 12.80266 | 113.57359 | 34898 ft | 509 kts | 34° |
| 2026-05-04 17:36 | 12.85960 | 113.61597 | 34902 ft | 509 kts | 34° |
| 2026-05-04 17:36 | 12.91691 | 113.65865 | 34896 ft | 509 kts | 34° |
| 2026-05-04 17:37 | 12.97425 | 113.70137 | 34901 ft | 509 kts | 34° |
| 2026-05-04 17:37 | 13.03153 | 113.74407 | 34904 ft | 509 kts | 34° |
| 2026-05-04 17:38 | 13.08847 | 113.78654 | 34902 ft | 509 kts | 34° |
| 2026-05-04 17:38 | 13.14568 | 113.82924 | 34903 ft | 509 kts | 34° |
| 2026-05-04 17:39 | 13.23157 | 113.89340 | 34903 ft | 509 kts | 34° |
| 2026-05-04 17:39 | 13.28846 | 113.93593 | 34901 ft | 509 kts | 34° |
| 2026-05-04 17:40 | 13.34566 | 113.97872 | 34904 ft | 509 kts | 34° |
| 2026-05-04 17:40 | 13.40296 | 114.02160 | 34905 ft | 510 kts | 34° |
| 2026-05-04 17:41 | 13.46032 | 114.06455 | 34905 ft | 511 kts | 34° |
| 2026-05-04 17:41 | 13.51772 | 114.10756 | 34904 ft | 510 kts | 34° |
| 2026-05-04 17:42 | 13.57456 | 114.15018 | 34906 ft | 509 kts | 34° |
| 2026-05-04 17:42 | 13.63173 | 114.19307 | 34907 ft | 509 kts | 34° |
| 2026-05-04 17:43 | 13.68892 | 114.23600 | 34908 ft | 509 kts | 34° |
| 2026-05-04 17:43 | 13.74623 | 114.27905 | 34906 ft | 511 kts | 34° |
| 2026-05-04 17:44 | 13.80358 | 114.32215 | 34902 ft | 511 kts | 34° |
| 2026-05-04 17:44 | 13.86062 | 114.36505 | 34903 ft | 511 kts | 34° |
| 2026-05-04 17:45 | 13.91798 | 114.40822 | 34906 ft | 511 kts | 34° |
| 2026-05-04 17:45 | 13.97419 | 114.45283 | 34908 ft | 512 kts | 41° |
| 2026-05-04 17:46 | 14.02442 | 114.50494 | 34902 ft | 513 kts | 44° |
| 2026-05-04 17:46 | 14.07313 | 114.55800 | 34907 ft | 513 kts | 44° |
| 2026-05-04 17:47 | 14.12201 | 114.61162 | 34904 ft | 513 kts | 44° |
| 2026-05-04 17:47 | 14.17094 | 114.66514 | 34902 ft | 513 kts | 44° |
| 2026-05-04 17:48 | 14.21995 | 114.71864 | 34903 ft | 513 kts | 44° |
| 2026-05-04 17:48 | 14.26858 | 114.77173 | 34908 ft | 513 kts | 44° |
| 2026-05-04 17:49 | 14.31768 | 114.82537 | 34903 ft | 515 kts | 44° |
| 2026-05-04 17:49 | 14.36685 | 114.87912 | 34904 ft | 515 kts | 44° |
| 2026-05-04 17:50 | 14.41602 | 114.93293 | 34902 ft | 515 kts | 44° |
| 2026-05-04 17:50 | 14.46519 | 114.98676 | 34903 ft | 515 kts | 44° |
| 2026-05-04 17:51 | 14.51400 | 115.04025 | 34903 ft | 515 kts | 44° |
| 2026-05-04 17:51 | 14.56303 | 115.09402 | 34906 ft | 514 kts | 44° |
| 2026-05-04 17:52 | 14.61219 | 115.14795 | 34907 ft | 516 kts | 44° |
| 2026-05-04 17:52 | 14.66137 | 115.20195 | 34904 ft | 516 kts | 44° |
| 2026-05-04 17:53 | 14.71022 | 115.25562 | 34907 ft | 516 kts | 44° |
| 2026-05-04 17:53 | 14.75938 | 115.30968 | 34906 ft | 516 kts | 44° |
| 2026-05-04 17:54 | 14.80853 | 115.36376 | 34906 ft | 516 kts | 45° |
| 2026-05-04 17:54 | 14.85763 | 115.41781 | 34906 ft | 516 kts | 45° |
| 2026-05-04 17:55 | 14.90684 | 115.47203 | 34906 ft | 517 kts | 45° |
| 2026-05-04 17:55 | 14.95576 | 115.52597 | 34906 ft | 518 kts | 45° |
| 2026-05-04 17:56 | 15.00499 | 115.58030 | 34903 ft | 518 kts | 45° |
| 2026-05-04 17:56 | 15.05420 | 115.63464 | 34903 ft | 518 kts | 45° |
| 2026-05-04 17:57 | 15.10343 | 115.68904 | 34905 ft | 517 kts | 45° |
| 2026-05-04 17:57 | 15.15226 | 115.74304 | 34908 ft | 518 kts | 45° |
| 2026-05-04 17:58 | 15.20153 | 115.79756 | 34902 ft | 519 kts | 45° |
| 2026-05-04 17:58 | 15.25079 | 115.85211 | 34903 ft | 519 kts | 45° |
| 2026-05-04 17:59 | 15.30002 | 115.90667 | 34902 ft | 519 kts | 45° |
| 2026-05-04 18:00 | 15.37356 | 115.98825 | 34904 ft | 519 kts | 45° |
| 2026-05-04 18:00 | 15.42286 | 116.04299 | 34910 ft | 519 kts | 45° |
| 2026-05-04 18:01 | 15.47215 | 116.09776 | 34908 ft | 520 kts | 45° |
| 2026-05-04 18:01 | 15.52150 | 116.15263 | 34906 ft | 520 kts | 45° |
| 2026-05-04 18:02 | 15.59519 | 116.23466 | 34906 ft | 520 kts | 45° |
| 2026-05-04 18:02 | 15.64453 | 116.28961 | 34905 ft | 521 kts | 45° |
| 2026-05-04 18:03 | 15.69397 | 116.34474 | 34907 ft | 522 kts | 45° |
| 2026-05-04 18:03 | 15.74344 | 116.39994 | 34907 ft | 522 kts | 45° |
| 2026-05-04 18:04 | 15.79264 | 116.45488 | 34908 ft | 522 kts | 45° |
| 2026-05-04 18:05 | 15.86681 | 116.53778 | 34907 ft | 522 kts | 45° |
| 2026-05-04 18:05 | 15.91626 | 116.59310 | 34908 ft | 523 kts | 45° |
| 2026-05-04 18:06 | 15.99060 | 116.67635 | 34909 ft | 525 kts | 45° |
| 2026-05-04 18:06 | 16.04028 | 116.73203 | 34908 ft | 525 kts | 45° |
| 2026-05-04 18:07 | 16.08962 | 116.78739 | 34906 ft | 525 kts | 45° |
| 2026-05-04 18:07 | 16.13925 | 116.84312 | 34905 ft | 525 kts | 45° |
| 2026-05-04 18:08 | 16.18888 | 116.89889 | 34909 ft | 526 kts | 45° |
| 2026-05-04 18:08 | 16.23864 | 116.95484 | 34914 ft | 527 kts | 45° |
| 2026-05-04 18:09 | 16.33788 | 117.06657 | 34905 ft | 528 kts | 45° |
| 2026-05-04 18:10 | 16.38773 | 117.12277 | 34906 ft | 528 kts | 45° |
| 2026-05-04 18:10 | 16.43751 | 117.17893 | 34905 ft | 528 kts | 45° |
| 2026-05-04 18:11 | 16.48686 | 117.23469 | 35191 ft | 525 kts | 45° |
| 2026-05-04 18:11 | 16.51153 | 117.26258 | 35452 ft | 522 kts | 45° |
| 2026-05-04 18:11 | 16.53614 | 117.29039 | 35597 ft | 522 kts | 45° |
| 2026-05-04 18:12 | 16.56076 | 117.31822 | 35702 ft | 522 kts | 45° |
| 2026-05-04 18:12 | 16.58539 | 117.34607 | 35847 ft | 522 kts | 45° |
| 2026-05-04 18:12 | 16.63473 | 117.40189 | 35908 ft | 526 kts | 45° |
| 2026-05-04 18:13 | 16.68412 | 117.45783 | 35903 ft | 528 kts | 45° |
| 2026-05-04 18:14 | 16.75866 | 117.54239 | 35903 ft | 528 kts | 45° |
| 2026-05-04 18:14 | 16.80836 | 117.59880 | 35903 ft | 528 kts | 45° |
| 2026-05-04 18:15 | 16.90746 | 117.71145 | 35903 ft | 528 kts | 45° |
| 2026-05-04 18:16 | 16.95712 | 117.76797 | 35904 ft | 528 kts | 45° |
| 2026-05-04 18:16 | 17.00678 | 117.82454 | 35903 ft | 528 kts | 45° |
| 2026-05-04 18:17 | 17.08128 | 117.90949 | 35897 ft | 528 kts | 45° |
| 2026-05-04 18:18 | 17.15541 | 117.99412 | 35903 ft | 528 kts | 45° |
| 2026-05-04 18:18 | 17.20503 | 118.05083 | 35903 ft | 528 kts | 45° |
| 2026-05-04 18:19 | 17.27939 | 118.13591 | 35900 ft | 529 kts | 45° |
| 2026-05-04 18:19 | 17.32909 | 118.19284 | 35901 ft | 529 kts | 45° |
| 2026-05-04 18:20 | 17.37838 | 118.24934 | 35898 ft | 530 kts | 45° |
| 2026-05-04 18:20 | 17.42805 | 118.30633 | 35898 ft | 530 kts | 45° |
| 2026-05-04 18:21 | 17.47768 | 118.36332 | 35898 ft | 530 kts | 45° |
| 2026-05-04 18:21 | 17.52732 | 118.42037 | 35898 ft | 530 kts | 45° |
| 2026-05-04 18:22 | 17.57659 | 118.47706 | 35895 ft | 530 kts | 45° |
| 2026-05-04 18:22 | 17.62623 | 118.53421 | 35894 ft | 530 kts | 45° |
| 2026-05-04 18:23 | 17.67592 | 118.59147 | 35895 ft | 531 kts | 45° |
| 2026-05-04 18:23 | 17.72559 | 118.64876 | 35892 ft | 531 kts | 45° |
| 2026-05-04 18:24 | 17.77489 | 118.70568 | 35893 ft | 530 kts | 45° |
| 2026-05-04 18:24 | 17.82447 | 118.76297 | 35895 ft | 530 kts | 45° |
| 2026-05-04 18:25 | 17.87409 | 118.82035 | 35892 ft | 531 kts | 45° |
| 2026-05-04 18:25 | 17.92376 | 118.87785 | 35894 ft | 532 kts | 45° |
| 2026-05-04 18:26 | 17.97341 | 118.93537 | 35890 ft | 532 kts | 45° |
| 2026-05-04 18:26 | 18.02270 | 118.99263 | 35890 ft | 532 kts | 45° |
| 2026-05-04 18:27 | 18.07231 | 119.05020 | 35887 ft | 531 kts | 45° |
| 2026-05-04 18:27 | 18.12197 | 119.10784 | 35890 ft | 532 kts | 45° |
| 2026-05-04 18:28 | 18.17166 | 119.16559 | 35887 ft | 533 kts | 45° |
| 2026-05-04 18:28 | 18.22107 | 119.22309 | 35892 ft | 533 kts | 45° |
| 2026-05-04 18:29 | 18.27073 | 119.28096 | 35886 ft | 533 kts | 45° |
| 2026-05-04 18:29 | 18.32038 | 119.33886 | 35889 ft | 532 kts | 45° |
| 2026-05-04 18:30 | 18.39453 | 119.42542 | 35895 ft | 534 kts | 45° |
| 2026-05-04 18:31 | 18.44428 | 119.48357 | 35893 ft | 535 kts | 45° |
| 2026-05-04 18:31 | 18.49401 | 119.54175 | 35894 ft | 534 kts | 45° |
| 2026-05-04 18:32 | 18.54372 | 119.59997 | 35891 ft | 534 kts | 45° |
| 2026-05-04 18:32 | 18.59335 | 119.65815 | 35906 ft | 534 kts | 45° |
| 2026-05-04 18:33 | 18.64267 | 119.71612 | 35898 ft | 535 kts | 45° |
| 2026-05-04 18:33 | 18.69243 | 119.77450 | 35904 ft | 535 kts | 45° |
| 2026-05-04 18:34 | 18.74219 | 119.83294 | 35908 ft | 535 kts | 45° |
| 2026-05-04 18:34 | 18.79192 | 119.89143 | 35908 ft | 535 kts | 45° |
| 2026-05-04 18:35 | 18.84152 | 119.94985 | 35912 ft | 535 kts | 45° |
| 2026-05-04 18:35 | 18.89087 | 120.00803 | 35915 ft | 535 kts | 45° |
| 2026-05-04 18:36 | 18.94054 | 120.06664 | 35911 ft | 535 kts | 45° |
| 2026-05-04 18:36 | 18.99018 | 120.12527 | 35921 ft | 535 kts | 45° |
| 2026-05-04 18:37 | 19.03981 | 120.18395 | 35920 ft | 535 kts | 45° |
| 2026-05-04 18:37 | 19.08904 | 120.24221 | 35932 ft | 535 kts | 45° |
| 2026-05-04 18:38 | 19.13858 | 120.30089 | 35916 ft | 535 kts | 45° |
| 2026-05-04 18:38 | 19.18818 | 120.35970 | 35931 ft | 535 kts | 45° |
| 2026-05-04 18:39 | 19.23770 | 120.41848 | 35932 ft | 535 kts | 45° |
| 2026-05-04 18:39 | 19.28727 | 120.47737 | 35917 ft | 535 kts | 45° |
| 2026-05-04 18:40 | 19.33646 | 120.53586 | 35935 ft | 535 kts | 45° |
| 2026-05-04 18:40 | 19.38592 | 120.59473 | 35942 ft | 535 kts | 45° |
| 2026-05-04 18:41 | 19.43534 | 120.65371 | 35926 ft | 536 kts | 45° |
| 2026-05-04 18:41 | 19.48479 | 120.71272 | 35945 ft | 535 kts | 45° |
| 2026-05-04 18:42 | 19.53397 | 120.77138 | 35950 ft | 535 kts | 45° |
| 2026-05-04 18:42 | 19.58342 | 120.83045 | 35941 ft | 536 kts | 45° |
| 2026-05-04 18:43 | 19.63292 | 120.88965 | 35941 ft | 536 kts | 45° |
| 2026-05-04 18:43 | 19.68237 | 120.94888 | 35943 ft | 537 kts | 45° |
| 2026-05-04 18:44 | 19.73183 | 121.00818 | 35947 ft | 536 kts | 45° |
| 2026-05-04 18:44 | 19.78090 | 121.06707 | 35949 ft | 536 kts | 45° |
| 2026-05-04 18:45 | 19.83030 | 121.12642 | 35950 ft | 536 kts | 45° |
| 2026-05-04 18:45 | 19.87974 | 121.18586 | 35952 ft | 537 kts | 45° |
| 2026-05-04 18:46 | 19.92916 | 121.24535 | 35953 ft | 537 kts | 45° |
| 2026-05-04 18:46 | 19.97822 | 121.30448 | 35953 ft | 537 kts | 45° |
| 2026-05-04 18:47 | 20.02761 | 121.36405 | 35963 ft | 537 kts | 45° |
| 2026-05-04 18:47 | 20.07699 | 121.42367 | 35958 ft | 537 kts | 45° |
| 2026-05-04 18:48 | 20.12638 | 121.48337 | 35956 ft | 538 kts | 45° |
| 2026-05-04 18:48 | 20.17578 | 121.54315 | 35950 ft | 538 kts | 45° |
| 2026-05-04 18:49 | 20.22479 | 121.60251 | 35960 ft | 537 kts | 45° |
| 2026-05-04 18:49 | 20.27412 | 121.66232 | 35963 ft | 537 kts | 45° |
| 2026-05-04 18:50 | 20.32342 | 121.72215 | 35961 ft | 537 kts | 46° |
| 2026-05-04 18:50 | 20.37271 | 121.78204 | 35958 ft | 537 kts | 46° |
| 2026-05-04 18:51 | 20.42163 | 121.84155 | 35961 ft | 537 kts | 46° |
| 2026-05-04 18:51 | 20.47088 | 121.90151 | 35960 ft | 537 kts | 46° |
| 2026-05-04 18:52 | 20.52008 | 121.96149 | 35960 ft | 537 kts | 46° |
| 2026-05-04 18:52 | 20.56920 | 122.02142 | 35958 ft | 537 kts | 46° |
| 2026-05-04 18:53 | 20.61798 | 122.08100 | 35959 ft | 537 kts | 46° |
| 2026-05-04 18:53 | 20.66712 | 122.14109 | 35963 ft | 537 kts | 46° |
| 2026-05-04 18:54 | 20.71618 | 122.20115 | 35971 ft | 537 kts | 46° |
| 2026-05-04 18:54 | 20.76522 | 122.26123 | 35963 ft | 537 kts | 46° |
| 2026-05-04 18:55 | 20.81402 | 122.32109 | 35962 ft | 537 kts | 46° |
| 2026-05-04 18:55 | 20.88756 | 122.41143 | 35963 ft | 537 kts | 46° |
| 2026-05-04 18:56 | 20.93657 | 122.47172 | 35981 ft | 537 kts | 46° |
| 2026-05-04 18:56 | 20.98599 | 122.53162 | 35963 ft | 536 kts | 41° |
| 2026-05-04 18:57 | 21.04358 | 122.58020 | 35964 ft | 529 kts | 30° |
| 2026-05-04 18:57 | 21.10499 | 122.62363 | 35960 ft | 529 kts | 28° |
| 2026-05-04 18:58 | 21.16688 | 122.66626 | 35967 ft | 528 kts | 28° |
| 2026-05-04 18:58 | 21.22862 | 122.70894 | 35974 ft | 529 kts | 29° |
| 2026-05-04 18:59 | 21.28992 | 122.75160 | 35959 ft | 529 kts | 29° |
| 2026-05-04 18:59 | 21.35159 | 122.79464 | 35965 ft | 529 kts | 29° |
| 2026-05-04 19:00 | 21.41323 | 122.83772 | 35974 ft | 529 kts | 29° |
| 2026-05-04 19:00 | 21.47503 | 122.88093 | 35981 ft | 531 kts | 29° |
| 2026-05-04 19:01 | 21.53693 | 122.92426 | 35976 ft | 530 kts | 29° |
| 2026-05-04 19:01 | 21.59826 | 122.96724 | 35969 ft | 530 kts | 29° |
| 2026-05-04 19:02 | 21.65998 | 123.01054 | 35960 ft | 530 kts | 29° |
| 2026-05-04 19:02 | 21.72168 | 123.05386 | 35974 ft | 530 kts | 29° |
| 2026-05-04 19:03 | 21.78334 | 123.09720 | 35978 ft | 530 kts | 29° |
| 2026-05-04 19:03 | 21.84461 | 123.14031 | 35971 ft | 530 kts | 29° |
| 2026-05-04 19:04 | 21.90626 | 123.18373 | 35986 ft | 530 kts | 29° |
| 2026-05-04 19:04 | 21.96801 | 123.22726 | 35978 ft | 531 kts | 29° |
| 2026-05-04 19:05 | 22.02950 | 123.27067 | 35978 ft | 532 kts | 29° |
| 2026-05-04 19:05 | 22.09135 | 123.31437 | 35983 ft | 532 kts | 29° |
| 2026-05-04 19:06 | 22.15320 | 123.35813 | 35982 ft | 532 kts | 29° |
| 2026-05-04 19:06 | 22.21524 | 123.40205 | 35986 ft | 534 kts | 29° |
| 2026-05-04 19:07 | 22.27744 | 123.44613 | 35988 ft | 535 kts | 29° |
| 2026-05-04 19:07 | 22.33918 | 123.48995 | 35987 ft | 535 kts | 29° |
| 2026-05-04 19:08 | 22.40135 | 123.53412 | 35991 ft | 535 kts | 29° |
| 2026-05-04 19:08 | 22.46366 | 123.57842 | 35993 ft | 536 kts | 29° |
| 2026-05-04 19:09 | 22.52599 | 123.62280 | 35993 ft | 537 kts | 29° |
| 2026-05-04 19:09 | 22.58789 | 123.66692 | 35995 ft | 536 kts | 29° |
| 2026-05-04 19:10 | 22.65027 | 123.71142 | 35998 ft | 538 kts | 29° |
| 2026-05-04 19:10 | 22.71288 | 123.75614 | 35999 ft | 539 kts | 29° |
| 2026-05-04 19:11 | 22.77548 | 123.80091 | 36001 ft | 539 kts | 29° |
| 2026-05-04 19:11 | 22.83765 | 123.84551 | 36017 ft | 539 kts | 29° |
| 2026-05-04 19:12 | 22.93178 | 123.91293 | 36008 ft | 542 kts | 29° |
| 2026-05-04 19:13 | 22.99466 | 123.95805 | 36006 ft | 542 kts | 29° |
| 2026-05-04 19:13 | 23.05689 | 124.00331 | 36029 ft | 543 kts | 30° |
| 2026-05-04 19:14 | 23.11933 | 124.04952 | 36015 ft | 544 kts | 30° |
| 2026-05-04 19:14 | 23.18186 | 124.09586 | 36015 ft | 544 kts | 29° |
| 2026-05-04 19:15 | 23.24446 | 124.14218 | 36020 ft | 544 kts | 29° |
| 2026-05-04 19:15 | 23.30702 | 124.18848 | 36025 ft | 544 kts | 29° |
| 2026-05-04 19:16 | 23.36561 | 124.24023 | 36028 ft | 552 kts | 43° |
| 2026-05-04 19:16 | 23.41749 | 124.30209 | 36026 ft | 555 kts | 45° |
| 2026-05-04 19:17 | 23.46817 | 124.36557 | 36026 ft | 555 kts | 45° |
| 2026-05-04 19:17 | 23.51871 | 124.42913 | 36027 ft | 555 kts | 45° |
| 2026-05-04 19:18 | 23.56943 | 124.49261 | 36028 ft | 556 kts | 45° |
| 2026-05-04 19:18 | 23.61992 | 124.55568 | 36034 ft | 555 kts | 45° |
| 2026-05-04 19:19 | 23.67071 | 124.61918 | 36034 ft | 555 kts | 45° |
| 2026-05-04 19:19 | 23.72144 | 124.68269 | 36033 ft | 555 kts | 45° |
| 2026-05-04 19:20 | 23.77224 | 124.74637 | 36024 ft | 556 kts | 45° |
| 2026-05-04 19:20 | 23.82266 | 124.80968 | 36034 ft | 556 kts | 45° |
| 2026-05-04 19:21 | 23.87339 | 124.87346 | 36037 ft | 556 kts | 45° |
| 2026-05-04 19:21 | 23.92408 | 124.93726 | 36037 ft | 556 kts | 45° |
| 2026-05-04 19:22 | 23.97476 | 125.00114 | 36031 ft | 556 kts | 45° |
| 2026-05-04 19:22 | 24.02503 | 125.06458 | 36042 ft | 556 kts | 45° |
| 2026-05-04 19:23 | 24.07564 | 125.12853 | 36041 ft | 556 kts | 45° |
| 2026-05-04 19:23 | 24.12623 | 125.19254 | 36043 ft | 557 kts | 45° |
| 2026-05-04 19:24 | 24.17693 | 125.25677 | 36040 ft | 558 kts | 45° |
| 2026-05-04 19:24 | 24.22727 | 125.32064 | 36050 ft | 558 kts | 45° |
| 2026-05-04 19:25 | 24.27795 | 125.38503 | 36046 ft | 558 kts | 45° |
| 2026-05-04 19:25 | 24.32859 | 125.44944 | 36055 ft | 559 kts | 45° |
| 2026-05-04 19:26 | 24.37934 | 125.51408 | 36055 ft | 559 kts | 45° |
| 2026-05-04 19:26 | 24.43004 | 125.57875 | 36058 ft | 559 kts | 45° |
| 2026-05-04 19:27 | 24.48039 | 125.64306 | 36081 ft | 559 kts | 45° |
| 2026-05-04 19:27 | 24.53114 | 125.70796 | 36061 ft | 561 kts | 45° |
| 2026-05-04 19:28 | 24.58192 | 125.77299 | 36065 ft | 561 kts | 45° |
| 2026-05-04 19:28 | 24.63275 | 125.83817 | 36069 ft | 561 kts | 45° |
| 2026-05-04 19:29 | 24.68318 | 125.90293 | 36077 ft | 561 kts | 45° |
| 2026-05-04 19:29 | 24.73396 | 125.96823 | 36076 ft | 562 kts | 45° |
| 2026-05-04 19:30 | 24.78479 | 126.03369 | 36081 ft | 562 kts | 45° |
| 2026-05-04 19:30 | 24.83556 | 126.09915 | 36080 ft | 562 kts | 45° |
| 2026-05-04 19:31 | 24.88599 | 126.16427 | 36080 ft | 563 kts | 45° |
| 2026-05-04 19:31 | 24.93679 | 126.22995 | 36087 ft | 563 kts | 45° |
| 2026-05-04 19:32 | 24.98753 | 126.29565 | 36082 ft | 563 kts | 45° |
| 2026-05-04 19:32 | 25.03831 | 126.36149 | 36108 ft | 563 kts | 45° |
| 2026-05-04 19:33 | 25.08870 | 126.42691 | 36090 ft | 564 kts | 45° |
| 2026-05-04 19:33 | 25.13950 | 126.49296 | 36090 ft | 564 kts | 45° |
| 2026-05-04 19:34 | 25.19022 | 126.55901 | 36094 ft | 564 kts | 45° |
| 2026-05-04 19:34 | 25.24098 | 126.62520 | 36100 ft | 564 kts | 45° |
| 2026-05-04 19:35 | 25.29167 | 126.69138 | 36098 ft | 565 kts | 45° |
| 2026-05-04 19:35 | 25.34210 | 126.75732 | 36088 ft | 565 kts | 45° |
| 2026-05-04 19:36 | 25.39280 | 126.82373 | 36099 ft | 565 kts | 45° |
| 2026-05-04 19:36 | 25.44352 | 126.89024 | 36109 ft | 566 kts | 45° |
| 2026-05-04 19:37 | 25.49427 | 126.95687 | 36102 ft | 566 kts | 45° |
| 2026-05-04 19:37 | 25.54464 | 127.02312 | 36100 ft | 566 kts | 45° |
| 2026-05-04 19:38 | 25.59522 | 127.08976 | 36270 ft | 564 kts | 45° |
| 2026-05-04 19:38 | 25.62057 | 127.12287 | 36464 ft | 562 kts | 44° |
| 2026-05-04 19:38 | 25.64635 | 127.15535 | 36640 ft | 560 kts | 44° |
| 2026-05-04 19:38 | 25.67233 | 127.18750 | 36821 ft | 559 kts | 43° |
| 2026-05-04 19:39 | 25.69836 | 127.21955 | 36976 ft | 559 kts | 43° |
| 2026-05-04 19:39 | 25.72429 | 127.25155 | 37086 ft | 559 kts | 44° |
| 2026-05-04 19:39 | 25.74996 | 127.28339 | 37111 ft | 561 kts | 44° |
| 2026-05-04 19:40 | 25.80194 | 127.34829 | 37114 ft | 564 kts | 44° |
| 2026-05-04 19:40 | 25.85387 | 127.41347 | 37113 ft | 563 kts | 44° |
| 2026-05-04 19:41 | 25.90573 | 127.47870 | 37104 ft | 563 kts | 44° |
| 2026-05-04 19:41 | 25.95722 | 127.54350 | 37124 ft | 563 kts | 44° |
| 2026-05-04 19:42 | 26.00912 | 127.60889 | 37120 ft | 564 kts | 44° |
| 2026-05-04 19:42 | 26.06102 | 127.67438 | 37105 ft | 564 kts | 44° |
| 2026-05-04 19:43 | 26.11284 | 127.73988 | 37099 ft | 564 kts | 44° |
| 2026-05-04 19:43 | 26.16598 | 127.80388 | 37139 ft | 559 kts | 36° |
| 2026-05-04 19:44 | 26.22423 | 127.86021 | 37132 ft | 558 kts | 34° |
| 2026-05-04 19:44 | 26.28371 | 127.91571 | 37136 ft | 558 kts | 34° |
| 2026-05-04 19:45 | 26.34337 | 127.97115 | 37131 ft | 559 kts | 34° |
| 2026-05-04 19:45 | 26.40297 | 128.02678 | 37131 ft | 559 kts | 34° |
| 2026-05-04 19:46 | 26.46215 | 128.08224 | 37129 ft | 559 kts | 34° |
| 2026-05-04 19:46 | 26.52167 | 128.13811 | 37134 ft | 560 kts | 34° |
| 2026-05-04 19:47 | 26.58141 | 128.19425 | 37115 ft | 562 kts | 34° |
| 2026-05-04 19:47 | 26.64083 | 128.25018 | 37133 ft | 562 kts | 34° |
| 2026-05-04 19:48 | 26.70055 | 128.30650 | 37140 ft | 561 kts | 34° |
| 2026-05-04 19:48 | 26.76032 | 128.36290 | 37128 ft | 563 kts | 34° |
| 2026-05-04 19:49 | 26.82009 | 128.41940 | 37119 ft | 563 kts | 34° |
| 2026-05-04 19:49 | 26.86978 | 128.46643 | 37162 ft | 563 kts | 34° |
| 2026-05-04 19:50 | 26.93923 | 128.53225 | 37138 ft | 562 kts | 34° |
| 2026-05-04 19:50 | 26.99892 | 128.58890 | 37137 ft | 562 kts | 34° |
| 2026-05-04 19:51 | 27.04855 | 128.63607 | 37156 ft | 562 kts | 34° |
| 2026-05-04 19:51 | 27.10829 | 128.69293 | 37137 ft | 564 kts | 34° |
| 2026-05-04 19:52 | 27.17776 | 128.75915 | 37141 ft | 564 kts | 34° |
| 2026-05-04 19:52 | 27.22742 | 128.80657 | 37177 ft | 564 kts | 34° |
| 2026-05-04 19:53 | 27.28719 | 128.86370 | 37144 ft | 565 kts | 34° |
| 2026-05-04 19:53 | 27.34705 | 128.92099 | 37139 ft | 565 kts | 34° |
| 2026-05-04 19:54 | 27.40690 | 128.97839 | 37166 ft | 566 kts | 34° |
| 2026-05-04 19:54 | 27.46675 | 129.03585 | 37136 ft | 565 kts | 34° |
| 2026-05-04 19:55 | 27.52562 | 129.09378 | 37133 ft | 570 kts | 40° |
| 2026-05-04 19:55 | 27.57840 | 129.16106 | 37147 ft | 574 kts | 45° |
| 2026-05-04 19:56 | 27.62946 | 129.23038 | 37145 ft | 575 kts | 46° |
| 2026-05-04 19:56 | 27.68022 | 129.30010 | 37126 ft | 575 kts | 46° |
| 2026-05-04 19:57 | 27.73075 | 129.36932 | 37161 ft | 575 kts | 46° |
| 2026-05-04 19:57 | 27.78167 | 129.43893 | 37133 ft | 575 kts | 46° |
| 2026-05-04 19:58 | 27.83258 | 129.50858 | 37136 ft | 575 kts | 46° |
| 2026-05-04 19:58 | 27.88343 | 129.57826 | 37129 ft | 575 kts | 46° |
| 2026-05-04 19:59 | 27.93390 | 129.64755 | 37131 ft | 575 kts | 46° |
| 2026-05-04 19:59 | 27.98472 | 129.71745 | 37129 ft | 575 kts | 46° |
| 2026-05-04 20:00 | 28.03544 | 129.78733 | 37129 ft | 575 kts | 46° |
| 2026-05-04 20:00 | 28.09448 | 129.86879 | 37135 ft | 575 kts | 46° |
| 2026-05-04 20:01 | 28.13658 | 129.92699 | 37117 ft | 575 kts | 46° |
| 2026-05-04 20:01 | 28.18726 | 129.99716 | 37107 ft | 575 kts | 46° |
| 2026-05-04 20:02 | 28.23790 | 130.06737 | 37102 ft | 576 kts | 46° |
| 2026-05-04 20:02 | 28.28862 | 130.13780 | 37112 ft | 576 kts | 46° |
| 2026-05-04 20:03 | 28.33923 | 130.20823 | 37117 ft | 576 kts | 46° |
| 2026-05-04 20:03 | 28.38954 | 130.27835 | 37120 ft | 576 kts | 46° |
| 2026-05-04 20:04 | 28.44016 | 130.34900 | 37129 ft | 577 kts | 46° |
| 2026-05-04 20:04 | 28.49075 | 130.41975 | 37127 ft | 577 kts | 46° |
| 2026-05-04 20:05 | 28.54097 | 130.49008 | 37124 ft | 576 kts | 46° |
| 2026-05-04 20:05 | 28.59148 | 130.56095 | 37125 ft | 577 kts | 46° |
| 2026-05-04 20:06 | 28.64197 | 130.63191 | 37130 ft | 577 kts | 46° |
| 2026-05-04 20:06 | 28.69242 | 130.70293 | 37132 ft | 576 kts | 46° |
| 2026-05-04 20:07 | 28.74277 | 130.77391 | 37134 ft | 576 kts | 46° |
| 2026-05-04 20:07 | 28.79280 | 130.84457 | 37133 ft | 576 kts | 46° |
| 2026-05-04 20:08 | 28.84315 | 130.91581 | 37114 ft | 577 kts | 46° |
| 2026-05-04 20:08 | 28.89350 | 130.98717 | 37130 ft | 577 kts | 46° |
| 2026-05-04 20:09 | 28.94345 | 131.05810 | 37143 ft | 577 kts | 46° |
| 2026-05-04 20:09 | 28.99370 | 131.12956 | 37130 ft | 579 kts | 45° |
| 2026-05-04 20:10 | 29.04410 | 131.20134 | 37130 ft | 578 kts | 46° |
| 2026-05-04 20:10 | 29.09431 | 131.27303 | 37134 ft | 577 kts | 46° |
| 2026-05-04 20:11 | 29.14442 | 131.34467 | 37127 ft | 577 kts | 46° |
| 2026-05-04 20:11 | 29.19421 | 131.41596 | 37129 ft | 578 kts | 47° |
| 2026-05-04 20:12 | 29.24434 | 131.48789 | 37138 ft | 578 kts | 46° |
| 2026-05-04 20:12 | 29.29442 | 131.55986 | 37125 ft | 578 kts | 46° |
| 2026-05-04 20:13 | 29.34449 | 131.63193 | 37131 ft | 579 kts | 47° |
| 2026-05-04 20:13 | 29.39420 | 131.70379 | 37139 ft | 579 kts | 47° |
| 2026-05-04 20:14 | 29.44392 | 131.77642 | 37106 ft | 580 kts | 46° |
| 2026-05-04 20:14 | 29.49420 | 131.84873 | 37126 ft | 579 kts | 46° |
| 2026-05-04 20:15 | 29.54430 | 131.92094 | 37126 ft | 579 kts | 46° |
| 2026-05-04 20:15 | 29.59437 | 131.99351 | 37098 ft | 579 kts | 46° |
| 2026-05-04 20:16 | 29.64378 | 132.06595 | 37119 ft | 579 kts | 47° |
| 2026-05-04 20:16 | 29.69413 | 132.13819 | 37122 ft | 579 kts | 44° |
| 2026-05-04 20:17 | 29.74566 | 132.20957 | 37105 ft | 580 kts | 45° |
| 2026-05-04 20:17 | 29.79704 | 132.28106 | 37143 ft | 580 kts | 45° |
| 2026-05-04 20:18 | 29.84820 | 132.35234 | 37121 ft | 583 kts | 45° |
| 2026-05-04 20:18 | 29.89945 | 132.42485 | 37110 ft | 583 kts | 45° |
| 2026-05-04 20:19 | 29.95016 | 132.49752 | 37120 ft | 582 kts | 46° |
| 2026-05-04 20:19 | 30.00148 | 132.56998 | 37122 ft | 584 kts | 45° |
| 2026-05-04 20:20 | 30.05254 | 132.64190 | 37116 ft | 583 kts | 45° |
| 2026-05-04 20:20 | 30.10359 | 132.71472 | 37131 ft | 585 kts | 45° |
| 2026-05-04 20:21 | 30.15496 | 132.78788 | 37131 ft | 587 kts | 45° |
| 2026-05-04 20:21 | 30.23238 | 132.89787 | 37131 ft | 590 kts | 45° |
| 2026-05-04 20:22 | 30.28381 | 132.97128 | 37137 ft | 592 kts | 45° |
| 2026-05-04 20:22 | 30.33561 | 133.04548 | 37136 ft | 592 kts | 45° |
| 2026-05-04 20:23 | 30.38740 | 133.11981 | 37135 ft | 594 kts | 45° |
| 2026-05-04 20:23 | 30.43932 | 133.19445 | 37135 ft | 595 kts | 46° |
| 2026-05-04 20:24 | 30.49080 | 133.26859 | 37136 ft | 594 kts | 45° |
| 2026-05-04 20:24 | 30.54242 | 133.34310 | 37136 ft | 591 kts | 45° |
| 2026-05-04 20:25 | 30.59387 | 133.41745 | 37152 ft | 591 kts | 45° |
| 2026-05-04 20:25 | 30.64541 | 133.49205 | 37143 ft | 593 kts | 45° |
| 2026-05-04 20:26 | 30.69653 | 133.56623 | 37141 ft | 591 kts | 46° |
| 2026-05-04 20:26 | 30.74793 | 133.64094 | 37120 ft | 593 kts | 46° |
| 2026-05-04 20:27 | 30.79953 | 133.71606 | 37143 ft | 595 kts | 46° |
| 2026-05-04 20:27 | 30.85102 | 133.79124 | 37157 ft | 594 kts | 46° |
| 2026-05-04 20:28 | 30.90234 | 133.86618 | 37141 ft | 598 kts | 46° |
| 2026-05-04 20:28 | 30.95418 | 133.94204 | 37139 ft | 597 kts | 46° |
| 2026-05-04 20:29 | 31.00584 | 134.01783 | 37140 ft | 598 kts | 46° |
| 2026-05-04 20:29 | 31.05755 | 134.09383 | 37140 ft | 597 kts | 46° |
| 2026-05-04 20:30 | 31.10892 | 134.16951 | 37145 ft | 596 kts | 46° |
| 2026-05-04 20:30 | 31.16025 | 134.24517 | 37131 ft | 600 kts | 46° |
| 2026-05-04 20:31 | 31.21197 | 134.32163 | 37174 ft | 599 kts | 46° |
| 2026-05-04 20:31 | 31.26362 | 134.39814 | 37138 ft | 602 kts | 46° |
| 2026-05-04 20:32 | 31.31517 | 134.47462 | 37140 ft | 602 kts | 46° |
| 2026-05-04 20:32 | 31.36681 | 134.55145 | 37144 ft | 602 kts | 46° |
| 2026-05-04 20:33 | 31.41862 | 134.62862 | 37127 ft | 603 kts | 46° |
| 2026-05-04 20:33 | 31.47027 | 134.70575 | 37153 ft | 601 kts | 47° |
| 2026-05-04 20:34 | 31.52161 | 134.78252 | 37146 ft | 604 kts | 47° |
| 2026-05-04 20:34 | 31.57343 | 134.86018 | 37193 ft | 605 kts | 47° |
| 2026-05-04 20:35 | 31.62520 | 134.93795 | 37148 ft | 605 kts | 47° |
| 2026-05-04 20:35 | 31.67691 | 135.01579 | 37126 ft | 605 kts | 47° |
| 2026-05-04 20:36 | 31.72834 | 135.09322 | 37156 ft | 605 kts | 46° |
| 2026-05-04 20:36 | 31.78349 | 135.16729 | 37155 ft | 600 kts | 41° |
| 2026-05-04 20:37 | 31.84061 | 135.23886 | 37149 ft | 600 kts | 41° |
| 2026-05-04 20:37 | 31.89724 | 135.31106 | 37149 ft | 601 kts | 42° |
| 2026-05-04 20:38 | 31.95299 | 135.38373 | 37151 ft | 602 kts | 42° |
| 2026-05-04 20:38 | 32.00882 | 135.45714 | 37156 ft | 602 kts | 42° |
| 2026-05-04 20:39 | 32.06466 | 135.53066 | 37153 ft | 602 kts | 42° |
| 2026-05-04 20:39 | 32.12047 | 135.60416 | 37162 ft | 602 kts | 42° |
| 2026-05-04 20:40 | 32.17597 | 135.67735 | 37150 ft | 602 kts | 42° |
| 2026-05-04 20:40 | 32.23176 | 135.75107 | 37169 ft | 602 kts | 43° |
| 2026-05-04 20:41 | 32.28743 | 135.82480 | 37148 ft | 601 kts | 43° |
| 2026-05-04 20:41 | 32.34299 | 135.89854 | 37146 ft | 601 kts | 43° |
| 2026-05-04 20:42 | 32.39861 | 135.97249 | 37161 ft | 601 kts | 43° |
| 2026-05-04 20:42 | 32.44934 | 136.05082 | 37143 ft | 607 kts | 52° |
| 2026-05-04 20:43 | 32.49566 | 136.13461 | 37145 ft | 609 kts | 54° |
| 2026-05-04 20:43 | 32.54107 | 136.21927 | 37145 ft | 609 kts | 54° |
| 2026-05-04 20:44 | 32.58642 | 136.30406 | 37141 ft | 609 kts | 54° |
| 2026-05-04 20:44 | 32.63156 | 136.38821 | 37128 ft | 609 kts | 54° |
| 2026-05-04 20:45 | 32.67710 | 136.47307 | 37138 ft | 610 kts | 54° |
| 2026-05-04 20:45 | 32.72267 | 136.55818 | 37139 ft | 611 kts | 54° |
| 2026-05-04 20:46 | 32.76817 | 136.64339 | 37138 ft | 610 kts | 54° |
| 2026-05-04 20:46 | 32.81326 | 136.72805 | 37137 ft | 610 kts | 54° |
| 2026-05-04 20:47 | 32.85859 | 136.81335 | 37140 ft | 610 kts | 55° |
| 2026-05-04 20:47 | 32.90383 | 136.89868 | 37140 ft | 609 kts | 55° |
| 2026-05-04 20:48 | 32.94898 | 136.98403 | 37137 ft | 609 kts | 55° |
| 2026-05-04 20:48 | 32.99374 | 137.06884 | 37163 ft | 609 kts | 55° |
| 2026-05-04 20:49 | 33.03872 | 137.15425 | 37139 ft | 608 kts | 55° |
| 2026-05-04 20:49 | 33.08358 | 137.23964 | 37142 ft | 608 kts | 55° |
| 2026-05-04 20:50 | 33.12841 | 137.32517 | 37140 ft | 608 kts | 55° |
| 2026-05-04 20:50 | 33.17290 | 137.41025 | 37144 ft | 608 kts | 55° |
| 2026-05-04 20:51 | 33.21760 | 137.49596 | 37140 ft | 608 kts | 56° |
| 2026-05-04 20:51 | 33.26231 | 137.58175 | 37137 ft | 608 kts | 56° |
| 2026-05-04 20:52 | 33.30700 | 137.66767 | 37131 ft | 609 kts | 56° |
| 2026-05-04 20:52 | 33.35168 | 137.75381 | 37129 ft | 609 kts | 56° |
| 2026-05-04 20:53 | 33.39596 | 137.83940 | 37123 ft | 609 kts | 56° |
| 2026-05-04 20:53 | 33.44053 | 137.92576 | 37119 ft | 610 kts | 56° |
| 2026-05-04 20:54 | 33.48509 | 138.01224 | 37115 ft | 610 kts | 56° |
| 2026-05-04 20:54 | 33.52960 | 138.09889 | 37113 ft | 611 kts | 56° |
| 2026-05-04 20:55 | 33.57372 | 138.18511 | 37108 ft | 611 kts | 56° |
| 2026-05-04 20:55 | 33.61816 | 138.27195 | 37100 ft | 611 kts | 56° |
| 2026-05-04 20:56 | 33.66265 | 138.35906 | 37101 ft | 613 kts | 56° |
| 2026-05-04 20:56 | 33.70712 | 138.44642 | 37105 ft | 613 kts | 57° |
| 2026-05-04 20:57 | 33.75123 | 138.53325 | 37097 ft | 613 kts | 57° |
| 2026-05-04 20:57 | 33.79560 | 138.62077 | 37095 ft | 613 kts | 57° |
| 2026-05-04 20:58 | 33.83991 | 138.70848 | 37099 ft | 614 kts | 57° |
| 2026-05-04 20:58 | 33.88422 | 138.79636 | 37101 ft | 614 kts | 57° |
| 2026-05-04 20:59 | 33.92846 | 138.88431 | 37107 ft | 615 kts | 57° |
| 2026-05-04 20:59 | 33.97239 | 138.97187 | 37096 ft | 615 kts | 57° |
| 2026-05-04 21:00 | 34.01659 | 139.06015 | 37099 ft | 615 kts | 57° |
| 2026-05-04 21:00 | 34.06075 | 139.14859 | 37093 ft | 616 kts | 57° |
| 2026-05-04 21:01 | 34.10489 | 139.23721 | 37091 ft | 617 kts | 57° |
| 2026-05-04 21:01 | 34.14867 | 139.32535 | 37113 ft | 616 kts | 57° |
| 2026-05-04 21:02 | 34.19273 | 139.41420 | 37097 ft | 616 kts | 57° |
| 2026-05-04 21:02 | 34.23667 | 139.50304 | 37097 ft | 616 kts | 57° |
| 2026-05-04 21:03 | 34.28059 | 139.59206 | 37102 ft | 616 kts | 57° |
| 2026-05-04 21:03 | 34.32415 | 139.68057 | 37102 ft | 617 kts | 58° |
| 2026-05-04 21:04 | 34.36797 | 139.76985 | 37106 ft | 617 kts | 58° |
| 2026-05-04 21:04 | 34.41167 | 139.85909 | 37105 ft | 617 kts | 58° |
| 2026-05-04 21:05 | 34.45537 | 139.94857 | 37108 ft | 617 kts | 58° |
| 2026-05-04 21:05 | 34.49869 | 140.03750 | 37116 ft | 617 kts | 58° |
| 2026-05-04 21:06 | 34.54226 | 140.12717 | 37116 ft | 617 kts | 58° |
| 2026-05-04 21:06 | 34.58579 | 140.21700 | 37115 ft | 617 kts | 58° |
| 2026-05-04 21:07 | 34.62924 | 140.30687 | 37116 ft | 617 kts | 58° |
| 2026-05-04 21:07 | 34.67234 | 140.39625 | 37116 ft | 617 kts | 58° |
| 2026-05-04 21:08 | 34.71557 | 140.48636 | 37119 ft | 617 kts | 59° |
| 2026-05-04 21:08 | 34.75759 | 140.57748 | 37118 ft | 618 kts | 60° |
| 2026-05-04 21:09 | 34.79910 | 140.66894 | 37127 ft | 618 kts | 60° |
| 2026-05-04 21:09 | 34.84047 | 140.75975 | 37121 ft | 618 kts | 60° |
| 2026-05-04 21:10 | 34.88221 | 140.85113 | 37124 ft | 618 kts | 60° |
| 2026-05-04 21:10 | 34.92394 | 140.94262 | 37124 ft | 618 kts | 60° |
| 2026-05-04 21:11 | 34.96561 | 141.03425 | 37121 ft | 618 kts | 61° |
| 2026-05-04 21:11 | 35.00688 | 141.12529 | 37112 ft | 618 kts | 61° |
| 2026-05-04 21:12 | 35.04836 | 141.21706 | 37121 ft | 618 kts | 61° |
| 2026-05-04 21:12 | 35.08980 | 141.30897 | 37135 ft | 618 kts | 61° |
| 2026-05-04 21:13 | 35.13124 | 141.40113 | 37118 ft | 619 kts | 61° |
| 2026-05-04 21:13 | 35.17237 | 141.49283 | 37119 ft | 620 kts | 61° |
| 2026-05-04 21:14 | 35.21369 | 141.58523 | 37122 ft | 620 kts | 61° |
| 2026-05-04 21:14 | 35.25500 | 141.67786 | 37119 ft | 620 kts | 61° |
| 2026-05-04 21:15 | 35.29619 | 141.77045 | 37119 ft | 620 kts | 62° |
| 2026-05-04 21:15 | 35.33735 | 141.86324 | 37118 ft | 620 kts | 62° |
| 2026-05-04 21:16 | 35.37815 | 141.95546 | 37116 ft | 620 kts | 62° |
| 2026-05-04 21:16 | 35.41914 | 142.04838 | 37103 ft | 620 kts | 62° |
| 2026-05-04 21:17 | 35.46009 | 142.14146 | 37116 ft | 620 kts | 62° |
| 2026-05-04 21:17 | 35.50091 | 142.23451 | 37113 ft | 620 kts | 62° |
| 2026-05-04 21:18 | 35.54141 | 142.32706 | 37110 ft | 620 kts | 62° |
| 2026-05-04 21:18 | 35.58210 | 142.42031 | 37105 ft | 620 kts | 62° |
| 2026-05-04 21:19 | 35.62274 | 142.51371 | 37105 ft | 620 kts | 62° |
| 2026-05-04 21:19 | 35.66335 | 142.60730 | 37106 ft | 620 kts | 63° |
| 2026-05-04 21:20 | 35.70360 | 142.70035 | 37105 ft | 621 kts | 63° |
| 2026-05-04 21:20 | 35.74409 | 142.79417 | 37103 ft | 621 kts | 63° |
| 2026-05-04 21:21 | 35.78457 | 142.88827 | 37103 ft | 622 kts | 63° |
| 2026-05-04 21:21 | 35.82498 | 142.98244 | 37097 ft | 622 kts | 63° |
| 2026-05-04 21:22 | 35.86506 | 143.07612 | 37096 ft | 622 kts | 63° |
| 2026-05-04 21:22 | 35.90547 | 143.17055 | 37093 ft | 623 kts | 62° |
| 2026-05-04 21:23 | 35.92954 | 143.21491 | 37096 ft | 621 kts | 48° |
| 2026-05-04 21:23 | 35.95949 | 143.25288 | 37089 ft | 613 kts | 34° |
| 2026-05-04 21:23 | 36.02616 | 143.31826 | 37153 ft | 612 kts | 31° |
| 2026-05-04 21:24 | 36.09431 | 143.38024 | 37095 ft | 613 kts | 30° |
| 2026-05-04 21:24 | 36.16314 | 143.44247 | 37091 ft | 613 kts | 31° |
| 2026-05-04 21:25 | 36.23174 | 143.50535 | 37074 ft | 614 kts | 31° |
| 2026-05-04 21:25 | 36.30021 | 143.56869 | 37089 ft | 614 kts | 31° |
| 2026-05-04 21:26 | 36.36818 | 143.63176 | 37091 ft | 615 kts | 31° |
| 2026-05-04 21:26 | 36.43668 | 143.69540 | 37085 ft | 616 kts | 31° |
| 2026-05-04 21:27 | 36.50523 | 143.75921 | 37080 ft | 616 kts | 31° |
| 2026-05-04 21:27 | 36.57380 | 143.82316 | 37082 ft | 616 kts | 31° |
| 2026-05-04 21:28 | 36.64237 | 143.88727 | 37096 ft | 617 kts | 31° |
| 2026-05-04 21:28 | 36.71061 | 143.95120 | 37074 ft | 618 kts | 31° |
| 2026-05-04 21:29 | 36.77931 | 144.01573 | 37074 ft | 619 kts | 32° |
| 2026-05-04 21:29 | 36.84798 | 144.08038 | 37072 ft | 619 kts | 32° |
| 2026-05-04 21:30 | 36.91664 | 144.14517 | 37101 ft | 619 kts | 32° |
| 2026-05-04 21:30 | 36.98489 | 144.20972 | 37070 ft | 619 kts | 32° |
| 2026-05-04 21:31 | 37.08773 | 144.30739 | 37061 ft | 619 kts | 32° |
| 2026-05-04 21:32 | 37.15637 | 144.37282 | 37047 ft | 620 kts | 32° |
| 2026-05-04 21:32 | 37.22448 | 144.43788 | 37072 ft | 620 kts | 32° |
| 2026-05-04 21:33 | 37.29298 | 144.50349 | 37018 ft | 619 kts | 32° |
| 2026-05-04 21:33 | 37.36146 | 144.56923 | 37041 ft | 620 kts | 32° |
| 2026-05-04 21:34 | 37.43003 | 144.63521 | 37039 ft | 621 kts | 32° |
| 2026-05-04 21:34 | 37.49812 | 144.70089 | 37030 ft | 621 kts | 32° |
| 2026-05-04 21:35 | 37.56660 | 144.76711 | 37019 ft | 621 kts | 32° |
| 2026-05-04 21:35 | 37.63517 | 144.83356 | 37026 ft | 621 kts | 32° |
| 2026-05-04 21:36 | 37.70368 | 144.90011 | 37022 ft | 622 kts | 32° |
| 2026-05-04 21:36 | 37.77221 | 144.96685 | 37018 ft | 622 kts | 32° |
| 2026-05-04 21:37 | 37.84017 | 145.03319 | 37012 ft | 621 kts | 32° |
| 2026-05-04 21:37 | 37.90855 | 145.10011 | 37012 ft | 622 kts | 33° |
| 2026-05-04 21:38 | 37.97692 | 145.16716 | 37006 ft | 622 kts | 33° |
| 2026-05-04 21:38 | 38.04527 | 145.23437 | 37004 ft | 622 kts | 33° |
| 2026-05-04 21:39 | 38.11317 | 145.30129 | 37003 ft | 621 kts | 33° |
| 2026-05-04 21:39 | 38.18142 | 145.36873 | 36996 ft | 621 kts | 33° |
| 2026-05-04 21:40 | 38.24959 | 145.43625 | 36996 ft | 621 kts | 33° |
| 2026-05-04 21:40 | 38.31778 | 145.50395 | 36988 ft | 622 kts | 33° |
| 2026-05-04 21:41 | 38.38417 | 145.57382 | 37003 ft | 626 kts | 39° |
| 2026-05-04 21:41 | 38.44727 | 145.65029 | 36982 ft | 626 kts | 41° |
| 2026-05-04 21:42 | 38.51000 | 145.72738 | 36973 ft | 626 kts | 40° |
| 2026-05-04 21:42 | 38.57348 | 145.80350 | 36963 ft | 625 kts | 39° |
| 2026-05-04 21:43 | 38.63695 | 145.87868 | 36963 ft | 626 kts | 39° |
| 2026-05-04 21:43 | 38.70081 | 145.95442 | 37002 ft | 627 kts | 39° |
| 2026-05-04 21:44 | 38.76443 | 146.03028 | 36957 ft | 624 kts | 39° |
| 2026-05-04 21:44 | 38.82788 | 146.10622 | 36946 ft | 624 kts | 40° |
| 2026-05-04 21:45 | 38.89092 | 146.18185 | 36925 ft | 625 kts | 40° |
| 2026-05-04 21:45 | 38.95436 | 146.25815 | 36938 ft | 625 kts | 40° |
| 2026-05-04 21:46 | 39.01775 | 146.33458 | 36937 ft | 625 kts | 40° |
| 2026-05-04 21:46 | 39.08107 | 146.41113 | 36926 ft | 625 kts | 40° |
| 2026-05-04 21:47 | 39.14431 | 146.48778 | 36911 ft | 625 kts | 40° |
| 2026-05-04 21:47 | 39.20709 | 146.56407 | 36912 ft | 624 kts | 40° |
| 2026-05-04 21:48 | 39.27028 | 146.64104 | 36902 ft | 625 kts | 40° |
| 2026-05-04 21:48 | 39.33339 | 146.71814 | 36947 ft | 625 kts | 41° |
| 2026-05-04 21:49 | 39.39597 | 146.79478 | 36893 ft | 623 kts | 41° |
| 2026-05-04 21:49 | 39.45880 | 146.87193 | 36882 ft | 623 kts | 41° |
| 2026-05-04 21:50 | 39.52159 | 146.94921 | 36881 ft | 624 kts | 41° |
| 2026-05-04 21:50 | 39.58458 | 147.02697 | 36878 ft | 624 kts | 41° |
| 2026-05-04 21:51 | 39.64739 | 147.10470 | 36895 ft | 625 kts | 41° |
| 2026-05-04 21:51 | 39.70980 | 147.18215 | 36855 ft | 625 kts | 41° |
| 2026-05-04 21:52 | 39.77254 | 147.26020 | 36853 ft | 625 kts | 41° |
| 2026-05-04 21:52 | 39.83528 | 147.33846 | 36853 ft | 625 kts | 41° |
| 2026-05-04 21:53 | 39.89795 | 147.41685 | 36839 ft | 625 kts | 41° |
| 2026-05-04 21:53 | 39.96034 | 147.49508 | 36879 ft | 627 kts | 42° |
| 2026-05-04 21:54 | 40.02304 | 147.57393 | 36827 ft | 625 kts | 42° |
| 2026-05-04 21:54 | 40.08553 | 147.65274 | 36800 ft | 625 kts | 42° |
| 2026-05-04 21:55 | 40.14804 | 147.73174 | 36816 ft | 627 kts | 42° |
| 2026-05-04 21:55 | 40.21025 | 147.81060 | 36820 ft | 628 kts | 42° |
| 2026-05-04 21:56 | 40.27294 | 147.89028 | 36878 ft | 628 kts | 42° |
| 2026-05-04 21:56 | 40.33540 | 147.96991 | 36809 ft | 627 kts | 42° |
| 2026-05-04 21:57 | 40.39786 | 148.04973 | 36805 ft | 627 kts | 43° |
| 2026-05-04 21:57 | 40.45985 | 148.12918 | 36798 ft | 627 kts | 43° |
| 2026-05-04 21:58 | 40.52224 | 148.20935 | 36793 ft | 628 kts | 43° |
| 2026-05-04 21:58 | 40.58470 | 148.28982 | 36790 ft | 628 kts | 43° |
| 2026-05-04 21:59 | 40.64714 | 148.37051 | 36786 ft | 629 kts | 43° |
| 2026-05-04 21:59 | 40.70918 | 148.45089 | 36782 ft | 630 kts | 43° |
| 2026-05-04 22:00 | 40.77159 | 148.53199 | 36775 ft | 630 kts | 43° |
| 2026-05-04 22:00 | 40.83404 | 148.61335 | 36771 ft | 631 kts | 43° |
| 2026-05-04 22:01 | 40.89643 | 148.69487 | 36806 ft | 631 kts | 43° |
| 2026-05-04 22:01 | 40.95837 | 148.77604 | 36762 ft | 631 kts | 43° |
| 2026-05-04 22:02 | 41.02073 | 148.85797 | 36759 ft | 631 kts | 43° |
| 2026-05-04 22:02 | 41.08294 | 148.93996 | 36757 ft | 631 kts | 43° |
| 2026-05-04 22:03 | 41.14513 | 149.02219 | 36752 ft | 631 kts | 43° |
| 2026-05-04 22:03 | 41.20682 | 149.10401 | 36806 ft | 631 kts | 43° |
| 2026-05-04 22:04 | 41.26888 | 149.18655 | 36743 ft | 630 kts | 44° |
| 2026-05-04 22:04 | 41.33080 | 149.26915 | 36739 ft | 630 kts | 44° |
| 2026-05-04 22:05 | 41.39266 | 149.35188 | 36732 ft | 631 kts | 44° |
| 2026-05-04 22:05 | 41.45410 | 149.43430 | 36730 ft | 631 kts | 44° |
| 2026-05-04 22:06 | 41.51590 | 149.51745 | 36693 ft | 631 kts | 44° |
| 2026-05-04 22:06 | 41.57774 | 149.60088 | 36728 ft | 631 kts | 44° |
| 2026-05-04 22:07 | 41.63937 | 149.68427 | 36722 ft | 631 kts | 44° |
| 2026-05-04 22:07 | 41.70061 | 149.76737 | 36712 ft | 631 kts | 44° |
| 2026-05-04 22:08 | 41.76223 | 149.85122 | 36713 ft | 632 kts | 44° |
| 2026-05-04 22:08 | 41.82382 | 149.93529 | 36690 ft | 632 kts | 44° |
| 2026-05-04 22:09 | 41.88540 | 150.01959 | 36711 ft | 632 kts | 44° |
| 2026-05-04 22:09 | 41.94644 | 150.10339 | 36708 ft | 632 kts | 44° |
| 2026-05-04 22:10 | 42.00774 | 150.18779 | 36698 ft | 632 kts | 45° |
| 2026-05-04 22:10 | 42.06914 | 150.27258 | 36705 ft | 632 kts | 45° |
| 2026-05-04 22:11 | 42.13043 | 150.35747 | 36693 ft | 632 kts | 45° |
| 2026-05-04 22:11 | 42.19129 | 150.44201 | 36730 ft | 633 kts | 45° |
| 2026-05-04 22:12 | 42.25249 | 150.52729 | 36683 ft | 632 kts | 45° |
| 2026-05-04 22:12 | 42.31356 | 150.61262 | 36677 ft | 632 kts | 45° |
| 2026-05-04 22:13 | 42.37431 | 150.69776 | 36680 ft | 633 kts | 45° |
| 2026-05-04 22:13 | 42.43541 | 150.78365 | 36672 ft | 634 kts | 45° |
| 2026-05-04 22:14 | 42.49644 | 150.86970 | 36662 ft | 634 kts | 46° |
| 2026-05-04 22:14 | 42.55752 | 150.95609 | 36669 ft | 634 kts | 46° |
| 2026-05-04 22:15 | 42.61847 | 151.04254 | 36669 ft | 633 kts | 46° |
| 2026-05-04 22:15 | 42.67885 | 151.12845 | 36664 ft | 633 kts | 46° |
| 2026-05-04 22:16 | 42.73965 | 151.21522 | 36661 ft | 633 kts | 46° |
| 2026-05-04 22:16 | 42.80041 | 151.30218 | 36652 ft | 634 kts | 46° |
| 2026-05-04 22:17 | 42.86115 | 151.38940 | 36658 ft | 634 kts | 46° |
| 2026-05-04 22:17 | 42.92129 | 151.47601 | 36647 ft | 633 kts | 46° |
| 2026-05-04 22:18 | 42.98177 | 151.56338 | 36642 ft | 634 kts | 46° |
| 2026-05-04 22:18 | 43.04220 | 151.65095 | 36635 ft | 634 kts | 46° |
| 2026-05-04 22:19 | 43.10229 | 151.73828 | 36621 ft | 634 kts | 46° |
| 2026-05-04 22:19 | 43.16274 | 151.82642 | 36690 ft | 635 kts | 46° |
| 2026-05-04 22:20 | 43.22309 | 151.91468 | 36628 ft | 634 kts | 46° |
| 2026-05-04 22:20 | 43.28332 | 152.00304 | 36621 ft | 634 kts | 47° |
| 2026-05-04 22:21 | 43.34352 | 152.09163 | 36619 ft | 635 kts | 47° |
| 2026-05-04 22:21 | 43.40329 | 152.17986 | 36616 ft | 635 kts | 47° |
| 2026-05-04 22:22 | 43.46346 | 152.26896 | 36614 ft | 636 kts | 47° |
| 2026-05-04 22:22 | 43.52358 | 152.35827 | 36623 ft | 636 kts | 47° |
| 2026-05-04 22:23 | 43.58366 | 152.44779 | 36591 ft | 635 kts | 47° |
| 2026-05-04 22:23 | 43.64325 | 152.53686 | 36603 ft | 636 kts | 47° |
| 2026-05-04 22:24 | 43.70316 | 152.62670 | 36600 ft | 636 kts | 47° |
| 2026-05-04 22:24 | 43.76310 | 152.71687 | 36589 ft | 636 kts | 47° |
| 2026-05-04 22:25 | 43.82287 | 152.80708 | 36590 ft | 636 kts | 47° |
| 2026-05-04 22:25 | 43.88217 | 152.89686 | 36586 ft | 636 kts | 47° |
| 2026-05-04 22:26 | 43.94183 | 152.98747 | 36581 ft | 636 kts | 48° |
| 2026-05-04 22:26 | 44.00143 | 153.07828 | 36574 ft | 636 kts | 48° |
| 2026-05-04 22:27 | 44.06095 | 153.16927 | 36593 ft | 636 kts | 48° |
| 2026-05-04 22:27 | 44.12004 | 153.25988 | 36577 ft | 637 kts | 48° |
| 2026-05-04 22:28 | 44.17952 | 153.35139 | 36610 ft | 638 kts | 48° |
| 2026-05-04 22:28 | 44.23901 | 153.44321 | 36560 ft | 638 kts | 49° |
| 2026-05-04 22:29 | 44.29845 | 153.53526 | 36561 ft | 638 kts | 49° |
| 2026-05-04 22:29 | 44.35744 | 153.62689 | 36554 ft | 639 kts | 49° |
| 2026-05-04 22:30 | 44.41672 | 153.71930 | 36548 ft | 639 kts | 49° |
| 2026-05-04 22:30 | 44.47594 | 153.81190 | 36542 ft | 638 kts | 49° |
| 2026-05-04 22:31 | 44.53516 | 153.90481 | 36552 ft | 638 kts | 49° |
| 2026-05-04 22:31 | 44.59382 | 153.99715 | 36534 ft | 638 kts | 49° |
| 2026-05-04 22:32 | 44.65280 | 154.09030 | 36530 ft | 638 kts | 49° |
| 2026-05-04 22:32 | 44.71167 | 154.18359 | 36486 ft | 638 kts | 49° |
| 2026-05-04 22:33 | 44.77006 | 154.27642 | 36521 ft | 637 kts | 49° |
| 2026-05-04 22:33 | 44.82870 | 154.36994 | 36517 ft | 637 kts | 49° |
| 2026-05-04 22:33 | 44.85804 | 154.41687 | 36701 ft | 637 kts | 49° |
| 2026-05-04 22:34 | 44.88706 | 154.46362 | 36980 ft | 633 kts | 50° |
| 2026-05-04 22:34 | 44.91570 | 154.51054 | 37310 ft | 629 kts | 50° |
| 2026-05-04 22:34 | 44.94407 | 154.55746 | 37528 ft | 628 kts | 50° |
| 2026-05-04 22:34 | 44.97234 | 154.60441 | 37733 ft | 627 kts | 50° |
| 2026-05-04 22:35 | 45.00054 | 154.65129 | 37908 ft | 626 kts | 50° |
| 2026-05-04 22:35 | 45.02868 | 154.69805 | 38094 ft | 625 kts | 50° |
| 2026-05-04 22:35 | 45.05646 | 154.74419 | 38188 ft | 624 kts | 50° |
| 2026-05-04 22:35 | 45.08458 | 154.79090 | 38331 ft | 623 kts | 50° |
| 2026-05-04 22:36 | 45.11264 | 154.83754 | 38457 ft | 622 kts | 50° |
| 2026-05-04 22:36 | 45.16885 | 154.93120 | 38484 ft | 625 kts | 50° |
| 2026-05-04 22:37 | 45.22500 | 155.02509 | 38487 ft | 623 kts | 50° |
| 2026-05-04 22:37 | 45.28054 | 155.11830 | 38479 ft | 622 kts | 50° |
| 2026-05-04 22:38 | 45.33638 | 155.21234 | 38476 ft | 622 kts | 50° |
| 2026-05-04 22:38 | 45.39213 | 155.30654 | 38467 ft | 622 kts | 51° |
| 2026-05-04 22:39 | 45.44767 | 155.40069 | 38467 ft | 621 kts | 51° |
| 2026-05-04 22:39 | 45.50282 | 155.49449 | 38465 ft | 621 kts | 51° |
| 2026-05-04 22:40 | 45.55820 | 155.58901 | 38478 ft | 621 kts | 51° |
| 2026-05-04 22:40 | 45.61346 | 155.68365 | 38458 ft | 620 kts | 51° |
| 2026-05-04 22:41 | 45.66862 | 155.77842 | 38454 ft | 621 kts | 51° |
| 2026-05-04 22:41 | 45.72337 | 155.87282 | 38438 ft | 620 kts | 51° |
| 2026-05-04 22:42 | 45.77836 | 155.96795 | 38447 ft | 620 kts | 51° |
| 2026-05-04 22:42 | 45.83320 | 156.06315 | 38441 ft | 619 kts | 51° |
| 2026-05-04 22:43 | 45.88793 | 156.15847 | 38444 ft | 619 kts | 51° |
| 2026-05-04 22:43 | 45.94265 | 156.25412 | 38449 ft | 620 kts | 51° |
| 2026-05-04 22:44 | 45.99698 | 156.34939 | 38438 ft | 620 kts | 51° |
| 2026-05-04 22:44 | 46.05151 | 156.44535 | 38435 ft | 620 kts | 51° |
| 2026-05-04 22:45 | 46.10605 | 156.54166 | 38432 ft | 620 kts | 52° |
| 2026-05-04 22:45 | 46.18757 | 156.68624 | 38406 ft | 619 kts | 52° |
| 2026-05-04 22:46 | 46.24145 | 156.78222 | 38438 ft | 619 kts | 52° |
| 2026-05-04 22:46 | 46.29554 | 156.87890 | 38422 ft | 619 kts | 52° |
| 2026-05-04 22:47 | 46.34959 | 156.97585 | 38408 ft | 619 kts | 52° |
| 2026-05-04 22:47 | 46.40359 | 157.07305 | 38415 ft | 619 kts | 52° |
| 2026-05-04 22:48 | 46.45706 | 157.16963 | 38417 ft | 619 kts | 52° |
| 2026-05-04 22:48 | 46.51080 | 157.26703 | 38379 ft | 619 kts | 52° |
| 2026-05-04 22:49 | 46.56449 | 157.36469 | 38412 ft | 618 kts | 52° |
| 2026-05-04 22:49 | 46.61798 | 157.46233 | 38429 ft | 617 kts | 52° |
| 2026-05-04 22:50 | 46.67105 | 157.55955 | 38407 ft | 618 kts | 52° |
| 2026-05-04 22:50 | 46.72444 | 157.65769 | 38403 ft | 617 kts | 52° |
| 2026-05-04 22:51 | 46.77763 | 157.75582 | 38404 ft | 617 kts | 52° |
| 2026-05-04 22:51 | 46.83074 | 157.85415 | 38398 ft | 617 kts | 52° |
| 2026-05-04 22:52 | 46.88337 | 157.95195 | 38399 ft | 616 kts | 53° |
| 2026-05-04 22:52 | 46.93618 | 158.05041 | 38400 ft | 615 kts | 53° |
| 2026-05-04 22:53 | 46.98887 | 158.14901 | 38405 ft | 615 kts | 53° |
| 2026-05-04 22:53 | 47.04145 | 158.24775 | 38399 ft | 615 kts | 53° |
| 2026-05-04 22:54 | 47.09356 | 158.34596 | 38401 ft | 613 kts | 53° |
| 2026-05-04 22:54 | 47.14588 | 158.44492 | 38403 ft | 613 kts | 53° |
| 2026-05-04 22:55 | 47.19807 | 158.54401 | 38399 ft | 613 kts | 53° |
| 2026-05-04 22:55 | 47.25010 | 158.64313 | 38401 ft | 612 kts | 53° |
| 2026-05-04 22:56 | 47.30167 | 158.74172 | 38406 ft | 612 kts | 53° |
| 2026-05-04 22:56 | 47.35350 | 158.84118 | 38397 ft | 611 kts | 53° |
| 2026-05-04 22:57 | 47.40510 | 158.94057 | 38406 ft | 610 kts | 53° |
| 2026-05-04 22:57 | 47.45662 | 159.04014 | 38407 ft | 610 kts | 53° |
| 2026-05-04 22:58 | 47.50771 | 159.13926 | 38409 ft | 610 kts | 53° |
| 2026-05-04 22:58 | 47.55898 | 159.23907 | 38407 ft | 610 kts | 53° |
| 2026-05-04 22:59 | 47.61019 | 159.33915 | 38409 ft | 610 kts | 53° |
| 2026-05-04 22:59 | 47.65273 | 159.42255 | 38451 ft | 610 kts | 54° |
| 2026-05-04 23:00 | 47.70379 | 159.52301 | 38411 ft | 610 kts | 54° |
| 2026-05-04 23:00 | 47.76303 | 159.64002 | 38418 ft | 610 kts | 54° |
| 2026-05-04 23:01 | 47.80539 | 159.72397 | 38415 ft | 610 kts | 54° |
| 2026-05-04 23:01 | 47.85615 | 159.82495 | 38416 ft | 609 kts | 54° |
| 2026-05-04 23:02 | 47.90675 | 159.92597 | 38421 ft | 608 kts | 54° |
| 2026-05-04 23:02 | 47.95724 | 160.02715 | 38423 ft | 608 kts | 54° |
| 2026-05-04 23:03 | 48.00764 | 160.12853 | 38469 ft | 608 kts | 54° |
| 2026-05-04 23:03 | 48.05797 | 160.23012 | 38457 ft | 608 kts | 54° |
| 2026-05-04 23:04 | 48.10786 | 160.33123 | 38442 ft | 608 kts | 54° |
| 2026-05-04 23:04 | 48.15797 | 160.43317 | 38418 ft | 608 kts | 54° |
| 2026-05-04 23:05 | 48.20800 | 160.53532 | 38472 ft | 607 kts | 54° |
| 2026-05-04 23:05 | 48.25751 | 160.63677 | 38485 ft | 606 kts | 54° |
| 2026-05-04 23:06 | 48.30695 | 160.73926 | 38483 ft | 606 kts | 55° |
| 2026-05-04 23:06 | 48.35482 | 160.84343 | 38498 ft | 606 kts | 56° |
| 2026-05-04 23:07 | 48.40226 | 160.94800 | 38521 ft | 605 kts | 56° |
| 2026-05-04 23:07 | 48.44983 | 161.05248 | 38532 ft | 605 kts | 56° |
| 2026-05-04 23:08 | 48.49747 | 161.15699 | 38519 ft | 605 kts | 55° |
| 2026-05-04 23:08 | 48.54471 | 161.26091 | 38542 ft | 604 kts | 55° |
| 2026-05-04 23:09 | 48.59207 | 161.36556 | 38556 ft | 604 kts | 56° |
| 2026-05-04 23:09 | 48.63935 | 161.47048 | 38541 ft | 604 kts | 55° |
| 2026-05-04 23:10 | 48.68650 | 161.57553 | 38566 ft | 602 kts | 55° |
| 2026-05-04 23:10 | 48.73311 | 161.67977 | 38588 ft | 602 kts | 56° |
| 2026-05-04 23:11 | 48.78002 | 161.78509 | 38590 ft | 604 kts | 56° |
| 2026-05-04 23:11 | 48.82692 | 161.89079 | 38602 ft | 604 kts | 55° |
| 2026-05-04 23:12 | 48.87371 | 161.99667 | 38606 ft | 603 kts | 56° |
| 2026-05-04 23:12 | 48.92001 | 162.10187 | 38620 ft | 603 kts | 56° |
| 2026-05-04 23:13 | 48.96656 | 162.20804 | 38636 ft | 603 kts | 55° |
| 2026-05-04 23:13 | 49.01297 | 162.31430 | 38639 ft | 603 kts | 55° |
| 2026-05-04 23:14 | 49.05930 | 162.42081 | 38635 ft | 603 kts | 56° |
| 2026-05-04 23:14 | 49.10551 | 162.52746 | 38656 ft | 603 kts | 56° |
| 2026-05-04 23:15 | 49.15143 | 162.63387 | 38666 ft | 604 kts | 56° |
| 2026-05-04 23:15 | 49.19763 | 162.74136 | 38666 ft | 605 kts | 56° |
| 2026-05-04 23:16 | 49.24370 | 162.84898 | 38682 ft | 605 kts | 56° |
| 2026-05-04 23:16 | 49.28963 | 162.95671 | 38694 ft | 604 kts | 56° |
| 2026-05-04 23:17 | 49.33511 | 163.06381 | 38713 ft | 603 kts | 56° |
| 2026-05-04 23:17 | 49.38079 | 163.17183 | 38710 ft | 603 kts | 56° |
| 2026-05-04 23:18 | 49.42632 | 163.27991 | 38712 ft | 603 kts | 56° |
| 2026-05-04 23:18 | 49.47181 | 163.38835 | 38742 ft | 604 kts | 56° |
| 2026-05-04 23:19 | 49.51697 | 163.49644 | 38752 ft | 605 kts | 56° |
| 2026-05-04 23:19 | 49.56231 | 163.60540 | 38751 ft | 605 kts | 56° |
| 2026-05-04 23:20 | 49.60758 | 163.71467 | 38766 ft | 605 kts | 56° |
| 2026-05-04 23:20 | 49.65273 | 163.82407 | 38778 ft | 605 kts | 56° |
| 2026-05-04 23:21 | 49.69782 | 163.93378 | 38778 ft | 605 kts | 56° |
| 2026-05-04 23:21 | 49.74252 | 164.04302 | 38787 ft | 605 kts | 56° |
| 2026-05-04 23:22 | 49.78734 | 164.15300 | 38860 ft | 604 kts | 56° |
| 2026-05-04 23:22 | 49.83204 | 164.26313 | 38816 ft | 605 kts | 56° |
| 2026-05-04 23:23 | 49.87677 | 164.37378 | 38813 ft | 606 kts | 56° |
| 2026-05-04 23:23 | 49.92113 | 164.48402 | 38825 ft | 606 kts | 56° |
| 2026-05-04 23:24 | 49.96562 | 164.59503 | 38837 ft | 606 kts | 56° |
| 2026-05-04 23:24 | 50.01003 | 164.70631 | 38845 ft | 606 kts | 56° |
| 2026-05-04 23:25 | 50.05435 | 164.81784 | 38844 ft | 606 kts | 55° |
| 2026-05-04 23:25 | 50.09851 | 164.92943 | 38852 ft | 606 kts | 55° |
| 2026-05-04 23:26 | 50.14234 | 165.04066 | 38895 ft | 606 kts | 56° |
| 2026-05-04 23:26 | 50.18632 | 165.15278 | 38862 ft | 607 kts | 56° |
| 2026-05-04 23:27 | 50.22989 | 165.26576 | 38870 ft | 607 kts | 56° |
| 2026-05-04 23:27 | 50.27312 | 165.37904 | 38881 ft | 607 kts | 56° |
| 2026-05-04 23:28 | 50.31603 | 165.49181 | 38889 ft | 607 kts | 56° |
| 2026-05-04 23:28 | 50.35918 | 165.60547 | 38889 ft | 607 kts | 55° |
| 2026-05-04 23:29 | 50.40220 | 165.71921 | 38900 ft | 606 kts | 56° |
| 2026-05-04 23:29 | 50.44508 | 165.83309 | 38911 ft | 606 kts | 56° |
| 2026-05-04 23:30 | 50.48755 | 165.94638 | 38913 ft | 606 kts | 56° |
| 2026-05-04 23:30 | 50.53017 | 166.06061 | 38919 ft | 605 kts | 55° |
| 2026-05-04 23:31 | 50.57261 | 166.17486 | 38916 ft | 605 kts | 55° |
| 2026-05-04 23:31 | 50.61493 | 166.28926 | 38928 ft | 605 kts | 56° |
| 2026-05-04 23:32 | 50.65684 | 166.40308 | 38927 ft | 605 kts | 56° |
| 2026-05-04 23:32 | 50.69890 | 166.51781 | 38936 ft | 605 kts | 56° |
| 2026-05-04 23:33 | 50.74090 | 166.63289 | 38944 ft | 605 kts | 56° |
| 2026-05-04 23:33 | 50.78281 | 166.74821 | 38944 ft | 605 kts | 56° |
| 2026-05-04 23:34 | 50.82423 | 166.86278 | 38951 ft | 604 kts | 55° |
| 2026-05-04 23:34 | 50.86582 | 166.97829 | 38954 ft | 603 kts | 55° |
| 2026-05-04 23:35 | 50.90724 | 167.09383 | 38958 ft | 603 kts | 56° |
| 2026-05-04 23:35 | 50.94853 | 167.20953 | 38969 ft | 603 kts | 55° |
| 2026-05-04 23:36 | 50.98943 | 167.32472 | 38962 ft | 602 kts | 55° |
| 2026-05-04 23:36 | 51.03039 | 167.44055 | 38978 ft | 602 kts | 55° |
| 2026-05-04 23:37 | 51.07131 | 167.55678 | 38975 ft | 602 kts | 55° |
| 2026-05-04 23:37 | 51.11205 | 167.67308 | 38981 ft | 602 kts | 54° |
| 2026-05-04 23:38 | 51.15237 | 167.78872 | 38987 ft | 601 kts | 54° |
| 2026-05-04 23:38 | 51.19282 | 167.90519 | 39003 ft | 601 kts | 55° |
| 2026-05-04 23:39 | 51.23316 | 168.02192 | 39002 ft | 601 kts | 55° |
| 2026-05-04 23:39 | 51.27333 | 168.13877 | 39004 ft | 599 kts | 54° |
| 2026-05-04 23:40 | 51.31331 | 168.25555 | 39004 ft | 599 kts | 54° |
| 2026-05-04 23:40 | 51.35290 | 168.37169 | 39011 ft | 599 kts | 55° |
| 2026-05-04 23:41 | 51.39262 | 168.48879 | 39023 ft | 598 kts | 54° |
| 2026-05-04 23:41 | 51.43208 | 168.60570 | 39020 ft | 596 kts | 54° |
| 2026-05-04 23:42 | 51.47141 | 168.72274 | 39027 ft | 596 kts | 54° |
| 2026-05-04 23:42 | 51.51035 | 168.83911 | 39031 ft | 596 kts | 55° |
| 2026-05-04 23:43 | 51.54937 | 168.95634 | 39032 ft | 593 kts | 54° |
| 2026-05-04 23:43 | 51.58799 | 169.07303 | 39039 ft | 590 kts | 54° |
| 2026-05-04 23:44 | 51.62645 | 169.18959 | 39043 ft | 590 kts | 54° |
| 2026-05-04 23:44 | 51.66455 | 169.30555 | 39042 ft | 590 kts | 55° |
| 2026-05-04 23:45 | 51.70263 | 169.42220 | 39047 ft | 585 kts | 54° |
| 2026-05-04 23:45 | 51.74029 | 169.53813 | 39050 ft | 583 kts | 54° |
| 2026-05-04 23:46 | 51.77789 | 169.65417 | 39051 ft | 583 kts | 54° |
| 2026-05-04 23:46 | 51.81507 | 169.76951 | 39057 ft | 583 kts | 54° |
| 2026-05-04 23:47 | 51.85200 | 169.88529 | 39083 ft | 575 kts | 53° |
| 2026-05-04 23:47 | 51.88874 | 170.00005 | 39062 ft | 575 kts | 54° |
| 2026-05-04 23:48 | 51.92540 | 170.11521 | 39070 ft | 576 kts | 54° |
| 2026-05-04 23:48 | 51.96171 | 170.22991 | 39086 ft | 574 kts | 53° |
| 2026-05-04 23:49 | 51.99758 | 170.34427 | 39075 ft | 564 kts | 54° |
| 2026-05-04 23:49 | 52.03297 | 170.45744 | 39078 ft | 562 kts | 54° |
| 2026-05-04 23:50 | 52.06835 | 170.57069 | 39086 ft | 562 kts | 54° |
| 2026-05-04 23:50 | 52.10363 | 170.68416 | 39087 ft | 562 kts | 54° |
| 2026-05-04 23:51 | 52.12298 | 170.73742 | 39093 ft | 549 kts | 44° |
| 2026-05-04 23:51 | 52.14610 | 170.78609 | 39090 ft | 541 kts | 40° |
| 2026-05-04 23:51 | 52.19447 | 170.87963 | 39098 ft | 539 kts | 38° |
| 2026-05-04 23:52 | 52.24362 | 170.97195 | 39102 ft | 539 kts | 38° |
| 2026-05-04 23:52 | 52.29270 | 171.06454 | 39099 ft | 540 kts | 38° |
| 2026-05-04 23:53 | 52.34116 | 171.15682 | 39112 ft | 537 kts | 38° |
| 2026-05-04 23:53 | 52.38955 | 171.24952 | 39111 ft | 535 kts | 38° |
| 2026-05-04 23:54 | 52.43785 | 171.34230 | 39114 ft | 535 kts | 38° |
| 2026-05-04 23:54 | 52.48604 | 171.43521 | 39126 ft | 533 kts | 39° |
| 2026-05-04 23:55 | 52.53362 | 171.52736 | 39136 ft | 531 kts | 39° |
| 2026-05-04 23:56 | 52.60451 | 171.66535 | 39128 ft | 524 kts | 39° |
| 2026-05-04 23:56 | 52.65151 | 171.75703 | 39128 ft | 524 kts | 39° |
| 2026-05-04 23:57 | 52.69845 | 171.84896 | 39141 ft | 524 kts | 39° |
| 2026-05-04 23:57 | 52.74499 | 171.94050 | 39181 ft | 525 kts | 39° |
| 2026-05-04 23:58 | 52.79169 | 172.03278 | 39146 ft | 522 kts | 39° |
| 2026-05-04 23:58 | 52.83813 | 172.12487 | 39148 ft | 521 kts | 39° |
| 2026-05-04 23:59 | 52.88418 | 172.21647 | 39148 ft | 521 kts | 39° |
| 2026-05-04 23:59 | 52.93045 | 172.30881 | 39155 ft | 521 kts | 39° |
| 2026-05-05 00:00 | 52.97668 | 172.40142 | 39181 ft | 521 kts | 40° |
| 2026-05-05 00:00 | 53.02261 | 172.49443 | 39182 ft | 520 kts | 42° |
| 2026-05-05 00:01 | 53.06852 | 172.58739 | 39164 ft | 520 kts | 41° |
| 2026-05-05 00:01 | 53.11426 | 172.67952 | 39168 ft | 520 kts | 41° |
| 2026-05-05 00:02 | 53.16017 | 172.77258 | 39168 ft | 520 kts | 42° |
| 2026-05-05 00:02 | 53.20594 | 172.86604 | 39193 ft | 520 kts | 43° |
| 2026-05-05 00:03 | 53.25144 | 172.95900 | 39181 ft | 515 kts | 43° |
| 2026-05-05 00:03 | 53.29632 | 173.05137 | 39187 ft | 515 kts | 43° |
| 2026-05-05 00:04 | 53.34139 | 173.14456 | 39180 ft | 515 kts | 44° |
| 2026-05-05 00:04 | 53.38638 | 173.23784 | 39190 ft | 515 kts | 44° |
| 2026-05-05 00:05 | 53.43137 | 173.33136 | 39202 ft | 514 kts | 45° |
| 2026-05-05 00:05 | 53.47578 | 173.42394 | 39203 ft | 512 kts | 45° |
| 2026-05-05 00:06 | 53.52030 | 173.51736 | 39201 ft | 512 kts | 44° |
| 2026-05-05 00:06 | 53.56106 | 173.61654 | 39198 ft | 517 kts | 50° |
| 2026-05-05 00:07 | 53.60009 | 173.71834 | 39208 ft | 518 kts | 51° |
| 2026-05-05 00:07 | 53.63848 | 173.81991 | 39208 ft | 517 kts | 52° |
| 2026-05-05 00:08 | 53.67696 | 173.92203 | 39201 ft | 515 kts | 52° |
| 2026-05-05 00:08 | 53.71538 | 174.02418 | 39209 ft | 515 kts | 52° |
| 2026-05-05 00:09 | 53.75373 | 174.12644 | 39207 ft | 515 kts | 52° |
| 2026-05-05 00:09 | 53.79176 | 174.22828 | 39215 ft | 516 kts | 52° |
| 2026-05-05 00:10 | 53.82989 | 174.33084 | 39211 ft | 514 kts | 52° |
| 2026-05-05 00:10 | 53.86779 | 174.43323 | 39217 ft | 512 kts | 53° |
| 2026-05-05 00:11 | 53.90556 | 174.53562 | 39221 ft | 512 kts | 53° |
| 2026-05-05 00:11 | 53.94303 | 174.63764 | 39226 ft | 513 kts | 53° |
| 2026-05-05 00:12 | 53.98063 | 174.74044 | 39228 ft | 513 kts | 53° |
| 2026-05-05 00:12 | 54.01810 | 174.84333 | 39227 ft | 511 kts | 53° |
| 2026-05-05 00:13 | 54.05534 | 174.94602 | 39231 ft | 509 kts | 53° |
| 2026-05-05 00:13 | 54.09221 | 175.04806 | 39231 ft | 509 kts | 53° |
| 2026-05-05 00:14 | 54.12926 | 175.15103 | 39227 ft | 509 kts | 53° |
| 2026-05-05 00:14 | 54.16624 | 175.25424 | 39238 ft | 510 kts | 54° |
| 2026-05-05 00:15 | 54.20308 | 175.35752 | 39233 ft | 509 kts | 54° |
| 2026-05-05 00:15 | 54.23958 | 175.46027 | 39236 ft | 509 kts | 54° |
| 2026-05-05 00:16 | 54.27627 | 175.56398 | 39238 ft | 509 kts | 54° |
| 2026-05-05 00:16 | 54.31289 | 175.66792 | 39238 ft | 510 kts | 54° |
| 2026-05-05 00:17 | 54.34941 | 175.77200 | 39252 ft | 509 kts | 54° |
| 2026-05-05 00:17 | 54.38545 | 175.87521 | 39245 ft | 507 kts | 54° |
| 2026-05-05 00:18 | 54.42157 | 175.97904 | 39248 ft | 507 kts | 54° |
| 2026-05-05 00:18 | 54.45762 | 176.08310 | 39251 ft | 506 kts | 55° |
| 2026-05-05 00:19 | 54.49354 | 176.18725 | 39250 ft | 506 kts | 55° |
| 2026-05-05 00:19 | 54.52886 | 176.29007 | 39258 ft | 506 kts | 55° |
| 2026-05-05 00:20 | 54.56444 | 176.39410 | 39251 ft | 504 kts | 55° |
| 2026-05-05 00:20 | 54.60000 | 176.49851 | 39252 ft | 504 kts | 55° |
| 2026-05-05 00:21 | 54.63543 | 176.60296 | 39257 ft | 504 kts | 55° |
| 2026-05-05 00:21 | 54.67054 | 176.70693 | 39257 ft | 505 kts | 55° |
| 2026-05-05 00:22 | 54.70578 | 176.81175 | 39266 ft | 504 kts | 56° |
| 2026-05-05 00:22 | 54.74089 | 176.91663 | 39265 ft | 503 kts | 56° |
| 2026-05-05 00:23 | 54.77586 | 177.02154 | 39262 ft | 503 kts | 56° |
| 2026-05-05 00:23 | 54.81048 | 177.12584 | 39263 ft | 503 kts | 56° |
| 2026-05-05 00:24 | 54.84531 | 177.23122 | 39260 ft | 503 kts | 56° |
| 2026-05-05 00:24 | 54.88001 | 177.33668 | 39267 ft | 503 kts | 56° |
| 2026-05-05 00:25 | 54.91457 | 177.44217 | 39268 ft | 502 kts | 56° |
| 2026-05-05 00:25 | 54.94878 | 177.54704 | 39268 ft | 502 kts | 56° |
| 2026-05-05 00:26 | 54.98310 | 177.65273 | 39271 ft | 502 kts | 57° |
| 2026-05-05 00:26 | 55.01737 | 177.75870 | 39273 ft | 502 kts | 57° |
| 2026-05-05 00:27 | 55.05154 | 177.86485 | 39274 ft | 501 kts | 57° |
| 2026-05-05 00:27 | 55.08529 | 177.97015 | 39272 ft | 500 kts | 57° |
| 2026-05-05 00:28 | 55.11917 | 178.07632 | 39278 ft | 500 kts | 57° |
| 2026-05-05 00:28 | 55.15292 | 178.18253 | 39273 ft | 500 kts | 57° |
| 2026-05-05 00:29 | 55.18660 | 178.28902 | 39276 ft | 500 kts | 57° |
| 2026-05-05 00:29 | 55.21999 | 178.39503 | 39283 ft | 500 kts | 57° |
| 2026-05-05 00:30 | 55.25343 | 178.50173 | 39281 ft | 499 kts | 57° |
| 2026-05-05 00:30 | 55.28673 | 178.60841 | 39281 ft | 499 kts | 57° |
| 2026-05-05 00:31 | 55.31997 | 178.71540 | 39283 ft | 499 kts | 58° |
| 2026-05-05 00:31 | 55.35293 | 178.82165 | 39283 ft | 499 kts | 58° |
| 2026-05-05 00:32 | 55.38612 | 178.92873 | 39293 ft | 499 kts | 58° |
| 2026-05-05 00:32 | 55.41917 | 179.03585 | 39281 ft | 498 kts | 58° |
| 2026-05-05 00:33 | 55.45207 | 179.14300 | 39279 ft | 497 kts | 58° |
| 2026-05-05 00:33 | 55.48487 | 179.25035 | 39283 ft | 497 kts | 58° |
| 2026-05-05 00:34 | 55.51758 | 179.35789 | 39282 ft | 497 kts | 58° |
| 2026-05-05 00:34 | 55.54995 | 179.46483 | 39303 ft | 498 kts | 58° |
| 2026-05-05 00:35 | 55.58241 | 179.57256 | 39280 ft | 497 kts | 58° |
| 2026-05-05 00:35 | 55.61478 | 179.68044 | 39282 ft | 496 kts | 58° |
| 2026-05-05 00:36 | 55.64704 | 179.78847 | 39283 ft | 496 kts | 58° |
| 2026-05-05 00:36 | 55.67898 | 179.89590 | 39284 ft | 496 kts | 58° |
| 2026-05-05 00:37 | 55.71108 | -179.99562 | 39294 ft | 496 kts | 59° |
| 2026-05-05 00:37 | 55.74302 | -179.88719 | 39284 ft | 496 kts | 59° |
| 2026-05-05 00:38 | 55.77467 | -179.77921 | 39285 ft | 496 kts | 59° |
| 2026-05-05 00:38 | 55.80640 | -179.67051 | 39286 ft | 496 kts | 59° |
| 2026-05-05 00:39 | 55.83806 | -179.56151 | 39283 ft | 496 kts | 59° |
| 2026-05-05 00:39 | 55.86964 | -179.45230 | 39282 ft | 496 kts | 59° |
| 2026-05-05 00:40 | 55.90091 | -179.34361 | 39288 ft | 496 kts | 59° |
| 2026-05-05 00:40 | 55.93233 | -179.23394 | 39284 ft | 496 kts | 59° |
| 2026-05-05 00:41 | 55.96362 | -179.12417 | 39281 ft | 496 kts | 59° |
| 2026-05-05 00:41 | 55.99484 | -179.01413 | 39281 ft | 497 kts | 59° |
| 2026-05-05 00:42 | 56.02574 | -178.90471 | 39283 ft | 497 kts | 59° |
| 2026-05-05 00:42 | 56.05676 | -178.79432 | 39284 ft | 496 kts | 60° |
| 2026-05-05 00:43 | 56.08762 | -178.68396 | 39284 ft | 496 kts | 60° |
| 2026-05-05 00:43 | 56.11838 | -178.57348 | 39284 ft | 496 kts | 60° |
| 2026-05-05 00:44 | 56.14905 | -178.46275 | 39281 ft | 496 kts | 60° |
| 2026-05-05 00:44 | 56.17940 | -178.35268 | 39279 ft | 496 kts | 60° |
| 2026-05-05 00:45 | 56.20988 | -178.24159 | 39283 ft | 496 kts | 60° |
| 2026-05-05 00:45 | 56.24023 | -178.13043 | 39279 ft | 495 kts | 60° |
| 2026-05-05 00:46 | 56.27028 | -178.01981 | 39279 ft | 495 kts | 60° |
| 2026-05-05 00:46 | 56.30042 | -177.90833 | 39286 ft | 496 kts | 60° |
| 2026-05-05 00:47 | 56.33052 | -177.79649 | 39280 ft | 496 kts | 60° |
| 2026-05-05 00:47 | 56.36051 | -177.68447 | 39291 ft | 496 kts | 61° |
| 2026-05-05 00:48 | 56.39021 | -177.57298 | 39275 ft | 496 kts | 61° |
| 2026-05-05 00:48 | 56.41999 | -177.46066 | 39275 ft | 496 kts | 61° |
| 2026-05-05 00:49 | 56.44967 | -177.34811 | 39275 ft | 496 kts | 61° |
| 2026-05-05 00:49 | 56.47921 | -177.23558 | 39274 ft | 496 kts | 61° |
| 2026-05-05 00:50 | 56.50853 | -177.12332 | 39274 ft | 496 kts | 61° |
| 2026-05-05 00:50 | 56.53792 | -177.01023 | 39274 ft | 496 kts | 61° |
| 2026-05-05 00:51 | 56.56717 | -176.89707 | 39270 ft | 496 kts | 62° |
| 2026-05-05 00:51 | 56.59638 | -176.78354 | 39272 ft | 496 kts | 62° |
| 2026-05-05 00:52 | 56.62524 | -176.67076 | 39272 ft | 496 kts | 62° |
| 2026-05-05 00:52 | 56.65419 | -176.55708 | 39270 ft | 496 kts | 62° |
| 2026-05-05 00:53 | 56.68306 | -176.44311 | 39262 ft | 496 kts | 62° |
| 2026-05-05 00:53 | 56.71185 | -176.32888 | 39264 ft | 496 kts | 62° |
| 2026-05-05 00:54 | 56.74032 | -176.21535 | 39258 ft | 496 kts | 62° |
| 2026-05-05 00:54 | 56.76885 | -176.10095 | 39272 ft | 496 kts | 62° |
| 2026-05-05 00:55 | 56.79732 | -175.98622 | 39264 ft | 496 kts | 62° |
| 2026-05-05 00:55 | 56.82568 | -175.87140 | 39269 ft | 496 kts | 62° |
| 2026-05-05 00:56 | 56.85369 | -175.75709 | 39262 ft | 496 kts | 63° |
| 2026-05-05 00:56 | 56.88168 | -175.64184 | 39260 ft | 496 kts | 63° |
| 2026-05-05 00:57 | 56.90958 | -175.52642 | 39256 ft | 496 kts | 63° |
| 2026-05-05 00:57 | 56.93738 | -175.41088 | 39257 ft | 496 kts | 63° |
| 2026-05-05 00:58 | 56.96510 | -175.29508 | 39264 ft | 496 kts | 63° |
| 2026-05-05 00:58 | 56.99254 | -175.17987 | 39254 ft | 496 kts | 63° |
| 2026-05-05 00:59 | 57.02000 | -175.06392 | 39259 ft | 496 kts | 63° |
| 2026-05-05 00:59 | 57.04737 | -174.94773 | 39253 ft | 496 kts | 63° |
| 2026-05-05 01:00 | 57.07449 | -174.83200 | 39254 ft | 496 kts | 63° |
| 2026-05-05 01:00 | 57.10164 | -174.71554 | 39252 ft | 496 kts | 64° |
| 2026-05-05 01:01 | 57.12869 | -174.59883 | 39252 ft | 496 kts | 64° |
| 2026-05-05 01:01 | 57.15561 | -174.48202 | 39249 ft | 495 kts | 64° |
| 2026-05-05 01:02 | 57.18242 | -174.36512 | 39249 ft | 495 kts | 64° |
| 2026-05-05 01:02 | 57.20893 | -174.24885 | 39243 ft | 495 kts | 64° |
| 2026-05-05 01:03 | 57.23552 | -174.13158 | 39243 ft | 495 kts | 64° |
| 2026-05-05 01:03 | 57.26204 | -174.01400 | 39244 ft | 496 kts | 65° |
| 2026-05-05 01:04 | 57.28843 | -173.89629 | 39239 ft | 496 kts | 65° |
| 2026-05-05 01:04 | 57.32763 | -173.72024 | 39238 ft | 496 kts | 65° |
| 2026-05-05 01:05 | 57.35402 | -173.60223 | 39237 ft | 496 kts | 64° |
| 2026-05-05 01:05 | 57.38080 | -173.48460 | 39238 ft | 496 kts | 64° |
| 2026-05-05 01:06 | 57.40733 | -173.36757 | 39235 ft | 496 kts | 64° |
| 2026-05-05 01:06 | 57.43386 | -173.24948 | 39233 ft | 496 kts | 65° |
| 2026-05-05 01:07 | 57.46027 | -173.13109 | 39229 ft | 496 kts | 65° |
| 2026-05-05 01:07 | 57.48653 | -173.01267 | 39228 ft | 496 kts | 65° |
| 2026-05-05 01:08 | 57.51252 | -172.89479 | 39224 ft | 496 kts | 65° |
| 2026-05-05 01:08 | 57.53863 | -172.77572 | 39230 ft | 496 kts | 65° |
| 2026-05-05 01:09 | 57.56459 | -172.65663 | 39214 ft | 496 kts | 65° |
| 2026-05-05 01:09 | 57.59043 | -172.53743 | 39215 ft | 496 kts | 65° |
| 2026-05-05 01:10 | 57.61599 | -172.41887 | 39226 ft | 496 kts | 65° |
| 2026-05-05 01:10 | 57.64161 | -172.29931 | 39225 ft | 496 kts | 65° |
| 2026-05-05 01:11 | 57.66711 | -172.17961 | 39208 ft | 496 kts | 66° |
| 2026-05-05 01:11 | 57.69249 | -172.05976 | 39216 ft | 496 kts | 66° |
| 2026-05-05 01:12 | 57.71761 | -171.94049 | 39207 ft | 496 kts | 66° |
| 2026-05-05 01:12 | 57.74281 | -171.82008 | 39209 ft | 497 kts | 66° |
| 2026-05-05 01:13 | 57.76788 | -171.69961 | 39203 ft | 497 kts | 66° |
| 2026-05-05 01:13 | 57.79285 | -171.57892 | 39200 ft | 497 kts | 66° |
| 2026-05-05 01:14 | 57.81755 | -171.45879 | 39204 ft | 497 kts | 66° |
| 2026-05-05 01:14 | 57.84227 | -171.33781 | 39196 ft | 497 kts | 67° |
| 2026-05-05 01:15 | 57.86691 | -171.21655 | 39194 ft | 497 kts | 67° |
| 2026-05-05 01:15 | 57.89139 | -171.09532 | 39196 ft | 497 kts | 67° |
| 2026-05-05 01:16 | 57.91563 | -170.97452 | 39187 ft | 497 kts | 67° |
| 2026-05-05 01:16 | 57.93995 | -170.85262 | 39179 ft | 498 kts | 67° |
| 2026-05-05 01:17 | 57.96424 | -170.73055 | 39178 ft | 498 kts | 66° |
| 2026-05-05 01:17 | 57.99004 | -170.60975 | 39173 ft | 497 kts | 65° |
| 2026-05-05 01:18 | 58.01625 | -170.49003 | 39167 ft | 497 kts | 65° |
| 2026-05-05 01:18 | 58.04231 | -170.36911 | 39163 ft | 497 kts | 66° |
| 2026-05-05 01:19 | 58.06805 | -170.24795 | 39160 ft | 497 kts | 66° |
| 2026-05-05 01:19 | 58.09361 | -170.12659 | 39162 ft | 497 kts | 66° |
| 2026-05-05 01:20 | 58.11892 | -170.00568 | 39151 ft | 498 kts | 66° |
| 2026-05-05 01:20 | 58.14433 | -169.88366 | 39151 ft | 498 kts | 66° |
| 2026-05-05 01:21 | 58.16960 | -169.76159 | 39143 ft | 498 kts | 66° |
| 2026-05-05 01:21 | 58.19479 | -169.63914 | 39140 ft | 498 kts | 66° |
| 2026-05-05 01:22 | 58.21967 | -169.51748 | 39132 ft | 498 kts | 66° |
| 2026-05-05 01:22 | 58.24462 | -169.39474 | 39135 ft | 498 kts | 66° |
| 2026-05-05 01:23 | 58.26942 | -169.27199 | 39121 ft | 498 kts | 66° |
| 2026-05-05 01:23 | 58.29410 | -169.14906 | 39121 ft | 498 kts | 67° |
| 2026-05-05 01:24 | 58.31850 | -169.02676 | 39116 ft | 499 kts | 66° |
| 2026-05-05 01:24 | 58.34303 | -168.90309 | 39107 ft | 499 kts | 67° |
| 2026-05-05 01:25 | 58.36744 | -168.77926 | 39113 ft | 499 kts | 67° |
| 2026-05-05 01:25 | 58.39170 | -168.65535 | 39103 ft | 499 kts | 67° |
| 2026-05-05 01:26 | 58.41569 | -168.53220 | 39105 ft | 498 kts | 67° |
| 2026-05-05 01:26 | 58.43965 | -168.40812 | 39093 ft | 498 kts | 68° |
| 2026-05-05 01:27 | 58.46352 | -168.28390 | 39089 ft | 498 kts | 67° |
| 2026-05-05 01:27 | 58.48728 | -168.15949 | 39077 ft | 498 kts | 68° |
| 2026-05-05 01:28 | 58.51091 | -168.03496 | 39088 ft | 499 kts | 68° |
| 2026-05-05 01:28 | 58.53435 | -167.91058 | 39070 ft | 500 kts | 68° |
| 2026-05-05 01:29 | 58.55775 | -167.78537 | 39071 ft | 500 kts | 68° |
| 2026-05-05 01:29 | 58.58100 | -167.65973 | 39070 ft | 500 kts | 68° |
| 2026-05-05 01:30 | 58.60432 | -167.53430 | 39061 ft | 500 kts | 68° |
| 2026-05-05 01:30 | 58.62730 | -167.40943 | 39062 ft | 500 kts | 68° |
| 2026-05-05 01:31 | 58.65026 | -167.28351 | 39051 ft | 500 kts | 69° |
| 2026-05-05 01:31 | 58.67308 | -167.15746 | 39048 ft | 499 kts | 68° |
| 2026-05-05 01:32 | 58.69577 | -167.03137 | 39050 ft | 499 kts | 69° |
| 2026-05-05 01:32 | 58.71828 | -166.90591 | 39046 ft | 499 kts | 69° |
| 2026-05-05 01:33 | 58.74119 | -166.77963 | 39035 ft | 499 kts | 68° |
| 2026-05-05 01:33 | 58.76399 | -166.65339 | 39034 ft | 499 kts | 69° |
| 2026-05-05 01:34 | 58.78650 | -166.52764 | 39036 ft | 499 kts | 69° |
| 2026-05-05 01:34 | 58.80897 | -166.40088 | 39021 ft | 500 kts | 69° |
| 2026-05-05 01:35 | 58.83130 | -166.27400 | 39024 ft | 499 kts | 69° |
| 2026-05-05 01:35 | 58.85353 | -166.14689 | 39010 ft | 499 kts | 69° |
| 2026-05-05 01:36 | 58.87549 | -166.02047 | 39012 ft | 500 kts | 69° |
| 2026-05-05 01:36 | 58.89756 | -165.89276 | 39002 ft | 501 kts | 69° |
| 2026-05-05 01:37 | 58.91961 | -165.76508 | 38999 ft | 500 kts | 69° |
| 2026-05-05 01:37 | 58.94151 | -165.63747 | 38983 ft | 500 kts | 70° |
| 2026-05-05 01:38 | 58.96328 | -165.50968 | 38983 ft | 500 kts | 70° |
| 2026-05-05 01:38 | 58.98483 | -165.38242 | 38982 ft | 500 kts | 70° |
| 2026-05-05 01:39 | 59.00633 | -165.25423 | 38970 ft | 500 kts | 70° |
| 2026-05-05 01:39 | 59.02772 | -165.12585 | 38968 ft | 499 kts | 70° |
| 2026-05-05 01:40 | 59.04882 | -164.99832 | 38954 ft | 499 kts | 71° |
| 2026-05-05 01:40 | 59.06993 | -164.86985 | 38941 ft | 499 kts | 70° |
| 2026-05-05 01:41 | 59.09042 | -164.74424 | 38940 ft | 500 kts | 71° |
| 2026-05-05 01:41 | 59.11130 | -164.61531 | 38940 ft | 500 kts | 71° |
| 2026-05-05 01:42 | 59.13207 | -164.48615 | 38950 ft | 500 kts | 71° |
| 2026-05-05 01:42 | 59.15253 | -164.35781 | 38935 ft | 499 kts | 71° |
| 2026-05-05 01:43 | 59.17300 | -164.22848 | 38923 ft | 499 kts | 71° |
| 2026-05-05 01:43 | 59.19335 | -164.09911 | 38905 ft | 499 kts | 72° |
| 2026-05-05 01:44 | 59.21357 | -163.96964 | 38920 ft | 499 kts | 72° |
| 2026-05-05 01:44 | 59.23353 | -163.84082 | 38891 ft | 499 kts | 72° |
| 2026-05-05 01:45 | 59.25351 | -163.71081 | 38899 ft | 500 kts | 72° |
| 2026-05-05 01:45 | 59.27334 | -163.58079 | 38878 ft | 499 kts | 73° |
| 2026-05-05 01:46 | 59.29302 | -163.45073 | 38880 ft | 498 kts | 73° |
| 2026-05-05 01:46 | 59.31242 | -163.32154 | 38877 ft | 498 kts | 73° |
| 2026-05-05 01:47 | 59.33182 | -163.19139 | 38858 ft | 498 kts | 73° |
| 2026-05-05 01:47 | 59.35111 | -163.06092 | 38859 ft | 498 kts | 73° |
| 2026-05-05 01:48 | 59.37013 | -162.93126 | 38840 ft | 499 kts | 74° |
| 2026-05-05 01:48 | 59.38920 | -162.80019 | 38843 ft | 500 kts | 74° |
| 2026-05-05 01:49 | 59.40816 | -162.66884 | 38822 ft | 500 kts | 74° |
| 2026-05-05 01:49 | 59.42700 | -162.53730 | 38824 ft | 500 kts | 74° |
| 2026-05-05 01:50 | 59.44560 | -162.40636 | 38823 ft | 501 kts | 74° |
| 2026-05-05 01:50 | 59.46438 | -162.27463 | 38812 ft | 501 kts | 73° |
| 2026-05-05 01:51 | 59.48618 | -162.14457 | 38810 ft | 500 kts | 71° |
| 2026-05-05 01:51 | 59.50879 | -162.01536 | 38803 ft | 499 kts | 71° |
| 2026-05-05 01:52 | 59.53069 | -161.88670 | 38811 ft | 500 kts | 72° |
| 2026-05-05 01:52 | 59.55232 | -161.75648 | 38806 ft | 500 kts | 72° |
| 2026-05-05 01:53 | 59.57374 | -161.62593 | 38803 ft | 500 kts | 72° |
| 2026-05-05 01:53 | 59.59500 | -161.49540 | 38803 ft | 500 kts | 72° |
| 2026-05-05 01:54 | 59.61600 | -161.36572 | 38792 ft | 499 kts | 73° |
| 2026-05-05 01:54 | 59.63699 | -161.23511 | 38782 ft | 499 kts | 73° |
| 2026-05-05 01:55 | 59.65786 | -161.10430 | 38773 ft | 499 kts | 73° |
| 2026-05-05 01:55 | 59.67859 | -160.97339 | 38775 ft | 499 kts | 73° |
| 2026-05-05 01:56 | 59.69904 | -160.84324 | 38775 ft | 499 kts | 73° |
| 2026-05-05 01:56 | 59.71953 | -160.71192 | 38759 ft | 499 kts | 73° |
| 2026-05-05 01:57 | 59.73989 | -160.58050 | 38760 ft | 498 kts | 74° |
| 2026-05-05 01:57 | 59.75998 | -160.44953 | 38740 ft | 495 kts | 75° |
| 2026-05-05 01:58 | 59.77979 | -160.31958 | 38749 ft | 495 kts | 74° |
| 2026-05-05 01:58 | 59.79959 | -160.18875 | 38745 ft | 495 kts | 75° |
| 2026-05-05 01:59 | 59.81926 | -160.05771 | 38733 ft | 495 kts | 75° |
| 2026-05-05 01:59 | 59.83879 | -159.92653 | 38742 ft | 495 kts | 75° |
| 2026-05-05 02:00 | 59.85817 | -159.79524 | 38735 ft | 495 kts | 75° |
| 2026-05-05 02:00 | 59.87740 | -159.66395 | 38738 ft | 498 kts | 75° |
| 2026-05-05 02:01 | 59.89669 | -159.53143 | 38747 ft | 499 kts | 75° |
| 2026-05-05 02:01 | 59.91585 | -159.39869 | 38751 ft | 499 kts | 75° |
| 2026-05-05 02:02 | 59.93489 | -159.26568 | 38751 ft | 499 kts | 75° |
| 2026-05-05 02:02 | 59.95366 | -159.13338 | 38755 ft | 499 kts | 75° |
| 2026-05-05 02:03 | 59.97241 | -159.00017 | 38758 ft | 499 kts | 76° |
| 2026-05-05 02:03 | 59.99104 | -158.86631 | 38749 ft | 501 kts | 76° |
| 2026-05-05 02:04 | 60.00961 | -158.73214 | 38757 ft | 501 kts | 76° |
| 2026-05-05 02:04 | 60.02793 | -158.59889 | 38759 ft | 501 kts | 76° |
| 2026-05-05 02:05 | 60.04625 | -158.46440 | 38750 ft | 501 kts | 76° |
| 2026-05-05 02:05 | 60.06442 | -158.32978 | 38753 ft | 501 kts | 76° |
| 2026-05-05 02:06 | 60.08245 | -158.19498 | 38745 ft | 501 kts | 77° |
| 2026-05-05 02:06 | 60.10027 | -158.06065 | 38751 ft | 503 kts | 77° |
| 2026-05-05 02:07 | 60.11810 | -157.92494 | 38757 ft | 503 kts | 77° |
| 2026-05-05 02:07 | 60.13579 | -157.78912 | 38757 ft | 503 kts | 77° |
| 2026-05-05 02:08 | 60.15039 | -157.67612 | 38755 ft | 503 kts | 77° |
| 2026-05-05 02:08 | 60.17064 | -157.51794 | 38748 ft | 503 kts | 77° |
| 2026-05-05 02:09 | 60.18794 | -157.38172 | 38740 ft | 503 kts | 78° |
| 2026-05-05 02:09 | 60.20213 | -157.26882 | 38747 ft | 500 kts | 78° |
| 2026-05-05 02:10 | 60.21901 | -157.13324 | 38751 ft | 499 kts | 78° |
| 2026-05-05 02:10 | 60.23845 | -156.97576 | 38751 ft | 499 kts | 78° |
| 2026-05-05 02:11 | 60.25237 | -156.86195 | 38733 ft | 499 kts | 78° |
| 2026-05-05 02:11 | 60.26872 | -156.72709 | 38735 ft | 499 kts | 79° |
| 2026-05-05 02:12 | 60.29318 | -156.52299 | 38713 ft | 499 kts | 79° |
| 2026-05-05 02:13 | 60.30928 | -156.38702 | 38725 ft | 498 kts | 79° |
| 2026-05-05 02:13 | 60.32512 | -156.25190 | 38711 ft | 498 kts | 79° |
| 2026-05-05 02:14 | 60.34092 | -156.11582 | 38708 ft | 498 kts | 79° |
| 2026-05-05 02:14 | 60.35661 | -155.97942 | 38709 ft | 498 kts | 79° |
| 2026-05-05 02:15 | 60.37213 | -155.84307 | 38703 ft | 498 kts | 79° |
| 2026-05-05 02:15 | 60.38744 | -155.70727 | 38701 ft | 499 kts | 80° |
| 2026-05-05 02:16 | 60.40273 | -155.57025 | 38699 ft | 501 kts | 80° |
| 2026-05-05 02:16 | 60.41795 | -155.43260 | 38697 ft | 501 kts | 80° |
| 2026-05-05 02:17 | 60.43298 | -155.29508 | 38697 ft | 501 kts | 80° |
| 2026-05-05 02:17 | 60.44780 | -155.15817 | 38690 ft | 501 kts | 80° |
| 2026-05-05 02:18 | 60.46257 | -155.02024 | 38690 ft | 501 kts | 81° |
| 2026-05-05 02:18 | 60.47718 | -154.88234 | 38677 ft | 501 kts | 81° |
| 2026-05-05 02:19 | 60.49165 | -154.74433 | 38695 ft | 500 kts | 81° |
| 2026-05-05 02:19 | 60.50943 | -154.61288 | 38949 ft | 503 kts | 75° |
| 2026-05-05 02:19 | 60.52010 | -154.54525 | 39087 ft | 503 kts | 75° |
| 2026-05-05 02:20 | 60.53084 | -154.47788 | 39225 ft | 503 kts | 75° |
| 2026-05-05 02:20 | 60.54164 | -154.41032 | 39367 ft | 502 kts | 75° |
| 2026-05-05 02:20 | 60.55245 | -154.34277 | 39505 ft | 502 kts | 75° |
| 2026-05-05 02:20 | 60.56322 | -154.27533 | 39614 ft | 502 kts | 75° |
| 2026-05-05 02:21 | 60.57396 | -154.20783 | 39731 ft | 502 kts | 75° |
| 2026-05-05 02:21 | 60.58468 | -154.14016 | 39840 ft | 502 kts | 75° |
| 2026-05-05 02:21 | 60.59521 | -154.07339 | 39953 ft | 502 kts | 75° |
| 2026-05-05 02:22 | 60.61646 | -153.93776 | 40084 ft | 504 kts | 76° |
| 2026-05-05 02:22 | 60.63760 | -153.80173 | 40276 ft | 504 kts | 76° |
| 2026-05-05 02:22 | 60.64815 | -153.73348 | 40421 ft | 504 kts | 76° |
| 2026-05-05 02:23 | 60.65862 | -153.66546 | 40526 ft | 504 kts | 76° |
| 2026-05-05 02:23 | 60.67935 | -153.52995 | 40694 ft | 504 kts | 76° |
| 2026-05-05 02:24 | 60.70008 | -153.39335 | 40741 ft | 504 kts | 76° |
| 2026-05-05 02:24 | 60.72069 | -153.25651 | 40754 ft | 504 kts | 76° |
| 2026-05-05 02:25 | 60.74115 | -153.11957 | 40745 ft | 504 kts | 76° |
| 2026-05-05 02:25 | 60.76132 | -152.98348 | 40767 ft | 504 kts | 76° |
| 2026-05-05 02:26 | 60.78149 | -152.84628 | 40773 ft | 503 kts | 77° |
| 2026-05-05 02:26 | 60.80149 | -152.70904 | 40785 ft | 503 kts | 77° |
| 2026-05-05 02:27 | 60.82137 | -152.57145 | 40789 ft | 503 kts | 77° |
| 2026-05-05 02:27 | 60.84096 | -152.43484 | 40787 ft | 503 kts | 77° |
| 2026-05-05 02:28 | 60.86055 | -152.29698 | 40786 ft | 503 kts | 77° |
| 2026-05-05 02:28 | 60.88001 | -152.15898 | 40777 ft | 504 kts | 77° |
| 2026-05-05 02:29 | 60.89939 | -152.02022 | 40795 ft | 507 kts | 77° |
| 2026-05-05 02:29 | 60.91861 | -151.88154 | 40795 ft | 509 kts | 77° |
| 2026-05-05 02:30 | 60.93783 | -151.74163 | 40796 ft | 508 kts | 78° |
| 2026-05-05 02:30 | 60.95680 | -151.60238 | 40788 ft | 508 kts | 78° |
| 2026-05-05 02:31 | 60.97526 | -151.46566 | 40790 ft | 508 kts | 78° |
| 2026-05-05 02:31 | 60.99405 | -151.32526 | 40774 ft | 508 kts | 78° |
| 2026-05-05 02:32 | 61.01253 | -151.18590 | 40762 ft | 508 kts | 78° |
| 2026-05-05 02:32 | 61.03102 | -151.04521 | 40782 ft | 508 kts | 78° |
| 2026-05-05 02:33 | 61.04934 | -150.90457 | 40779 ft | 508 kts | 78° |
| 2026-05-05 02:33 | 61.06753 | -150.76355 | 40801 ft | 508 kts | 79° |
| 2026-05-05 02:34 | 61.08543 | -150.62356 | 40799 ft | 508 kts | 79° |
| 2026-05-05 02:34 | 61.10332 | -150.48233 | 40798 ft | 508 kts | 79° |
| 2026-05-05 02:35 | 61.12104 | -150.34113 | 40822 ft | 508 kts | 79° |
| 2026-05-05 02:35 | 61.13865 | -150.19952 | 40823 ft | 508 kts | 79° |
| 2026-05-05 02:36 | 61.15598 | -150.05876 | 40815 ft | 508 kts | 79° |
| 2026-05-05 02:36 | 61.17859 | -149.91973 | 40827 ft | 513 kts | 68° |
| 2026-05-05 02:37 | 61.20948 | -149.78618 | 40814 ft | 514 kts | 67° |
| 2026-05-05 02:37 | 61.24154 | -149.65329 | 40814 ft | 515 kts | 66° |
| 2026-05-05 02:38 | 61.27333 | -149.52112 | 40815 ft | 515 kts | 66° |
| 2026-05-05 02:38 | 61.30511 | -149.38735 | 40821 ft | 516 kts | 67° |
| 2026-05-05 02:39 | 61.33667 | -149.25324 | 40825 ft | 516 kts | 67° |
| 2026-05-05 02:39 | 61.36809 | -149.11893 | 40807 ft | 516 kts | 68° |
| 2026-05-05 02:40 | 61.39917 | -148.98516 | 40817 ft | 516 kts | 68° |
| 2026-05-05 02:40 | 61.43035 | -148.85025 | 40805 ft | 516 kts | 68° |
| 2026-05-05 02:41 | 61.46138 | -148.71516 | 40819 ft | 516 kts | 68° |
| 2026-05-05 02:41 | 61.49227 | -148.57975 | 40838 ft | 515 kts | 68° |
| 2026-05-05 02:42 | 61.52277 | -148.44516 | 40839 ft | 515 kts | 68° |
| 2026-05-05 02:42 | 61.55337 | -148.30927 | 40836 ft | 515 kts | 68° |
| 2026-05-05 02:43 | 61.58387 | -148.17303 | 40837 ft | 515 kts | 69° |
| 2026-05-05 02:43 | 61.61420 | -148.03671 | 40852 ft | 515 kts | 69° |
| 2026-05-05 02:44 | 61.64419 | -147.90104 | 40826 ft | 515 kts | 69° |
| 2026-05-05 02:44 | 61.67427 | -147.76428 | 40854 ft | 515 kts | 69° |
| 2026-05-05 02:45 | 61.70415 | -147.62711 | 40868 ft | 515 kts | 70° |
| 2026-05-05 02:45 | 61.73388 | -147.48974 | 40866 ft | 515 kts | 70° |
| 2026-05-05 02:46 | 61.76330 | -147.35302 | 40861 ft | 516 kts | 70° |
| 2026-05-05 02:46 | 61.79298 | -147.21415 | 40863 ft | 521 kts | 70° |
| 2026-05-05 02:47 | 61.82265 | -147.07463 | 40869 ft | 520 kts | 70° |
| 2026-05-05 02:47 | 61.85216 | -146.93488 | 40867 ft | 519 kts | 70° |
| 2026-05-05 02:48 | 61.88146 | -146.79513 | 40874 ft | 519 kts | 70° |
| 2026-05-05 02:48 | 61.91042 | -146.65600 | 40853 ft | 519 kts | 70° |
| 2026-05-05 02:49 | 61.93954 | -146.51512 | 40893 ft | 522 kts | 70° |
| 2026-05-05 02:49 | 61.96862 | -146.37349 | 40891 ft | 523 kts | 71° |
| 2026-05-05 02:50 | 61.99761 | -146.23139 | 40906 ft | 523 kts | 71° |
| 2026-05-05 02:50 | 62.02623 | -146.09016 | 40909 ft | 523 kts | 71° |
| 2026-05-05 02:51 | 62.05487 | -145.94775 | 40904 ft | 523 kts | 70° |
| 2026-05-05 02:51 | 62.08335 | -145.80516 | 40906 ft | 522 kts | 71° |
| 2026-05-05 02:52 | 62.11149 | -145.66331 | 40913 ft | 522 kts | 71° |
| 2026-05-05 02:52 | 62.13964 | -145.52040 | 40892 ft | 522 kts | 71° |
| 2026-05-05 02:53 | 62.16841 | -145.37766 | 40895 ft | 524 kts | 68° |
| 2026-05-05 02:53 | 62.20215 | -145.23931 | 40911 ft | 525 kts | 64° |
| 2026-05-05 02:54 | 62.23675 | -145.10186 | 40926 ft | 523 kts | 65° |
| 2026-05-05 02:54 | 62.27021 | -144.96459 | 40914 ft | 522 kts | 66° |
| 2026-05-05 02:55 | 62.30324 | -144.82575 | 40918 ft | 522 kts | 66° |
| 2026-05-05 02:55 | 62.33601 | -144.68648 | 40916 ft | 522 kts | 66° |
| 2026-05-05 02:56 | 62.36868 | -144.54690 | 40905 ft | 522 kts | 66° |
| 2026-05-05 02:56 | 62.40121 | -144.40711 | 40909 ft | 522 kts | 66° |
| 2026-05-05 02:57 | 62.43340 | -144.26798 | 40911 ft | 522 kts | 67° |
| 2026-05-05 02:57 | 62.46571 | -144.12735 | 40910 ft | 522 kts | 67° |
| 2026-05-05 02:58 | 62.49785 | -143.98653 | 40914 ft | 522 kts | 67° |
| 2026-05-05 02:58 | 62.52987 | -143.84536 | 40869 ft | 522 kts | 67° |
| 2026-05-05 02:59 | 62.56157 | -143.70464 | 40910 ft | 526 kts | 67° |
| 2026-05-05 02:59 | 62.59359 | -143.56155 | 40908 ft | 527 kts | 68° |
| 2026-05-05 03:00 | 62.62544 | -143.41834 | 40914 ft | 527 kts | 68° |
| 2026-05-05 03:00 | 62.65714 | -143.27485 | 40919 ft | 527 kts | 68° |
| 2026-05-05 03:01 | 62.68873 | -143.13090 | 40914 ft | 526 kts | 68° |
| 2026-05-05 03:01 | 62.71989 | -142.98779 | 40919 ft | 527 kts | 68° |
| 2026-05-05 03:02 | 62.75121 | -142.84302 | 40920 ft | 528 kts | 68° |
| 2026-05-05 03:02 | 62.78238 | -142.69796 | 40919 ft | 528 kts | 68° |
| 2026-05-05 03:03 | 62.81341 | -142.55248 | 40908 ft | 528 kts | 68° |
| 2026-05-05 03:03 | 62.84407 | -142.40777 | 40864 ft | 528 kts | 68° |
| 2026-05-05 03:04 | 62.87473 | -142.26210 | 40841 ft | 526 kts | 68° |
| 2026-05-05 03:04 | 62.90523 | -142.11618 | 40844 ft | 526 kts | 68° |
| 2026-05-05 03:05 | 62.93499 | -141.96941 | 40841 ft | 524 kts | 73° |
| 2026-05-05 03:05 | 62.95037 | -141.81488 | 40841 ft | 515 kts | 88° |
| 2026-05-05 03:06 | 62.95656 | -141.65928 | 40846 ft | 515 kts | 90° |
| 2026-05-05 03:06 | 62.96125 | -141.50237 | 40878 ft | 515 kts | 91° |
| 2026-05-05 03:07 | 62.96579 | -141.34514 | 40875 ft | 516 kts | 90° |
| 2026-05-05 03:07 | 62.97040 | -141.18759 | 40876 ft | 517 kts | 90° |
| 2026-05-05 03:08 | 62.97489 | -141.03105 | 40869 ft | 517 kts | 91° |
| 2026-05-05 03:08 | 62.97926 | -140.87311 | 40879 ft | 518 kts | 91° |
| 2026-05-05 03:09 | 62.98345 | -140.71502 | 40867 ft | 517 kts | 91° |
| 2026-05-05 03:09 | 62.98746 | -140.55708 | 40864 ft | 517 kts | 91° |
| 2026-05-05 03:10 | 62.99129 | -140.39896 | 40867 ft | 517 kts | 91° |
| 2026-05-05 03:10 | 62.99491 | -140.24204 | 40851 ft | 517 kts | 91° |
| 2026-05-05 03:11 | 62.99838 | -140.08409 | 40839 ft | 517 kts | 91° |
| 2026-05-05 03:11 | 63.00195 | -139.92562 | 40850 ft | 519 kts | 90° |
| 2026-05-05 03:12 | 63.00745 | -139.76684 | 40857 ft | 520 kts | 89° |
| 2026-05-05 03:12 | 63.01320 | -139.60922 | 40857 ft | 521 kts | 89° |
| 2026-05-05 03:13 | 63.01855 | -139.45014 | 40856 ft | 520 kts | 90° |
| 2026-05-05 03:13 | 63.02348 | -139.29122 | 40851 ft | 521 kts | 90° |
| 2026-05-05 03:14 | 63.02820 | -139.13188 | 40848 ft | 521 kts | 90° |
| 2026-05-05 03:14 | 63.03272 | -138.97365 | 40839 ft | 521 kts | 90° |
| 2026-05-05 03:15 | 63.03711 | -138.81405 | 40844 ft | 522 kts | 90° |
| 2026-05-05 03:15 | 63.04133 | -138.65427 | 40849 ft | 522 kts | 91° |
| 2026-05-05 03:16 | 63.04537 | -138.49442 | 40838 ft | 522 kts | 91° |
| 2026-05-05 03:16 | 63.04919 | -138.33567 | 40837 ft | 522 kts | 91° |
| 2026-05-05 03:17 | 63.05287 | -138.17537 | 40839 ft | 524 kts | 91° |
| 2026-05-05 03:17 | 63.05638 | -138.01474 | 40832 ft | 525 kts | 91° |
| 2026-05-05 03:18 | 63.05971 | -137.85376 | 40831 ft | 525 kts | 91° |
| 2026-05-05 03:18 | 63.06283 | -137.69405 | 40860 ft | 525 kts | 91° |
| 2026-05-05 03:19 | 63.06721 | -137.45277 | 40852 ft | 525 kts | 92° |
| 2026-05-05 03:19 | 63.06990 | -137.29181 | 40890 ft | 525 kts | 92° |
| 2026-05-05 03:20 | 63.07241 | -137.13072 | 40883 ft | 527 kts | 92° |
| 2026-05-05 03:20 | 63.07473 | -136.97009 | 40900 ft | 528 kts | 92° |
| 2026-05-05 03:21 | 63.07688 | -136.80814 | 40918 ft | 529 kts | 92° |
| 2026-05-05 03:21 | 63.07885 | -136.64596 | 40923 ft | 529 kts | 92° |
| 2026-05-05 03:22 | 63.08064 | -136.48363 | 40935 ft | 529 kts | 92° |
| 2026-05-05 03:22 | 63.08226 | -136.32129 | 40954 ft | 529 kts | 92° |
| 2026-05-05 03:23 | 63.08366 | -136.16000 | 40952 ft | 529 kts | 92° |
| 2026-05-05 03:23 | 63.08470 | -135.99724 | 40986 ft | 532 kts | 92° |
| 2026-05-05 03:24 | 63.08584 | -135.83380 | 40968 ft | 532 kts | 92° |
| 2026-05-05 03:24 | 63.08680 | -135.67051 | 40984 ft | 533 kts | 92° |
| 2026-05-05 03:25 | 63.08755 | -135.50712 | 40980 ft | 532 kts | 93° |
| 2026-05-05 03:25 | 63.08802 | -135.34491 | 40983 ft | 532 kts | 93° |
| 2026-05-05 03:26 | 63.08830 | -135.18146 | 40976 ft | 532 kts | 93° |
| 2026-05-05 03:26 | 63.08842 | -135.01785 | 40975 ft | 534 kts | 93° |
| 2026-05-05 03:27 | 63.08824 | -134.85405 | 40971 ft | 534 kts | 93° |
| 2026-05-05 03:27 | 63.08802 | -134.69107 | 40962 ft | 535 kts | 93° |
| 2026-05-05 03:28 | 63.08760 | -134.52653 | 40963 ft | 536 kts | 93° |
| 2026-05-05 03:28 | 63.08697 | -134.36200 | 40957 ft | 536 kts | 93° |
| 2026-05-05 03:29 | 63.08614 | -134.19732 | 40957 ft | 536 kts | 93° |
| 2026-05-05 03:29 | 63.08511 | -134.03397 | 40956 ft | 536 kts | 93° |
| 2026-05-05 03:30 | 63.08390 | -133.86930 | 40955 ft | 537 kts | 93° |
| 2026-05-05 03:30 | 63.08251 | -133.70466 | 40945 ft | 537 kts | 93° |
| 2026-05-05 03:31 | 63.08090 | -133.53979 | 40954 ft | 538 kts | 93° |
| 2026-05-05 03:31 | 63.07911 | -133.37580 | 40957 ft | 538 kts | 93° |
| 2026-05-05 03:32 | 63.07713 | -133.21097 | 40955 ft | 538 kts | 94° |
| 2026-05-05 03:32 | 63.07495 | -133.04587 | 40958 ft | 538 kts | 94° |
| 2026-05-05 03:33 | 63.07260 | -132.88103 | 40964 ft | 538 kts | 93° |
| 2026-05-05 03:33 | 63.07005 | -132.71718 | 40965 ft | 538 kts | 93° |
| 2026-05-05 03:34 | 63.06729 | -132.55230 | 40976 ft | 538 kts | 93° |
| 2026-05-05 03:34 | 63.06434 | -132.38731 | 40981 ft | 539 kts | 94° |
| 2026-05-05 03:35 | 63.06120 | -132.22212 | 40985 ft | 539 kts | 94° |
| 2026-05-05 03:35 | 63.05789 | -132.05809 | 41000 ft | 539 kts | 94° |
| 2026-05-05 03:36 | 63.05437 | -131.89328 | 41000 ft | 538 kts | 93° |
| 2026-05-05 03:36 | 63.05067 | -131.72856 | 41031 ft | 537 kts | 93° |
| 2026-05-05 03:37 | 63.04678 | -131.56430 | 41021 ft | 537 kts | 93° |
| 2026-05-05 03:37 | 63.04268 | -131.39961 | 41036 ft | 539 kts | 94° |
| 2026-05-05 03:38 | 63.03840 | -131.23578 | 41062 ft | 539 kts | 94° |
| 2026-05-05 03:38 | 63.03394 | -131.07112 | 41061 ft | 539 kts | 94° |
| 2026-05-05 03:39 | 63.02928 | -130.90649 | 41095 ft | 538 kts | 94° |
| 2026-05-05 03:39 | 63.02443 | -130.74239 | 41090 ft | 536 kts | 93° |
| 2026-05-05 03:40 | 63.01941 | -130.57969 | 41080 ft | 536 kts | 94° |
| 2026-05-05 03:40 | 63.01422 | -130.41624 | 41095 ft | 536 kts | 94° |
| 2026-05-05 03:41 | 63.00883 | -130.25246 | 41094 ft | 536 kts | 94° |
| 2026-05-05 03:41 | 63.00325 | -130.08888 | 41096 ft | 536 kts | 94° |
| 2026-05-05 03:42 | 62.99708 | -129.92642 | 41122 ft | 536 kts | 96° |
| 2026-05-05 03:42 | 62.98680 | -129.76403 | 41118 ft | 536 kts | 99° |
| 2026-05-05 03:43 | 62.97539 | -129.60201 | 41123 ft | 536 kts | 98° |
| 2026-05-05 03:43 | 62.96433 | -129.43977 | 41129 ft | 537 kts | 98° |
| 2026-05-05 03:44 | 62.95354 | -129.27844 | 41121 ft | 537 kts | 98° |
| 2026-05-05 03:44 | 62.94259 | -129.11614 | 41129 ft | 538 kts | 98° |
| 2026-05-05 03:45 | 62.93143 | -128.95372 | 41137 ft | 537 kts | 98° |
| 2026-05-05 03:45 | 62.92008 | -128.79170 | 41134 ft | 537 kts | 98° |
| 2026-05-05 03:46 | 62.90853 | -128.62973 | 41154 ft | 536 kts | 98° |
| 2026-05-05 03:46 | 62.89692 | -128.46953 | 41157 ft | 536 kts | 98° |
| 2026-05-05 03:47 | 62.88502 | -128.30807 | 41157 ft | 536 kts | 98° |
| 2026-05-05 03:47 | 62.87294 | -128.14687 | 41167 ft | 536 kts | 98° |
| 2026-05-05 03:48 | 62.86068 | -127.98587 | 41179 ft | 537 kts | 98° |
| 2026-05-05 03:48 | 62.84831 | -127.82599 | 41168 ft | 536 kts | 98° |
| 2026-05-05 03:49 | 62.83569 | -127.66516 | 41164 ft | 536 kts | 99° |
| 2026-05-05 03:49 | 62.82289 | -127.50447 | 41172 ft | 536 kts | 98° |
| 2026-05-05 03:50 | 62.80990 | -127.34405 | 41166 ft | 536 kts | 99° |
| 2026-05-05 03:50 | 62.79679 | -127.18490 | 41161 ft | 536 kts | 99° |
| 2026-05-05 03:51 | 62.78344 | -127.02476 | 41160 ft | 535 kts | 99° |
| 2026-05-05 03:51 | 62.76995 | -126.86501 | 41137 ft | 536 kts | 99° |
| 2026-05-05 03:52 | 62.75624 | -126.70486 | 41136 ft | 536 kts | 99° |
| 2026-05-05 03:52 | 62.74245 | -126.54627 | 41115 ft | 536 kts | 99° |
| 2026-05-05 03:53 | 62.72836 | -126.38657 | 41098 ft | 535 kts | 99° |
| 2026-05-05 03:53 | 62.71409 | -126.22703 | 41105 ft | 536 kts | 99° |
| 2026-05-05 03:54 | 62.69965 | -126.06770 | 41097 ft | 536 kts | 99° |
| 2026-05-05 03:54 | 62.68504 | -125.90858 | 41098 ft | 536 kts | 99° |
| 2026-05-05 03:55 | 62.67034 | -125.75074 | 41098 ft | 536 kts | 99° |
| 2026-05-05 03:55 | 62.65537 | -125.59196 | 41099 ft | 536 kts | 99° |
| 2026-05-05 03:56 | 62.64021 | -125.43322 | 41116 ft | 536 kts | 99° |
| 2026-05-05 03:56 | 62.62489 | -125.27489 | 41102 ft | 534 kts | 99° |
| 2026-05-05 03:57 | 62.60956 | -125.11835 | 41122 ft | 533 kts | 99° |
| 2026-05-05 03:57 | 62.59394 | -124.96098 | 41124 ft | 534 kts | 99° |
| 2026-05-05 03:58 | 62.57814 | -124.80365 | 41124 ft | 534 kts | 99° |
| 2026-05-05 03:58 | 62.56216 | -124.64642 | 41142 ft | 534 kts | 99° |
| 2026-05-05 03:59 | 62.54611 | -124.49046 | 41137 ft | 533 kts | 99° |
| 2026-05-05 03:59 | 62.52979 | -124.33373 | 41181 ft | 533 kts | 99° |
| 2026-05-05 04:00 | 62.51331 | -124.17724 | 41152 ft | 534 kts | 99° |
| 2026-05-05 04:00 | 62.49659 | -124.02033 | 41153 ft | 535 kts | 100° |
| 2026-05-05 04:01 | 62.47970 | -123.86376 | 41155 ft | 534 kts | 100° |
| 2026-05-05 04:01 | 62.46277 | -123.70850 | 41151 ft | 534 kts | 100° |
| 2026-05-05 04:02 | 62.44554 | -123.55227 | 41164 ft | 535 kts | 100° |
| 2026-05-05 04:02 | 62.42811 | -123.39597 | 41183 ft | 535 kts | 100° |
| 2026-05-05 04:03 | 62.41049 | -123.23983 | 41208 ft | 536 kts | 100° |
| 2026-05-05 04:03 | 62.39281 | -123.08479 | 41196 ft | 537 kts | 100° |
| 2026-05-05 04:04 | 62.37479 | -122.92844 | 41206 ft | 538 kts | 100° |
| 2026-05-05 04:04 | 62.35659 | -122.77234 | 41202 ft | 538 kts | 100° |
| 2026-05-05 04:05 | 62.33820 | -122.61630 | 41209 ft | 538 kts | 100° |
| 2026-05-05 04:05 | 62.31974 | -122.46123 | 41208 ft | 538 kts | 101° |
| 2026-05-05 04:06 | 62.30100 | -122.30556 | 41208 ft | 538 kts | 101° |
| 2026-05-05 04:06 | 62.28206 | -122.14979 | 41232 ft | 539 kts | 101° |
| 2026-05-05 04:07 | 62.26291 | -121.99396 | 41212 ft | 540 kts | 101° |
| 2026-05-05 04:07 | 62.24356 | -121.83809 | 41219 ft | 540 kts | 101° |
| 2026-05-05 04:08 | 62.22419 | -121.68377 | 41208 ft | 539 kts | 101° |
| 2026-05-05 04:08 | 62.20455 | -121.52883 | 41226 ft | 539 kts | 101° |
| 2026-05-05 04:09 | 62.18475 | -121.37409 | 41223 ft | 539 kts | 101° |
| 2026-05-05 04:09 | 62.16477 | -121.21951 | 41230 ft | 539 kts | 101° |
| 2026-05-05 04:10 | 62.14474 | -121.06610 | 41232 ft | 538 kts | 102° |
| 2026-05-05 04:10 | 62.12448 | -120.91255 | 41239 ft | 536 kts | 101° |
| 2026-05-05 04:11 | 62.10410 | -120.75942 | 41240 ft | 536 kts | 102° |
| 2026-05-05 04:11 | 62.08354 | -120.60647 | 41247 ft | 536 kts | 102° |
| 2026-05-05 04:12 | 62.06297 | -120.45484 | 41250 ft | 536 kts | 102° |
| 2026-05-05 04:12 | 62.04208 | -120.30232 | 41249 ft | 536 kts | 102° |
| 2026-05-05 04:13 | 62.02102 | -120.14999 | 41253 ft | 536 kts | 102° |
| 2026-05-05 04:13 | 61.99813 | -119.99874 | 41265 ft | 539 kts | 109° |
| 2026-05-05 04:14 | 61.96575 | -119.85457 | 41257 ft | 541 kts | 113° |
| 2026-05-05 04:14 | 61.93170 | -119.71334 | 41255 ft | 541 kts | 114° |
| 2026-05-05 04:15 | 61.89697 | -119.57135 | 41259 ft | 542 kts | 114° |
| 2026-05-05 04:15 | 61.86226 | -119.42967 | 41259 ft | 542 kts | 114° |
| 2026-05-05 04:16 | 61.82750 | -119.28822 | 41268 ft | 542 kts | 113° |
| 2026-05-05 04:16 | 61.79285 | -119.14794 | 41273 ft | 542 kts | 113° |
| 2026-05-05 04:17 | 61.75775 | -119.00679 | 41271 ft | 543 kts | 114° |
| 2026-05-05 04:17 | 61.72249 | -118.86594 | 41270 ft | 543 kts | 114° |
| 2026-05-05 04:18 | 61.68709 | -118.72543 | 41271 ft | 543 kts | 114° |
| 2026-05-05 04:18 | 61.65181 | -118.58627 | 41276 ft | 543 kts | 114° |
| 2026-05-05 04:19 | 61.61611 | -118.44633 | 41276 ft | 543 kts | 114° |
| 2026-05-05 04:19 | 61.58028 | -118.30678 | 41276 ft | 543 kts | 114° |
| 2026-05-05 04:20 | 61.54429 | -118.16748 | 41282 ft | 543 kts | 114° |
| 2026-05-05 04:20 | 61.50839 | -118.02939 | 41281 ft | 543 kts | 114° |
| 2026-05-05 04:21 | 61.47211 | -117.89072 | 41291 ft | 543 kts | 115° |
| 2026-05-05 04:21 | 61.43581 | -117.75285 | 41289 ft | 541 kts | 115° |
| 2026-05-05 04:22 | 61.39943 | -117.61547 | 41302 ft | 540 kts | 115° |
| 2026-05-05 04:22 | 61.36323 | -117.47961 | 41303 ft | 539 kts | 115° |
| 2026-05-05 04:23 | 61.32664 | -117.34306 | 41309 ft | 539 kts | 115° |
| 2026-05-05 04:23 | 61.28991 | -117.20689 | 41319 ft | 539 kts | 115° |
| 2026-05-05 04:24 | 61.25313 | -117.07134 | 41316 ft | 538 kts | 115° |
| 2026-05-05 04:25 | 61.19797 | -116.86957 | 41319 ft | 538 kts | 116° |
| 2026-05-05 04:25 | 61.16081 | -116.73467 | 41324 ft | 538 kts | 116° |
| 2026-05-05 04:26 | 61.12357 | -116.60025 | 41322 ft | 538 kts | 116° |
| 2026-05-05 04:26 | 61.08622 | -116.46624 | 41329 ft | 537 kts | 116° |
| 2026-05-05 04:27 | 61.05027 | -116.33801 | 41324 ft | 536 kts | 116° |
| 2026-05-05 04:27 | 61.01291 | -116.20551 | 41313 ft | 536 kts | 116° |
| 2026-05-05 04:28 | 60.97529 | -116.07284 | 41302 ft | 536 kts | 116° |
| 2026-05-05 04:28 | 60.93751 | -115.94040 | 41288 ft | 537 kts | 116° |
| 2026-05-05 04:29 | 60.89985 | -115.80912 | 41284 ft | 536 kts | 117° |
| 2026-05-05 04:29 | 60.86183 | -115.67738 | 41284 ft | 536 kts | 117° |
| 2026-05-05 04:30 | 60.82368 | -115.54590 | 41289 ft | 536 kts | 117° |
| 2026-05-05 04:30 | 60.78541 | -115.41479 | 41327 ft | 537 kts | 117° |
| 2026-05-05 04:31 | 60.74698 | -115.28390 | 41320 ft | 536 kts | 117° |
| 2026-05-05 04:31 | 60.70883 | -115.15473 | 41323 ft | 534 kts | 117° |
| 2026-05-05 04:32 | 60.67031 | -115.02498 | 41322 ft | 534 kts | 117° |
| 2026-05-05 04:32 | 60.63168 | -114.89559 | 41327 ft | 534 kts | 117° |
| 2026-05-05 04:33 | 60.59296 | -114.76663 | 41311 ft | 534 kts | 117° |
| 2026-05-05 04:33 | 60.55432 | -114.63868 | 41326 ft | 534 kts | 118° |
| 2026-05-05 04:34 | 60.51532 | -114.51024 | 41324 ft | 534 kts | 118° |
| 2026-05-05 04:34 | 60.47624 | -114.38226 | 41323 ft | 534 kts | 118° |
| 2026-05-05 04:35 | 60.43700 | -114.25443 | 41334 ft | 533 kts | 118° |
| 2026-05-05 04:35 | 60.39777 | -114.12738 | 41311 ft | 532 kts | 118° |
| 2026-05-05 04:36 | 60.35876 | -114.00171 | 41312 ft | 532 kts | 118° |
| 2026-05-05 04:36 | 60.31936 | -113.87547 | 41311 ft | 531 kts | 118° |
| 2026-05-05 04:37 | 60.27984 | -113.74953 | 41312 ft | 531 kts | 118° |
| 2026-05-05 04:37 | 60.24024 | -113.62402 | 41311 ft | 531 kts | 118° |
| 2026-05-05 04:38 | 60.20045 | -113.49859 | 41310 ft | 531 kts | 119° |
| 2026-05-05 04:38 | 60.16088 | -113.37452 | 41311 ft | 531 kts | 119° |
| 2026-05-05 04:39 | 60.12090 | -113.24984 | 41308 ft | 531 kts | 119° |
| 2026-05-05 04:39 | 60.08087 | -113.12570 | 41308 ft | 529 kts | 119° |
| 2026-05-05 04:40 | 60.04111 | -113.00300 | 41309 ft | 528 kts | 119° |
| 2026-05-05 04:40 | 60.00100 | -112.87988 | 41306 ft | 528 kts | 120° |
| 2026-05-05 04:41 | 59.96078 | -112.75706 | 41308 ft | 528 kts | 120° |
| 2026-05-05 04:41 | 59.92045 | -112.63459 | 41313 ft | 528 kts | 120° |
| 2026-05-05 04:42 | 59.87998 | -112.51231 | 41316 ft | 528 kts | 120° |
| 2026-05-05 04:42 | 59.83971 | -112.39127 | 41300 ft | 528 kts | 120° |
| 2026-05-05 04:43 | 59.79908 | -112.26977 | 41301 ft | 528 kts | 120° |
| 2026-05-05 04:43 | 59.75826 | -112.14835 | 41320 ft | 528 kts | 120° |
| 2026-05-05 04:44 | 59.71742 | -112.02749 | 41314 ft | 527 kts | 120° |
| 2026-05-05 04:44 | 59.67685 | -111.90808 | 41312 ft | 526 kts | 120° |
| 2026-05-05 04:45 | 59.63590 | -111.78811 | 41311 ft | 526 kts | 120° |
| 2026-05-05 04:45 | 59.59483 | -111.66842 | 41312 ft | 526 kts | 121° |
| 2026-05-05 04:46 | 59.55366 | -111.54904 | 41314 ft | 526 kts | 121° |
| 2026-05-05 04:46 | 59.51261 | -111.43063 | 41302 ft | 526 kts | 121° |
| 2026-05-05 04:47 | 59.47126 | -111.31195 | 41303 ft | 526 kts | 121° |
| 2026-05-05 04:47 | 59.42975 | -111.19340 | 41304 ft | 526 kts | 121° |
| 2026-05-05 04:48 | 59.38819 | -111.07528 | 41293 ft | 525 kts | 121° |
| 2026-05-05 04:48 | 59.34657 | -110.95765 | 41299 ft | 524 kts | 121° |
| 2026-05-05 04:49 | 59.30520 | -110.84125 | 41290 ft | 524 kts | 121° |
| 2026-05-05 04:49 | 59.26346 | -110.72440 | 41285 ft | 524 kts | 121° |
| 2026-05-05 04:50 | 59.22159 | -110.60776 | 41278 ft | 524 kts | 121° |
| 2026-05-05 04:50 | 59.17964 | -110.49148 | 41280 ft | 524 kts | 122° |
| 2026-05-05 04:51 | 59.13783 | -110.37615 | 41280 ft | 524 kts | 122° |
| 2026-05-05 04:51 | 59.09566 | -110.26042 | 41273 ft | 524 kts | 122° |
| 2026-05-05 04:52 | 59.05340 | -110.14498 | 41289 ft | 524 kts | 122° |
| 2026-05-05 04:52 | 59.01119 | -110.03004 | 41273 ft | 522 kts | 121° |
| 2026-05-05 04:53 | 58.97436 | -109.90957 | 41275 ft | 519 kts | 115° |
| 2026-05-05 04:53 | 58.93978 | -109.78795 | 41285 ft | 518 kts | 115° |
| 2026-05-05 04:54 | 58.90520 | -109.66552 | 41277 ft | 518 kts | 115° |
| 2026-05-05 04:54 | 58.87043 | -109.54348 | 41288 ft | 518 kts | 115° |
| 2026-05-05 04:55 | 58.83545 | -109.42168 | 41284 ft | 518 kts | 115° |
| 2026-05-05 04:55 | 58.80055 | -109.30095 | 41285 ft | 519 kts | 115° |
| 2026-05-05 04:56 | 58.76531 | -109.17968 | 41300 ft | 518 kts | 116° |
| 2026-05-05 04:56 | 58.73002 | -109.05886 | 41280 ft | 517 kts | 116° |
| 2026-05-05 04:57 | 58.69465 | -108.93839 | 41291 ft | 517 kts | 116° |
| 2026-05-05 04:57 | 58.65944 | -108.81906 | 41299 ft | 517 kts | 116° |
| 2026-05-05 04:58 | 58.62385 | -108.69904 | 41284 ft | 517 kts | 116° |
| 2026-05-05 04:58 | 58.58815 | -108.57933 | 41307 ft | 517 kts | 116° |
| 2026-05-05 04:59 | 58.55842 | -108.48007 | 41305 ft | 517 kts | 116° |
| 2026-05-05 04:59 | 58.51666 | -108.34140 | 41300 ft | 517 kts | 116° |
| 2026-05-05 05:00 | 58.48065 | -108.22247 | 41296 ft | 517 kts | 116° |
| 2026-05-05 05:00 | 58.44453 | -108.10379 | 41313 ft | 517 kts | 116° |
| 2026-05-05 05:01 | 58.41441 | -108.00525 | 41288 ft | 517 kts | 116° |
| 2026-05-05 05:01 | 58.37806 | -107.88690 | 41285 ft | 517 kts | 116° |
| 2026-05-05 05:02 | 58.33569 | -107.74973 | 41282 ft | 517 kts | 117° |
| 2026-05-05 05:02 | 58.30530 | -107.65182 | 41282 ft | 517 kts | 117° |
| 2026-05-05 05:03 | 58.26867 | -107.53436 | 41283 ft | 517 kts | 117° |
| 2026-05-05 05:03 | 58.23192 | -107.41710 | 41272 ft | 516 kts | 117° |
| 2026-05-05 05:04 | 58.19510 | -107.30021 | 41265 ft | 516 kts | 117° |
| 2026-05-05 05:04 | 58.15819 | -107.18360 | 41262 ft | 516 kts | 117° |
| 2026-05-05 05:05 | 58.12142 | -107.06799 | 41266 ft | 516 kts | 117° |
| 2026-05-05 05:05 | 58.08428 | -106.95181 | 41259 ft | 516 kts | 117° |
| 2026-05-05 05:06 | 58.04707 | -106.83597 | 41253 ft | 516 kts | 117° |
| 2026-05-05 05:06 | 58.00972 | -106.72027 | 41260 ft | 516 kts | 118° |
| 2026-05-05 05:07 | 57.97237 | -106.60514 | 41249 ft | 515 kts | 118° |
| 2026-05-05 05:07 | 57.93518 | -106.49105 | 41244 ft | 514 kts | 118° |
| 2026-05-05 05:08 | 57.89768 | -106.37658 | 41243 ft | 514 kts | 118° |
| 2026-05-05 05:08 | 57.86007 | -106.26231 | 41236 ft | 514 kts | 118° |
| 2026-05-05 05:09 | 57.82236 | -106.14829 | 41237 ft | 514 kts | 118° |
| 2026-05-05 05:09 | 57.78485 | -106.03540 | 41227 ft | 514 kts | 118° |
| 2026-05-05 05:10 | 57.74692 | -105.92181 | 41233 ft | 514 kts | 119° |
| 2026-05-05 05:10 | 57.70898 | -105.80874 | 41205 ft | 513 kts | 119° |
| 2026-05-05 05:11 | 57.67124 | -105.69677 | 41207 ft | 512 kts | 119° |
| 2026-05-05 05:11 | 57.63318 | -105.58439 | 41199 ft | 512 kts | 119° |
| 2026-05-05 05:12 | 57.59501 | -105.47221 | 41188 ft | 512 kts | 119° |
| 2026-05-05 05:12 | 57.55670 | -105.36015 | 41184 ft | 512 kts | 119° |
| 2026-05-05 05:13 | 57.51833 | -105.24844 | 41182 ft | 512 kts | 119° |
| 2026-05-05 05:13 | 57.48011 | -105.13767 | 41196 ft | 512 kts | 120° |
| 2026-05-05 05:14 | 57.44162 | -105.02668 | 41182 ft | 511 kts | 120° |
| 2026-05-05 05:14 | 57.40308 | -104.91603 | 41178 ft | 510 kts | 120° |
| 2026-05-05 05:15 | 57.36446 | -104.80563 | 41170 ft | 510 kts | 120° |
| 2026-05-05 05:15 | 57.32597 | -104.69616 | 41174 ft | 510 kts | 120° |
| 2026-05-05 05:16 | 57.28717 | -104.58626 | 41159 ft | 510 kts | 120° |
| 2026-05-05 05:16 | 57.24829 | -104.47667 | 41160 ft | 510 kts | 120° |
| 2026-05-05 05:17 | 57.20955 | -104.36796 | 41166 ft | 510 kts | 121° |
| 2026-05-05 05:17 | 57.17052 | -104.25893 | 41151 ft | 509 kts | 121° |
| 2026-05-05 05:18 | 57.13146 | -104.15031 | 41151 ft | 508 kts | 121° |
| 2026-05-05 05:18 | 57.09234 | -104.04203 | 41143 ft | 508 kts | 121° |
| 2026-05-05 05:19 | 57.05313 | -103.93394 | 41140 ft | 508 kts | 121° |
| 2026-05-05 05:19 | 57.01407 | -103.82677 | 41135 ft | 508 kts | 121° |
| 2026-05-05 05:20 | 56.97465 | -103.71910 | 41129 ft | 508 kts | 121° |
| 2026-05-05 05:20 | 56.93518 | -103.61177 | 41142 ft | 508 kts | 121° |
| 2026-05-05 05:21 | 56.89562 | -103.50467 | 41128 ft | 507 kts | 122° |
| 2026-05-05 05:21 | 56.85624 | -103.39854 | 41113 ft | 507 kts | 122° |
| 2026-05-05 05:22 | 56.81658 | -103.29211 | 41112 ft | 507 kts | 122° |
| 2026-05-05 05:22 | 56.77678 | -103.18578 | 41113 ft | 507 kts | 122° |
| 2026-05-05 05:23 | 56.73689 | -103.07964 | 41103 ft | 507 kts | 122° |
| 2026-05-05 05:23 | 56.69718 | -102.97448 | 41110 ft | 507 kts | 122° |
| 2026-05-05 05:24 | 56.65713 | -102.86889 | 41110 ft | 507 kts | 122° |
| 2026-05-05 05:24 | 56.61698 | -102.76345 | 41093 ft | 507 kts | 122° |
| 2026-05-05 05:25 | 56.57779 | -102.66100 | 41091 ft | 507 kts | 122° |
| 2026-05-05 05:25 | 56.53934 | -102.56091 | 41087 ft | 506 kts | 122° |
| 2026-05-05 05:26 | 56.50129 | -102.46223 | 41081 ft | 506 kts | 122° |
| 2026-05-05 05:26 | 56.46089 | -102.35791 | 41084 ft | 506 kts | 123° |
| 2026-05-05 05:27 | 56.42036 | -102.25374 | 41076 ft | 507 kts | 123° |
| 2026-05-05 05:27 | 56.35969 | -102.09857 | 41067 ft | 506 kts | 123° |
| 2026-05-05 05:28 | 56.31897 | -101.99500 | 41071 ft | 506 kts | 123° |
| 2026-05-05 05:28 | 56.27823 | -101.89181 | 41075 ft | 506 kts | 123° |
| 2026-05-05 05:29 | 56.23741 | -101.78886 | 41061 ft | 506 kts | 123° |
| 2026-05-05 05:29 | 56.19674 | -101.68670 | 41055 ft | 506 kts | 123° |
| 2026-05-05 05:30 | 56.15570 | -101.58406 | 41053 ft | 506 kts | 123° |
| 2026-05-05 05:30 | 56.11457 | -101.48162 | 41054 ft | 506 kts | 123° |
| 2026-05-05 05:31 | 56.07338 | -101.37946 | 41050 ft | 506 kts | 123° |
| 2026-05-05 05:31 | 56.03215 | -101.27763 | 41049 ft | 505 kts | 124° |
| 2026-05-05 05:32 | 55.99113 | -101.17674 | 41045 ft | 505 kts | 124° |
| 2026-05-05 05:32 | 55.94978 | -101.07544 | 41045 ft | 505 kts | 124° |
| 2026-05-05 05:33 | 55.90833 | -100.97433 | 41043 ft | 505 kts | 124° |
| 2026-05-05 05:33 | 55.86678 | -100.87339 | 41040 ft | 505 kts | 124° |
| 2026-05-05 05:34 | 55.82544 | -100.77338 | 41042 ft | 505 kts | 124° |
| 2026-05-05 05:34 | 55.78372 | -100.67286 | 41040 ft | 505 kts | 124° |
| 2026-05-05 05:35 | 55.74193 | -100.57257 | 41032 ft | 505 kts | 124° |
| 2026-05-05 05:35 | 55.70002 | -100.47243 | 41032 ft | 505 kts | 124° |
| 2026-05-05 05:36 | 55.65829 | -100.37310 | 41028 ft | 506 kts | 124° |
| 2026-05-05 05:36 | 55.61622 | -100.27339 | 41023 ft | 505 kts | 124° |
| 2026-05-05 05:37 | 55.57407 | -100.17387 | 41022 ft | 506 kts | 124° |
| 2026-05-05 05:37 | 55.53183 | -100.07455 | 41020 ft | 506 kts | 125° |
| 2026-05-05 05:38 | 55.48989 | -99.97625 | 41008 ft | 505 kts | 124° |
| 2026-05-05 05:38 | 55.44875 | -99.87610 | 41008 ft | 504 kts | 123° |
| 2026-05-05 05:39 | 55.40810 | -99.77547 | 41000 ft | 504 kts | 123° |
| 2026-05-05 05:39 | 55.36726 | -99.67532 | 41001 ft | 504 kts | 123° |
| 2026-05-05 05:40 | 55.32640 | -99.57607 | 41004 ft | 505 kts | 124° |
| 2026-05-05 05:40 | 55.28507 | -99.47629 | 40998 ft | 505 kts | 124° |
| 2026-05-05 05:41 | 55.24373 | -99.37688 | 40996 ft | 505 kts | 124° |
| 2026-05-05 05:41 | 55.20232 | -99.27766 | 40990 ft | 504 kts | 124° |
| 2026-05-05 05:42 | 55.16087 | -99.17875 | 40981 ft | 504 kts | 124° |
| 2026-05-05 05:42 | 55.11956 | -99.08055 | 40983 ft | 504 kts | 124° |
| 2026-05-05 05:43 | 55.07792 | -98.98196 | 40965 ft | 504 kts | 124° |
| 2026-05-05 05:43 | 55.03621 | -98.88362 | 40971 ft | 504 kts | 124° |
| 2026-05-05 05:44 | 54.99439 | -98.78539 | 40963 ft | 504 kts | 124° |
| 2026-05-05 05:44 | 54.95281 | -98.68813 | 40960 ft | 504 kts | 124° |
| 2026-05-05 05:45 | 54.91089 | -98.59043 | 40953 ft | 504 kts | 125° |
| 2026-05-05 05:45 | 54.86888 | -98.49292 | 40945 ft | 504 kts | 125° |
| 2026-05-05 05:46 | 54.82676 | -98.39555 | 40940 ft | 504 kts | 125° |
| 2026-05-05 05:46 | 54.78461 | -98.29848 | 40938 ft | 504 kts | 125° |
| 2026-05-05 05:47 | 54.74264 | -98.20222 | 40932 ft | 504 kts | 125° |
| 2026-05-05 05:47 | 54.70029 | -98.10543 | 40938 ft | 504 kts | 125° |
| 2026-05-05 05:48 | 54.65789 | -98.00895 | 40927 ft | 504 kts | 125° |
| 2026-05-05 05:48 | 54.61572 | -97.91333 | 40922 ft | 504 kts | 126° |
| 2026-05-05 05:49 | 54.57319 | -97.81728 | 40917 ft | 504 kts | 126° |
| 2026-05-05 05:49 | 54.53059 | -97.72144 | 40911 ft | 504 kts | 126° |
| 2026-05-05 05:50 | 54.48789 | -97.62576 | 40909 ft | 504 kts | 126° |
| 2026-05-05 05:50 | 54.44509 | -97.53020 | 40908 ft | 505 kts | 126° |
| 2026-05-05 05:51 | 54.40245 | -97.43537 | 40898 ft | 505 kts | 126° |
| 2026-05-05 05:51 | 54.35950 | -97.34023 | 40897 ft | 504 kts | 126° |
| 2026-05-05 05:52 | 54.31652 | -97.24538 | 40886 ft | 504 kts | 126° |
| 2026-05-05 05:52 | 54.27338 | -97.15054 | 40888 ft | 504 kts | 126° |
| 2026-05-05 05:53 | 54.23020 | -97.05596 | 40884 ft | 505 kts | 127° |
| 2026-05-05 05:53 | 54.18714 | -96.96201 | 40878 ft | 505 kts | 126° |
| 2026-05-05 05:54 | 54.14373 | -96.86765 | 40877 ft | 506 kts | 126° |
| 2026-05-05 05:54 | 54.10017 | -96.77335 | 40874 ft | 506 kts | 127° |
| 2026-05-05 05:55 | 54.05665 | -96.67947 | 40865 ft | 505 kts | 127° |
| 2026-05-05 05:55 | 54.01328 | -96.58625 | 40863 ft | 506 kts | 127° |
| 2026-05-05 05:56 | 53.96951 | -96.49253 | 40853 ft | 507 kts | 127° |
| 2026-05-05 05:56 | 53.92568 | -96.39906 | 40854 ft | 506 kts | 127° |
| 2026-05-05 05:57 | 53.88173 | -96.30567 | 40854 ft | 507 kts | 127° |
| 2026-05-05 05:57 | 53.83797 | -96.21303 | 40840 ft | 507 kts | 127° |
| 2026-05-05 05:58 | 53.79389 | -96.12006 | 40839 ft | 506 kts | 127° |
| 2026-05-05 05:58 | 53.74971 | -96.02722 | 40828 ft | 507 kts | 127° |
| 2026-05-05 05:59 | 53.70537 | -95.93439 | 40828 ft | 508 kts | 128° |
| 2026-05-05 05:59 | 53.66099 | -95.84184 | 40828 ft | 507 kts | 127° |
| 2026-05-05 06:00 | 53.61691 | -95.75023 | 40822 ft | 507 kts | 127° |
| 2026-05-05 06:00 | 53.57236 | -95.65799 | 40822 ft | 508 kts | 128° |
| 2026-05-05 06:01 | 53.52779 | -95.56606 | 40811 ft | 506 kts | 128° |
| 2026-05-05 06:01 | 53.48317 | -95.47435 | 40813 ft | 508 kts | 128° |
| 2026-05-05 06:02 | 53.43868 | -95.38326 | 40813 ft | 508 kts | 128° |
| 2026-05-05 06:02 | 53.39393 | -95.29196 | 40806 ft | 507 kts | 128° |
| 2026-05-05 06:03 | 53.34966 | -95.20198 | 40807 ft | 508 kts | 128° |
| 2026-05-05 06:03 | 53.30465 | -95.11082 | 40809 ft | 508 kts | 129° |
| 2026-05-05 06:04 | 53.26000 | -95.02071 | 40798 ft | 506 kts | 128° |
| 2026-05-05 06:04 | 53.21507 | -94.93037 | 40798 ft | 506 kts | 128° |
| 2026-05-05 06:05 | 53.16998 | -94.84001 | 40799 ft | 506 kts | 129° |
| 2026-05-05 06:05 | 53.12491 | -94.75004 | 40803 ft | 506 kts | 129° |
| 2026-05-05 06:06 | 53.08001 | -94.66074 | 40790 ft | 507 kts | 129° |
| 2026-05-05 06:06 | 53.03468 | -94.57092 | 40796 ft | 507 kts | 129° |
| 2026-05-05 06:07 | 52.98934 | -94.48139 | 40796 ft | 506 kts | 129° |
| 2026-05-05 06:07 | 52.94391 | -94.39196 | 40788 ft | 508 kts | 129° |
| 2026-05-05 06:08 | 52.89836 | -94.30265 | 40787 ft | 507 kts | 129° |
| 2026-05-05 06:08 | 52.85304 | -94.21409 | 40779 ft | 507 kts | 129° |
| 2026-05-05 06:09 | 52.80733 | -94.12511 | 40780 ft | 508 kts | 129° |
| 2026-05-05 06:09 | 52.76153 | -94.03640 | 40784 ft | 507 kts | 129° |
| 2026-05-05 06:10 | 52.71578 | -93.94791 | 40771 ft | 507 kts | 129° |
| 2026-05-05 06:10 | 52.67021 | -93.86004 | 40776 ft | 507 kts | 130° |
| 2026-05-05 06:11 | 52.62436 | -93.77202 | 40764 ft | 506 kts | 129° |
| 2026-05-05 06:11 | 52.57835 | -93.68400 | 40763 ft | 508 kts | 130° |
| 2026-05-05 06:12 | 52.53224 | -93.59610 | 40766 ft | 508 kts | 130° |
| 2026-05-05 06:12 | 52.48612 | -93.50850 | 40755 ft | 507 kts | 130° |
| 2026-05-05 06:13 | 52.44023 | -93.42164 | 40758 ft | 508 kts | 130° |
| 2026-05-05 06:13 | 52.39387 | -93.33419 | 40747 ft | 507 kts | 130° |
| 2026-05-05 06:14 | 52.34757 | -93.24716 | 40746 ft | 507 kts | 130° |
| 2026-05-05 06:14 | 52.30118 | -93.16027 | 40736 ft | 508 kts | 130° |
| 2026-05-05 06:15 | 52.25500 | -93.07407 | 40737 ft | 507 kts | 130° |
| 2026-05-05 06:15 | 52.20849 | -92.98756 | 40738 ft | 508 kts | 130° |
| 2026-05-05 06:16 | 52.16177 | -92.90089 | 40734 ft | 509 kts | 131° |
| 2026-05-05 06:16 | 52.11530 | -92.81507 | 40733 ft | 508 kts | 131° |
| 2026-05-05 06:17 | 52.06852 | -92.72896 | 40727 ft | 509 kts | 131° |
| 2026-05-05 06:17 | 52.02165 | -92.64296 | 40722 ft | 508 kts | 131° |
| 2026-05-05 06:18 | 51.97473 | -92.55716 | 40722 ft | 508 kts | 131° |
| 2026-05-05 06:18 | 51.92799 | -92.47198 | 40717 ft | 510 kts | 131° |
| 2026-05-05 06:19 | 51.88088 | -92.38642 | 40713 ft | 508 kts | 131° |
| 2026-05-05 06:19 | 51.83377 | -92.30116 | 40713 ft | 509 kts | 131° |
| 2026-05-05 06:20 | 51.78651 | -92.21591 | 40712 ft | 509 kts | 131° |
| 2026-05-05 06:20 | 51.73918 | -92.13081 | 40710 ft | 509 kts | 132° |
| 2026-05-05 06:21 | 51.69204 | -92.04637 | 40715 ft | 511 kts | 132° |
| 2026-05-05 06:21 | 51.64447 | -91.96143 | 40709 ft | 510 kts | 132° |
| 2026-05-05 06:22 | 51.59696 | -91.87684 | 40702 ft | 509 kts | 132° |
| 2026-05-05 06:22 | 51.54934 | -91.79234 | 40700 ft | 510 kts | 132° |
| 2026-05-05 06:23 | 51.50197 | -91.70863 | 40698 ft | 510 kts | 133° |
| 2026-05-05 06:23 | 51.45412 | -91.62436 | 40702 ft | 512 kts | 133° |
| 2026-05-05 06:24 | 51.40614 | -91.54014 | 40699 ft | 511 kts | 133° |
| 2026-05-05 06:24 | 51.35822 | -91.45628 | 40688 ft | 511 kts | 133° |
| 2026-05-05 06:25 | 51.31048 | -91.37297 | 40688 ft | 512 kts | 133° |
| 2026-05-05 06:25 | 51.26230 | -91.28925 | 40686 ft | 511 kts | 133° |
| 2026-05-05 06:26 | 51.21412 | -91.20580 | 40682 ft | 512 kts | 134° |
| 2026-05-05 06:26 | 51.16580 | -91.12235 | 40682 ft | 512 kts | 133° |
| 2026-05-05 06:27 | 51.09365 | -90.99836 | 40683 ft | 512 kts | 134° |
| 2026-05-05 06:28 | 51.04514 | -90.91527 | 40674 ft | 512 kts | 134° |
| 2026-05-05 06:28 | 50.99673 | -90.83262 | 40669 ft | 511 kts | 134° |
| 2026-05-05 06:29 | 50.94827 | -90.75016 | 40663 ft | 511 kts | 134° |
| 2026-05-05 06:29 | 50.90009 | -90.66843 | 40663 ft | 510 kts | 134° |
| 2026-05-05 06:30 | 50.85152 | -90.58632 | 40666 ft | 511 kts | 134° |
| 2026-05-05 06:30 | 50.80283 | -90.50430 | 40657 ft | 511 kts | 134° |
| 2026-05-05 06:31 | 50.75416 | -90.42256 | 40656 ft | 511 kts | 135° |
| 2026-05-05 06:31 | 50.70561 | -90.34132 | 40641 ft | 512 kts | 135° |
| 2026-05-05 06:32 | 50.65673 | -90.25984 | 40648 ft | 511 kts | 135° |
| 2026-05-05 06:32 | 50.60782 | -90.17846 | 40640 ft | 512 kts | 135° |
| 2026-05-05 06:33 | 50.55876 | -90.09709 | 40640 ft | 512 kts | 135° |
| 2026-05-05 06:33 | 50.51008 | -90.01664 | 40639 ft | 511 kts | 135° |
| 2026-05-05 06:34 | 50.46047 | -89.93649 | 40631 ft | 512 kts | 137° |
| 2026-05-05 06:34 | 50.40981 | -89.85838 | 40625 ft | 510 kts | 137° |
| 2026-05-05 06:35 | 50.35901 | -89.78051 | 40631 ft | 512 kts | 137° |
| 2026-05-05 06:35 | 50.30830 | -89.70224 | 40630 ft | 511 kts | 137° |
| 2026-05-05 06:36 | 50.25801 | -89.62460 | 40626 ft | 512 kts | 137° |
| 2026-05-05 06:36 | 50.20732 | -89.54658 | 40624 ft | 511 kts | 137° |
| 2026-05-05 06:37 | 50.15658 | -89.46879 | 40625 ft | 512 kts | 137° |
| 2026-05-05 06:37 | 50.10567 | -89.39101 | 40616 ft | 512 kts | 137° |
| 2026-05-05 06:38 | 50.05504 | -89.31389 | 40615 ft | 513 kts | 137° |
| 2026-05-05 06:38 | 50.00402 | -89.23642 | 40611 ft | 513 kts | 137° |
| 2026-05-05 06:39 | 49.95302 | -89.15921 | 40605 ft | 512 kts | 138° |
| 2026-05-05 06:39 | 49.90190 | -89.08208 | 40604 ft | 512 kts | 137° |
| 2026-05-05 06:40 | 49.85110 | -89.00566 | 40608 ft | 512 kts | 138° |
| 2026-05-05 06:40 | 49.79990 | -88.92889 | 40609 ft | 512 kts | 138° |
| 2026-05-05 06:41 | 49.74872 | -88.85237 | 40603 ft | 512 kts | 138° |
| 2026-05-05 06:41 | 49.69740 | -88.77588 | 40603 ft | 512 kts | 138° |
| 2026-05-05 06:42 | 49.64644 | -88.70017 | 40593 ft | 512 kts | 138° |
| 2026-05-05 06:42 | 49.59500 | -88.62397 | 40594 ft | 512 kts | 138° |
| 2026-05-05 06:43 | 49.54357 | -88.54801 | 40585 ft | 512 kts | 138° |
| 2026-05-05 06:43 | 49.49213 | -88.47229 | 40582 ft | 512 kts | 139° |
| 2026-05-05 06:44 | 49.44086 | -88.39704 | 40584 ft | 513 kts | 139° |
| 2026-05-05 06:44 | 49.38917 | -88.32141 | 40578 ft | 513 kts | 139° |
| 2026-05-05 06:45 | 49.33746 | -88.24599 | 40575 ft | 513 kts | 139° |
| 2026-05-05 06:45 | 49.28571 | -88.17073 | 40565 ft | 513 kts | 139° |
| 2026-05-05 06:46 | 49.23384 | -88.09552 | 40576 ft | 515 kts | 139° |
| 2026-05-05 06:46 | 49.18213 | -88.02079 | 40567 ft | 515 kts | 139° |
| 2026-05-05 06:47 | 49.12998 | -87.94563 | 40572 ft | 515 kts | 139° |
| 2026-05-05 06:47 | 49.07783 | -87.87071 | 40564 ft | 515 kts | 139° |
| 2026-05-05 06:48 | 49.02591 | -87.79634 | 40563 ft | 516 kts | 139° |
| 2026-05-05 06:48 | 48.97361 | -87.72164 | 40568 ft | 516 kts | 139° |
| 2026-05-05 06:49 | 48.92122 | -87.64705 | 40564 ft | 515 kts | 139° |
| 2026-05-05 06:49 | 48.86885 | -87.57270 | 40566 ft | 515 kts | 139° |
| 2026-05-05 06:50 | 48.81673 | -87.49895 | 40559 ft | 515 kts | 139° |
| 2026-05-05 06:50 | 48.76428 | -87.42494 | 40566 ft | 515 kts | 140° |
| 2026-05-05 06:51 | 48.71175 | -87.35103 | 40559 ft | 515 kts | 140° |
| 2026-05-05 06:51 | 48.65926 | -87.27741 | 40567 ft | 514 kts | 140° |
| 2026-05-05 06:52 | 48.60683 | -87.20408 | 40563 ft | 514 kts | 140° |
| 2026-05-05 06:52 | 48.55463 | -87.13131 | 40570 ft | 515 kts | 140° |
| 2026-05-05 06:53 | 48.50192 | -87.05804 | 40566 ft | 515 kts | 140° |
| 2026-05-05 06:53 | 48.44924 | -86.98501 | 40570 ft | 515 kts | 140° |
| 2026-05-05 06:54 | 48.39655 | -86.91219 | 40580 ft | 513 kts | 140° |
| 2026-05-05 06:54 | 48.34390 | -86.83964 | 40579 ft | 513 kts | 140° |
| 2026-05-05 06:55 | 48.29153 | -86.76770 | 40584 ft | 514 kts | 140° |
| 2026-05-05 06:55 | 48.23876 | -86.69540 | 40588 ft | 514 kts | 140° |
| 2026-05-05 06:56 | 48.18598 | -86.62331 | 40588 ft | 514 kts | 140° |
| 2026-05-05 06:56 | 48.13428 | -86.55288 | 40583 ft | 514 kts | 141° |
| 2026-05-05 06:57 | 48.08170 | -86.48148 | 40591 ft | 513 kts | 141° |
| 2026-05-05 06:57 | 48.02884 | -86.40989 | 40588 ft | 513 kts | 141° |
| 2026-05-05 06:58 | 47.97587 | -86.33837 | 40595 ft | 513 kts | 141° |
| 2026-05-05 06:58 | 47.92292 | -86.26707 | 40588 ft | 513 kts | 141° |
| 2026-05-05 06:59 | 47.87019 | -86.19629 | 40590 ft | 513 kts | 141° |
| 2026-05-05 06:59 | 47.81718 | -86.12532 | 40597 ft | 512 kts | 141° |
| 2026-05-05 07:00 | 47.76417 | -86.05456 | 40598 ft | 512 kts | 141° |
| 2026-05-05 07:00 | 47.71118 | -85.98403 | 40604 ft | 512 kts | 141° |
| 2026-05-05 07:01 | 47.65847 | -85.91407 | 40586 ft | 512 kts | 141° |
| 2026-05-05 07:01 | 47.60542 | -85.84386 | 40585 ft | 511 kts | 142° |
| 2026-05-05 07:02 | 47.55233 | -85.77379 | 40596 ft | 511 kts | 142° |
| 2026-05-05 07:02 | 47.49926 | -85.70394 | 40590 ft | 510 kts | 142° |
| 2026-05-05 07:03 | 47.44623 | -85.63434 | 40597 ft | 510 kts | 142° |
| 2026-05-05 07:03 | 47.39308 | -85.56479 | 40600 ft | 510 kts | 142° |
| 2026-05-05 07:04 | 47.34030 | -85.49592 | 40604 ft | 510 kts | 142° |
| 2026-05-05 07:04 | 47.28712 | -85.42671 | 40593 ft | 510 kts | 142° |
| 2026-05-05 07:05 | 47.23387 | -85.35760 | 40611 ft | 510 kts | 142° |
| 2026-05-05 07:05 | 47.18059 | -85.28865 | 40614 ft | 510 kts | 142° |
| 2026-05-05 07:06 | 47.12762 | -85.22029 | 40620 ft | 510 kts | 142° |
| 2026-05-05 07:06 | 47.07420 | -85.15154 | 40610 ft | 510 kts | 143° |
| 2026-05-05 07:07 | 47.02080 | -85.08300 | 40635 ft | 511 kts | 143° |
| 2026-05-05 07:07 | 46.96728 | -85.01450 | 40631 ft | 511 kts | 143° |
| 2026-05-05 07:08 | 46.91379 | -84.94623 | 40631 ft | 511 kts | 143° |
| 2026-05-05 07:08 | 46.86055 | -84.87846 | 40631 ft | 510 kts | 143° |
| 2026-05-05 07:09 | 46.80695 | -84.81043 | 40629 ft | 511 kts | 143° |
| 2026-05-05 07:09 | 46.75318 | -84.74237 | 40623 ft | 512 kts | 143° |
| 2026-05-05 07:10 | 46.69936 | -84.67442 | 40619 ft | 511 kts | 143° |
| 2026-05-05 07:10 | 46.64596 | -84.60717 | 40616 ft | 510 kts | 144° |
| 2026-05-05 07:11 | 46.59225 | -84.53973 | 40616 ft | 510 kts | 144° |
| 2026-05-05 07:11 | 46.53844 | -84.47237 | 40618 ft | 510 kts | 144° |
| 2026-05-05 07:12 | 46.48468 | -84.40525 | 40618 ft | 510 kts | 144° |
| 2026-05-05 07:12 | 46.43099 | -84.33805 | 40601 ft | 511 kts | 142° |
| 2026-05-05 07:13 | 46.38413 | -84.26038 | 40597 ft | 519 kts | 132° |
| 2026-05-05 07:13 | 46.34083 | -84.17657 | 40596 ft | 520 kts | 130° |
| 2026-05-05 07:14 | 46.29810 | -84.09210 | 40609 ft | 521 kts | 130° |
| 2026-05-05 07:14 | 46.25515 | -84.00777 | 40605 ft | 520 kts | 131° |
| 2026-05-05 07:15 | 46.21235 | -83.92444 | 40623 ft | 520 kts | 131° |
| 2026-05-05 07:15 | 46.16904 | -83.84056 | 40615 ft | 521 kts | 132° |
| 2026-05-05 07:16 | 46.12565 | -83.75677 | 40617 ft | 521 kts | 132° |
| 2026-05-05 07:16 | 46.08220 | -83.67309 | 40618 ft | 521 kts | 132° |
| 2026-05-05 07:17 | 46.03874 | -83.58962 | 40618 ft | 521 kts | 132° |
| 2026-05-05 07:17 | 45.99547 | -83.50677 | 40619 ft | 521 kts | 132° |
| 2026-05-05 07:18 | 45.95190 | -83.42359 | 40626 ft | 521 kts | 133° |
| 2026-05-05 07:18 | 45.90823 | -83.34044 | 40622 ft | 521 kts | 133° |
| 2026-05-05 07:19 | 45.86452 | -83.25747 | 40619 ft | 521 kts | 133° |
| 2026-05-05 07:19 | 45.82104 | -83.17518 | 40622 ft | 520 kts | 133° |
| 2026-05-05 07:20 | 45.77727 | -83.09260 | 40622 ft | 520 kts | 133° |
| 2026-05-05 07:20 | 45.73344 | -83.01015 | 40615 ft | 520 kts | 133° |
| 2026-05-05 07:21 | 45.68955 | -82.92784 | 40596 ft | 520 kts | 133° |
| 2026-05-05 07:21 | 45.64598 | -82.84633 | 40609 ft | 519 kts | 133° |
| 2026-05-05 07:22 | 45.60209 | -82.76449 | 40600 ft | 519 kts | 133° |
| 2026-05-05 07:22 | 45.55816 | -82.68280 | 40600 ft | 519 kts | 133° |
| 2026-05-05 07:23 | 45.51413 | -82.60117 | 40603 ft | 519 kts | 133° |
| 2026-05-05 07:23 | 45.47101 | -82.52144 | 40601 ft | 519 kts | 133° |
| 2026-05-05 07:24 | 45.42719 | -82.44067 | 40606 ft | 519 kts | 133° |
| 2026-05-05 07:24 | 45.38304 | -82.35949 | 40600 ft | 519 kts | 133° |
| 2026-05-05 07:25 | 45.33880 | -82.27839 | 40609 ft | 519 kts | 134° |
| 2026-05-05 07:25 | 45.29460 | -82.19759 | 40591 ft | 517 kts | 134° |
| 2026-05-05 07:26 | 45.25088 | -82.11786 | 40611 ft | 514 kts | 134° |
| 2026-05-05 07:26 | 45.20694 | -82.03799 | 40612 ft | 513 kts | 134° |
| 2026-05-05 07:27 | 45.16302 | -81.95842 | 40612 ft | 513 kts | 134° |
| 2026-05-05 07:27 | 45.11900 | -81.87888 | 40612 ft | 513 kts | 134° |
| 2026-05-05 07:28 | 45.07524 | -81.80000 | 40607 ft | 513 kts | 134° |
| 2026-05-05 07:28 | 45.03120 | -81.72084 | 40613 ft | 512 kts | 134° |
| 2026-05-05 07:29 | 44.98713 | -81.64184 | 40611 ft | 512 kts | 134° |
| 2026-05-05 07:29 | 44.94298 | -81.56294 | 40599 ft | 512 kts | 134° |
| 2026-05-05 07:30 | 44.89911 | -81.48473 | 40602 ft | 511 kts | 134° |
| 2026-05-05 07:30 | 44.83279 | -81.36691 | 40591 ft | 512 kts | 134° |
| 2026-05-05 07:31 | 44.78849 | -81.28850 | 40583 ft | 512 kts | 134° |
| 2026-05-05 07:31 | 44.74411 | -81.21015 | 40575 ft | 512 kts | 134° |
| 2026-05-05 07:32 | 44.69971 | -81.13196 | 40576 ft | 512 kts | 134° |
| 2026-05-05 07:32 | 44.65551 | -81.05435 | 40594 ft | 512 kts | 134° |
| 2026-05-05 07:33 | 44.61096 | -80.97635 | 40577 ft | 512 kts | 134° |
| 2026-05-05 07:33 | 44.56642 | -80.89856 | 40564 ft | 512 kts | 134° |
| 2026-05-05 07:34 | 44.52177 | -80.82080 | 40572 ft | 512 kts | 134° |
| 2026-05-05 07:34 | 44.47709 | -80.74320 | 40562 ft | 512 kts | 134° |
| 2026-05-05 07:35 | 44.43266 | -80.66623 | 40562 ft | 512 kts | 134° |
| 2026-05-05 07:35 | 44.38789 | -80.58889 | 40556 ft | 511 kts | 134° |
| 2026-05-05 07:36 | 44.34306 | -80.51165 | 40559 ft | 511 kts | 135° |
| 2026-05-05 07:36 | 44.29844 | -80.43500 | 40559 ft | 512 kts | 135° |
| 2026-05-05 07:37 | 44.25349 | -80.35797 | 40568 ft | 512 kts | 135° |
| 2026-05-05 07:37 | 44.20844 | -80.28096 | 40564 ft | 512 kts | 135° |
| 2026-05-05 07:38 | 44.16333 | -80.20407 | 40572 ft | 512 kts | 134° |
| 2026-05-05 07:38 | 44.11847 | -80.12781 | 40577 ft | 513 kts | 135° |
| 2026-05-05 07:39 | 44.07317 | -80.05102 | 40583 ft | 514 kts | 135° |
| 2026-05-05 07:39 | 44.02773 | -79.97418 | 40579 ft | 514 kts | 135° |
| 2026-05-05 07:40 | 43.98224 | -79.89744 | 40584 ft | 515 kts | 135° |
| 2026-05-05 07:40 | 43.93667 | -79.82081 | 40580 ft | 515 kts | 134° |
| 2026-05-05 07:41 | 43.89135 | -79.74477 | 40592 ft | 515 kts | 134° |
| 2026-05-05 07:41 | 43.84572 | -79.66842 | 40599 ft | 514 kts | 134° |
| 2026-05-05 07:42 | 43.80006 | -79.59223 | 40599 ft | 514 kts | 134° |
| 2026-05-05 07:42 | 43.75431 | -79.51610 | 40600 ft | 514 kts | 134° |
| 2026-05-05 07:43 | 43.70887 | -79.44066 | 40598 ft | 513 kts | 134° |
| 2026-05-05 07:43 | 43.66436 | -79.36360 | 40600 ft | 516 kts | 127° |
| 2026-05-05 07:44 | 43.63233 | -79.27441 | 40598 ft | 522 kts | 116° |
| 2026-05-05 07:44 | 43.60655 | -79.18356 | 40605 ft | 523 kts | 114° |
| 2026-05-05 07:45 | 43.58555 | -79.10699 | 40634 ft | 523 kts | 114° |
| 2026-05-05 07:45 | 43.55535 | -78.99817 | 40637 ft | 523 kts | 114° |
| 2026-05-05 07:46 | 43.52940 | -78.90603 | 40642 ft | 523 kts | 114° |
| 2026-05-05 07:46 | 43.50741 | -78.82848 | 40642 ft | 523 kts | 114° |
| 2026-05-05 07:47 | 43.48091 | -78.73536 | 40645 ft | 523 kts | 114° |
| 2026-05-05 07:47 | 43.45432 | -78.64226 | 40646 ft | 523 kts | 114° |
| 2026-05-05 07:48 | 43.42768 | -78.54924 | 40650 ft | 522 kts | 114° |
| 2026-05-05 07:48 | 43.40113 | -78.45692 | 40656 ft | 522 kts | 114° |
| 2026-05-05 07:49 | 43.37434 | -78.36410 | 40661 ft | 522 kts | 114° |
| 2026-05-05 07:49 | 43.34748 | -78.27136 | 40668 ft | 522 kts | 115° |
| 2026-05-05 07:50 | 43.32056 | -78.17878 | 40674 ft | 522 kts | 115° |
| 2026-05-05 07:50 | 43.28959 | -78.08905 | 40682 ft | 519 kts | 122° |
| 2026-05-05 07:51 | 43.25455 | -78.00337 | 40687 ft | 518 kts | 123° |
| 2026-05-05 07:51 | 43.21859 | -77.91773 | 40691 ft | 518 kts | 123° |
| 2026-05-05 07:52 | 43.18257 | -77.83216 | 40690 ft | 519 kts | 123° |
| 2026-05-05 07:52 | 43.14655 | -77.74650 | 40711 ft | 518 kts | 123° |
| 2026-05-05 07:53 | 43.11078 | -77.66157 | 40711 ft | 518 kts | 123° |
| 2026-05-05 07:53 | 43.07477 | -77.57630 | 40703 ft | 518 kts | 123° |
| 2026-05-05 07:54 | 43.03877 | -77.49127 | 40712 ft | 515 kts | 123° |
| 2026-05-05 07:54 | 43.00282 | -77.40665 | 40727 ft | 515 kts | 123° |
| 2026-05-05 07:55 | 42.96680 | -77.32213 | 40730 ft | 515 kts | 123° |
| 2026-05-05 07:55 | 42.93095 | -77.23824 | 40731 ft | 515 kts | 123° |
| 2026-05-05 07:56 | 42.89487 | -77.15403 | 40722 ft | 513 kts | 123° |
| 2026-05-05 07:56 | 42.85856 | -77.07050 | 40748 ft | 512 kts | 124° |
| 2026-05-05 07:57 | 42.82204 | -76.98807 | 40755 ft | 511 kts | 124° |
| 2026-05-05 07:57 | 42.78520 | -76.90519 | 40760 ft | 511 kts | 124° |
| 2026-05-05 07:58 | 42.74847 | -76.82236 | 40741 ft | 511 kts | 124° |
| 2026-05-05 07:58 | 42.71175 | -76.73966 | 40758 ft | 510 kts | 124° |
| 2026-05-05 07:59 | 42.67525 | -76.65770 | 40767 ft | 510 kts | 124° |
| 2026-05-05 07:59 | 42.63848 | -76.57537 | 40759 ft | 510 kts | 124° |
| 2026-05-05 08:00 | 42.60154 | -76.49301 | 40781 ft | 511 kts | 124° |
| 2026-05-05 08:00 | 42.56438 | -76.41039 | 40787 ft | 514 kts | 124° |
| 2026-05-05 08:01 | 42.52733 | -76.32818 | 40787 ft | 514 kts | 124° |
| 2026-05-05 08:01 | 42.48998 | -76.24544 | 40787 ft | 514 kts | 124° |
| 2026-05-05 08:02 | 42.45259 | -76.16293 | 40793 ft | 514 kts | 124° |
| 2026-05-05 08:02 | 42.41509 | -76.08037 | 40802 ft | 514 kts | 124° |
| 2026-05-05 08:03 | 42.37763 | -75.99812 | 40809 ft | 514 kts | 124° |
| 2026-05-05 08:03 | 42.34032 | -75.91644 | 40801 ft | 514 kts | 124° |
| 2026-05-05 08:04 | 42.30268 | -75.83425 | 40807 ft | 515 kts | 124° |
| 2026-05-05 08:04 | 42.26497 | -75.75205 | 40813 ft | 515 kts | 124° |
| 2026-05-05 08:05 | 42.22718 | -75.66994 | 40816 ft | 515 kts | 124° |
| 2026-05-05 08:05 | 42.18958 | -75.58852 | 40829 ft | 515 kts | 124° |
| 2026-05-05 08:06 | 42.15165 | -75.50655 | 40830 ft | 515 kts | 124° |
| 2026-05-05 08:06 | 42.11370 | -75.42476 | 40829 ft | 515 kts | 124° |
| 2026-05-05 08:07 | 42.08766 | -75.36863 | 40839 ft | 516 kts | 124° |
| 2026-05-05 08:07 | 42.06028 | -75.28007 | 40852 ft | 520 kts | 103° |
| 2026-05-05 08:08 | 42.04941 | -75.18368 | 40866 ft | 522 kts | 98° |
| 2026-05-05 08:08 | 42.03960 | -75.08698 | 40864 ft | 522 kts | 98° |
| 2026-05-05 08:09 | 42.02954 | -74.99030 | 40780 ft | 522 kts | 98° |
| 2026-05-05 08:09 | 42.02446 | -74.94199 | 40548 ft | 521 kts | 98° |
| 2026-05-05 08:09 | 42.01935 | -74.89372 | 40299 ft | 521 kts | 98° |
| 2026-05-05 08:10 | 42.01430 | -74.84620 | 40067 ft | 521 kts | 98° |
| 2026-05-05 08:10 | 42.00914 | -74.79792 | 39827 ft | 522 kts | 98° |
| 2026-05-05 08:10 | 42.00396 | -74.74962 | 39581 ft | 522 kts | 98° |
| 2026-05-05 08:10 | 41.99878 | -74.70147 | 39239 ft | 518 kts | 98° |
| 2026-05-05 08:11 | 41.99362 | -74.65375 | 38674 ft | 517 kts | 98° |
| 2026-05-05 08:11 | 41.98842 | -74.60588 | 37907 ft | 518 kts | 98° |
| 2026-05-05 08:11 | 41.98320 | -74.55800 | 37204 ft | 517 kts | 98° |
| 2026-05-05 08:11 | 41.97707 | -74.51109 | 36524 ft | 515 kts | 104° |
| 2026-05-05 08:12 | 41.96559 | -74.46580 | 35819 ft | 512 kts | 116° |
| 2026-05-05 08:12 | 41.94779 | -74.42465 | 35084 ft | 508 kts | 128° |
| 2026-05-05 08:12 | 41.92669 | -74.38669 | 34344 ft | 506 kts | 129° |
| 2026-05-05 08:12 | 41.90521 | -74.34935 | 33496 ft | 506 kts | 129° |
| 2026-05-05 08:13 | 41.88370 | -74.31196 | 32548 ft | 506 kts | 129° |
| 2026-05-05 08:13 | 41.86220 | -74.27451 | 31649 ft | 506 kts | 129° |
| 2026-05-05 08:13 | 41.84074 | -74.23710 | 30743 ft | 507 kts | 129° |
| 2026-05-05 08:13 | 41.81962 | -74.20027 | 30072 ft | 502 kts | 129° |
| 2026-05-05 08:14 | 41.79845 | -74.16337 | 29360 ft | 498 kts | 129° |
| 2026-05-05 08:14 | 41.77748 | -74.12684 | 28706 ft | 491 kts | 129° |
| 2026-05-05 08:14 | 41.75611 | -74.09145 | 28061 ft | 484 kts | 135° |
| 2026-05-05 08:14 | 41.73080 | -74.06278 | 27434 ft | 472 kts | 150° |
| 2026-05-05 08:15 | 41.70157 | -74.04461 | 26803 ft | 460 kts | 166° |
| 2026-05-05 08:15 | 41.67057 | -74.03746 | 26197 ft | 448 kts | 181° |
| 2026-05-05 08:15 | 41.63999 | -74.04083 | 25606 ft | 437 kts | 194° |
| 2026-05-05 08:15 | 41.61021 | -74.04771 | 25011 ft | 433 kts | 191° |
| 2026-05-05 08:16 | 41.58084 | -74.05286 | 24440 ft | 429 kts | 190° |
| 2026-05-05 08:16 | 41.55139 | -74.05761 | 23863 ft | 425 kts | 190° |
| 2026-05-05 08:16 | 41.52210 | -74.06222 | 23252 ft | 422 kts | 190° |
| 2026-05-05 08:16 | 41.49309 | -74.06674 | 22627 ft | 419 kts | 190° |
| 2026-05-05 08:17 | 41.46399 | -74.07128 | 22038 ft | 423 kts | 189° |
| 2026-05-05 08:17 | 41.43481 | -74.07579 | 21467 ft | 421 kts | 189° |
| 2026-05-05 08:17 | 41.40581 | -74.08025 | 20976 ft | 417 kts | 189° |
| 2026-05-05 08:17 | 41.37727 | -74.08505 | 20494 ft | 411 kts | 192° |
| 2026-05-05 08:18 | 41.35055 | -74.09540 | 20033 ft | 402 kts | 206° |
| 2026-05-05 08:18 | 41.32642 | -74.11334 | 19578 ft | 395 kts | 214° |
| 2026-05-05 08:18 | 41.30424 | -74.13232 | 19058 ft | 390 kts | 215° |
| 2026-05-05 08:18 | 41.28169 | -74.15182 | 18455 ft | 384 kts | 214° |
| 2026-05-05 08:19 | 41.25943 | -74.17097 | 17807 ft | 378 kts | 214° |
| 2026-05-05 08:19 | 41.23741 | -74.18983 | 17051 ft | 375 kts | 214° |
| 2026-05-05 08:19 | 41.21551 | -74.20854 | 16248 ft | 374 kts | 214° |
| 2026-05-05 08:19 | 41.19368 | -74.22715 | 15508 ft | 371 kts | 215° |
| 2026-05-05 08:20 | 41.17256 | -74.24512 | 15151 ft | 359 kts | 215° |
| 2026-05-05 08:20 | 41.15187 | -74.26270 | 14860 ft | 346 kts | 215° |
| 2026-05-05 08:20 | 41.13196 | -74.27960 | 14595 ft | 334 kts | 215° |
| 2026-05-05 08:20 | 41.11278 | -74.29587 | 14335 ft | 322 kts | 215° |
| 2026-05-05 08:21 | 41.09425 | -74.31158 | 14084 ft | 311 kts | 215° |
| 2026-05-05 08:21 | 41.07638 | -74.32673 | 13845 ft | 300 kts | 216° |
| 2026-05-05 08:21 | 41.05823 | -74.33973 | 13550 ft | 295 kts | 205° |
| 2026-05-05 08:21 | 41.03817 | -74.34581 | 13099 ft | 299 kts | 187° |
| 2026-05-05 08:22 | 41.01776 | -74.34289 | 12658 ft | 304 kts | 168° |
| 2026-05-05 08:22 | 40.99857 | -74.33073 | 12190 ft | 311 kts | 148° |
| 2026-05-05 08:22 | 40.98406 | -74.30943 | 11734 ft | 317 kts | 123° |
| 2026-05-05 08:22 | 40.97650 | -74.28194 | 11283 ft | 320 kts | 103° |
| 2026-05-05 08:23 | 40.97212 | -74.25304 | 10836 ft | 320 kts | 103° |
| 2026-05-05 08:23 | 40.96800 | -74.22422 | 10385 ft | 319 kts | 102° |
| 2026-05-05 08:23 | 40.96391 | -74.19549 | 10117 ft | 317 kts | 102° |
| 2026-05-05 08:23 | 40.95987 | -74.16683 | 9930 ft | 317 kts | 102° |
| 2026-05-05 08:24 | 40.95589 | -74.13851 | 9609 ft | 317 kts | 102° |
| 2026-05-05 08:24 | 40.95187 | -74.10996 | 9288 ft | 316 kts | 102° |
| 2026-05-05 08:24 | 40.94784 | -74.08145 | 8953 ft | 315 kts | 102° |
| 2026-05-05 08:24 | 40.94382 | -74.05302 | 8608 ft | 314 kts | 102° |
| 2026-05-05 08:25 | 40.93984 | -74.02488 | 8269 ft | 308 kts | 102° |
| 2026-05-05 08:25 | 40.93598 | -73.99734 | 7948 ft | 302 kts | 102° |
| 2026-05-05 08:25 | 40.93226 | -73.97028 | 7615 ft | 297 kts | 102° |
| 2026-05-05 08:25 | 40.92865 | -73.94378 | 7296 ft | 293 kts | 102° |
| 2026-05-05 08:26 | 40.92527 | -73.91867 | 6984 ft | 288 kts | 102° |
| 2026-05-05 08:26 | 40.92186 | -73.89314 | 6674 ft | 284 kts | 102° |
| 2026-05-05 08:26 | 40.91850 | -73.86781 | 6371 ft | 280 kts | 102° |
| 2026-05-05 08:26 | 40.91535 | -73.84376 | 6052 ft | 277 kts | 102° |
| 2026-05-05 08:27 | 40.91209 | -73.81884 | 5722 ft | 275 kts | 102° |
| 2026-05-05 08:27 | 40.90896 | -73.79491 | 5401 ft | 273 kts | 102° |
| 2026-05-05 08:27 | 40.90588 | -73.77140 | 5157 ft | 268 kts | 102° |
| 2026-05-05 08:27 | 40.90277 | -73.74744 | 4974 ft | 261 kts | 102° |
| 2026-05-05 08:28 | 40.89980 | -73.72404 | 4817 ft | 258 kts | 102° |
| 2026-05-05 08:28 | 40.89690 | -73.70099 | 4660 ft | 258 kts | 102° |
| 2026-05-05 08:28 | 40.89398 | -73.67765 | 4510 ft | 258 kts | 102° |
| 2026-05-05 08:28 | 40.89067 | -73.65440 | 4343 ft | 256 kts | 109° |
| 2026-05-05 08:29 | 40.88303 | -73.63381 | 4193 ft | 245 kts | 135° |
| 2026-05-05 08:29 | 40.87008 | -73.62116 | 4035 ft | 223 kts | 170° |
| 2026-05-05 08:29 | 40.85564 | -73.61926 | 3913 ft | 199 kts | 194° |
| 2026-05-05 08:30 | 40.82986 | -73.62456 | 3681 ft | 176 kts | 199° |
| 2026-05-05 08:30 | 40.81851 | -73.62755 | 3609 ft | 161 kts | 202° |
| 2026-05-05 08:30 | 40.80813 | -73.63120 | 3547 ft | 151 kts | 205° |
| 2026-05-05 08:30 | 40.79846 | -73.63623 | 3459 ft | 148 kts | 213° |
| 2026-05-05 08:31 | 40.78937 | -73.64246 | 3287 ft | 146 kts | 216° |
| 2026-05-05 08:31 | 40.78055 | -73.64899 | 3078 ft | 145 kts | 217° |
| 2026-05-05 08:31 | 40.77182 | -73.65552 | 2895 ft | 144 kts | 218° |
| 2026-05-05 08:31 | 40.76321 | -73.66233 | 2699 ft | 145 kts | 218° |
| 2026-05-05 08:32 | 40.75448 | -73.66917 | 2512 ft | 146 kts | 218° |
| 2026-05-05 08:32 | 40.74579 | -73.67597 | 2332 ft | 145 kts | 218° |
| 2026-05-05 08:32 | 40.73735 | -73.68259 | 2135 ft | 140 kts | 217° |
| 2026-05-05 08:32 | 40.72935 | -73.68884 | 1942 ft | 127 kts | 217° |
| 2026-05-05 08:33 | 40.72225 | -73.69440 | 1786 ft | 116 kts | 219° |
| 2026-05-05 08:33 | 40.71542 | -73.69981 | 1645 ft | 115 kts | 219° |
| 2026-05-05 08:33 | 40.70856 | -73.70521 | 1479 ft | 115 kts | 217° |
| 2026-05-05 08:33 | 40.70166 | -73.71064 | 1346 ft | 116 kts | 217° |
| 2026-05-05 08:34 | 40.69477 | -73.71608 | 1187 ft | 116 kts | 216° |
| 2026-05-05 08:34 | 40.68787 | -73.72163 | 1015 ft | 116 kts | 216° |
| 2026-05-05 08:34 | 40.68093 | -73.72697 | 887 ft | 119 kts | 213° |
| 2026-05-05 08:34 | 40.67376 | -73.73246 | 729 ft | 120 kts | 213° |
| 2026-05-05 08:35 | 40.66656 | -73.73811 | 568 ft | 121 kts | 211° |
| 2026-05-05 08:35 | 40.65931 | -73.74385 | 392 ft | 122 kts | 209° |
| 2026-05-05 08:35 | 40.65202 | -73.74957 | 221 ft | 121 kts | 209° |
| 2026-05-05 08:35 | 40.64472 | -73.75526 | 56 ft | 122 kts | 209° |
| 2026-05-05 08:36 | 40.63776 | -73.76072 | 27 ft | 107 kts | 211° |
| 2026-05-05 08:36 | 40.63301 | -73.76443 | 28 ft | 51 kts | 211° |
| 2026-05-05 08:36 | 40.63135 | -73.76573 | 32 ft | 19 kts | 211° |
| 2026-05-05 08:36 | 40.63032 | -73.76689 | 27 ft | 20 kts | 227° |
| 2026-05-05 08:37 | 40.62964 | -73.76812 | 27 ft | 10 kts | 240° |
| 2026-05-05 08:37 | 40.62928 | -73.76905 | 27 ft | 13 kts | 256° |
| 2026-05-05 08:37 | 40.62954 | -73.77023 | 28 ft | 15 kts | 299° |
| 2026-05-05 08:37 | 40.63011 | -73.77153 | 32 ft | 17 kts | 300° |
| 2026-05-05 08:38 | 40.63063 | -73.77267 | 34 ft | 9 kts | 301° |
| 2026-05-05 08:38 | 40.63103 | -73.77353 | 34 ft | 13 kts | 300° |
| 2026-05-05 08:38 | 40.63153 | -73.77466 | 36 ft | 16 kts | 301° |
| 2026-05-05 08:38 | 40.63213 | -73.77600 | 35 ft | 19 kts | 300° |
| 2026-05-05 08:39 | 40.63277 | -73.77741 | 33 ft | 18 kts | 300° |
| 2026-05-05 08:39 | 40.63321 | -73.77837 | 33 ft | 10 kts | 301° |
| 2026-05-05 08:39 | 40.63359 | -73.77909 | 31 ft | 8 kts | 326° |
| 2026-05-05 08:39 | 40.63423 | -73.77891 | 30 ft | 11 kts | 30° |
| 2026-05-05 08:40 | 40.63504 | -73.77829 | 29 ft | 16 kts | 31° |
| 2026-05-05 08:40 | 40.63607 | -73.77750 | 32 ft | 13 kts | 31° |
| 2026-05-05 08:40 | 40.63677 | -73.77695 | 26 ft | 10 kts | 31° |
| 2026-05-05 08:40 | 40.63744 | -73.77668 | 27 ft | 11 kts | 352° |
| 2026-05-05 08:41 | 40.63815 | -73.77722 | 29 ft | 13 kts | 327° |
| 2026-05-05 08:41 | 40.63888 | -73.77788 | 29 ft | 10 kts | 326° |
| 2026-05-05 08:41 | 40.63949 | -73.77841 | 29 ft | 9 kts | 328° |
| 2026-05-05 08:41 | 40.63995 | -73.77882 | 29 ft | 10 kts | 321° |
| 2026-05-05 08:42 | 40.64028 | -73.77937 | 29 ft | 8 kts | 305° |
| 2026-05-05 08:42 | 40.64077 | -73.77996 | 29 ft | 11 kts | 323° |
| 2026-05-05 08:42 | 40.64128 | -73.78034 | 29 ft | 8 kts | 331° |
| 2026-05-05 08:42 | 40.64155 | -73.78075 | 29 ft | 6 kts | 278° |
| 2026-05-05 08:43 | 40.64141 | -73.78124 | 29 ft | 3 kts | 240° |
| 2026-05-05 08:43 | 40.64129 | -73.78150 | 29 ft | 2 kts | 240° |
| 2026-05-05 08:43 | 40.64125 | -73.78160 | 29 ft | 0 kts | 240° |
| 2026-05-05 08:44 | 40.64122 | -73.78166 | 29 ft | 0 kts | 240° |